Time,TemperatureF,DewpointF,PressureIn,WindDirection,WindDirectionDegrees,WindSpeedMPH,WindSpeedGustMPH,Humidity,HourlyPrecipIn,Conditions,Clouds,dailyrainin,SoftwareType,DateUTC
2013-02-05 00:00:00,43.0,36.3,29.27,WSW,247,0.0,0.0,77,0.00,,,0.00,VWS V14.01,2013-02-05 00:00:00,
2013-02-05 00:01:00,43.0,36.3,29.27,WNW,292,0.0,0.0,77,0.00,,,0.00,VWS V14.01,2013-02-05 00:01:00,
2013-02-05 00:02:00,43.0,36.3,29.27,West,270,0.0,0.0,77,0.00,,,0.00,VWS V14.01,2013-02-05 00:02:00,
2013-02-05 00:03:00,42.1,35.4,29.33,NNW,337,0.0,0.0,77,0.00,,,0.00,VWS V14.01,2013-02-05 00:03:00,
2013-02-05 00:04:00,43.2,36.5,29.27,North,0,0.0,0.0,77,0.00,,,0.00,VWS V14.01,2013-02-05 00:04:00,
2013-02-05 00:05:00,43.2,36.5,29.27,WNW,292,0.0,0.0,77,0.00,,,0.00,VWS V14.01,2013-02-05 00:05:00,
2013-02-05 00:06:00,43.2,36.2,29.26,NW,315,0.0,0.0,76,0.00,,,0.00,VWS V14.01,2013-02-05 00:06:00,
2013-02-05 00:07:00,43.2,36.2,29.26,NW,315,0.0,0.0,76,0.00,,,0.00,VWS V14.01,2013-02-05 00:07:00,
2013-02-05 00:08:00,43.2,36.2,29.27,West,270,0.0,0.0,76,0.00,,,0.00,VWS V14.01,2013-02-05 00:08:00,
2013-02-05 00:09:00,42.1,35.4,29.32,WNW,292,0.0,0.0,77,0.00,,,0.00,VWS V14.01,2013-02-05 00:09:00,
2013-02-05 00:10:00,43.2,36.2,29.27,West,270,0.0,0.0,76,0.00,,,0.00,VWS V14.01,2013-02-05 00:10:00,
2013-02-05 00:11:00,43.2,35.8,29.27,WNW,292,0.0,0.0,75,0.00,,,0.00,VWS V14.01,2013-02-05 00:11:00,
2013-02-05 00:12:00,43.2,35.8,29.27,West,270,0.0,0.0,75,0.00,,,0.00,VWS V14.01,2013-02-05 00:12:00,
2013-02-05 00:13:00,43.2,35.8,29.27,North,0,0.0,0.0,75,0.00,,,0.00,VWS V14.01,2013-02-05 00:13:00,
2013-02-05 00:14:00,43.2,35.8,29.27,NNW,337,0.0,0.0,75,0.00,,,0.00,VWS V14.01,2013-02-05 00:14:00,
2013-02-05 00:15:00,42.4,35.7,29.31,West,270,0.0,0.0,77,0.00,,,0.00,VWS V14.01,2013-02-05 00:15:00,
2013-02-05 00:16:00,43.2,35.8,29.27,WNW,292,0.0,0.0,75,0.00,,,0.00,VWS V14.01,2013-02-05 00:16:00,
2013-02-05 00:18:00,43.3,35.9,29.27,WNW,292,0.0,0.0,75,0.00,,,0.00,VWS V14.01,2013-02-05 00:18:00,
2013-02-05 00:20:00,42.4,35.7,29.31,SW,225,0.0,0.0,77,0.00,,,0.00,VWS V14.01,2013-02-05 00:20:00,
2013-02-05 00:21:00,43.3,35.9,29.27,West,270,0.0,0.0,75,0.00,,,0.00,VWS V14.01,2013-02-05 00:21:00,
2013-02-05 00:22:00,43.3,35.9,29.27,West,270,0.0,0.0,75,0.00,,,0.00,VWS V14.01,2013-02-05 00:22:00,
2013-02-05 00:23:00,43.3,35.9,29.27,WNW,292,0.0,0.0,75,0.00,,,0.00,VWS V14.01,2013-02-05 00:23:00,
2013-02-05 00:24:00,43.3,35.9,29.28,WNW,292,0.0,0.0,75,0.00,,,0.00,VWS V14.01,2013-02-05 00:24:00,
2013-02-05 00:25:00,43.3,36.3,29.28,WNW,292,0.0,0.0,76,0.00,,,0.00,VWS V14.01,2013-02-05 00:25:00,
2013-02-05 00:26:00,42.1,35.4,29.31,WSW,247,0.0,0.0,77,0.00,,,0.00,VWS V14.01,2013-02-05 00:26:00,
2013-02-05 00:28:00,43.3,36.3,29.28,WNW,292,0.0,0.0,76,0.00,,,0.00,VWS V14.01,2013-02-05 00:28:00,
2013-02-05 00:29:00,43.2,36.2,29.30,WNW,292,0.0,0.0,76,0.00,,,0.00,VWS V14.01,2013-02-05 00:29:00,
2013-02-05 00:30:00,43.2,36.5,29.30,WNW,292,0.0,0.0,77,0.00,,,0.00,VWS V14.01,2013-02-05 00:30:00,
2013-02-05 00:31:00,43.0,36.3,29.30,North,0,0.0,0.0,77,0.02,,,0.02,VWS V14.01,2013-02-05 00:31:00,
2013-02-05 00:32:00,42.1,35.4,29.30,NW,315,0.0,0.0,77,0.00,,,0.00,VWS V14.01,2013-02-05 00:32:00,
2013-02-05 00:33:00,42.4,36.0,29.31,WNW,292,0.0,0.0,78,0.02,,,0.02,VWS V14.01,2013-02-05 00:33:00,
2013-02-05 00:34:00,42.1,35.8,29.31,NNW,337,0.0,0.0,78,0.04,,,0.04,VWS V14.01,2013-02-05 00:34:00,
2013-02-05 00:35:00,41.7,35.4,29.31,NW,315,0.0,0.0,78,0.04,,,0.04,VWS V14.01,2013-02-05 00:35:00,
2013-02-05 00:36:00,41.5,35.5,29.31,WNW,292,0.0,0.0,79,0.04,,,0.04,VWS V14.01,2013-02-05 00:36:00,
2013-02-05 00:37:00,41.2,35.2,29.31,West,270,0.0,0.0,79,0.04,,,0.04,VWS V14.01,2013-02-05 00:37:00,
2013-02-05 00:38:00,42.4,35.7,29.31,WNW,292,0.0,0.0,77,0.00,,,0.00,VWS V14.01,2013-02-05 00:38:00,
2013-02-05 00:39:00,40.6,34.9,29.29,WNW,292,0.0,0.0,80,0.06,,,0.06,VWS V14.01,2013-02-05 00:39:00,
2013-02-05 00:40:00,40.3,34.6,29.29,NW,315,0.0,0.0,80,0.06,,,0.06,VWS V14.01,2013-02-05 00:40:00,
2013-02-05 00:41:00,40.1,34.8,29.29,North,0,0.0,0.0,81,0.06,,,0.06,VWS V14.01,2013-02-05 00:41:00,
2013-02-05 00:42:00,39.9,34.5,29.29,WNW,292,0.0,0.0,81,0.06,,,0.06,VWS V14.01,2013-02-05 00:42:00,
2013-02-05 00:43:00,39.7,34.4,29.28,WNW,292,0.0,0.0,81,0.06,,,0.06,VWS V14.01,2013-02-05 00:43:00,
2013-02-05 00:44:00,42.6,36.2,29.29,WSW,247,0.0,0.0,78,0.00,,,0.00,VWS V14.01,2013-02-05 00:44:00,
2013-02-05 00:45:00,39.4,34.4,29.28,NW,315,0.0,0.0,82,0.06,,,0.06,VWS V14.01,2013-02-05 00:45:00,
2013-02-05 00:46:00,39.2,34.2,29.28,NW,315,0.0,0.0,82,0.06,,,0.06,VWS V14.01,2013-02-05 00:46:00,
2013-02-05 00:47:00,39.0,34.0,29.28,West,270,0.0,0.0,82,0.06,,,0.06,VWS V14.01,2013-02-05 00:47:00,
2013-02-05 00:48:00,39.0,34.0,29.28,WNW,292,0.0,0.0,82,0.06,,,0.06,VWS V14.01,2013-02-05 00:48:00,
2013-02-05 00:49:00,42.8,36.4,29.29,WNW,292,0.0,0.0,78,0.00,,,0.00,VWS V14.01,2013-02-05 00:49:00,
2013-02-05 00:50:00,38.8,34.1,29.28,NW,315,0.0,0.0,83,0.06,,,0.06,VWS V14.01,2013-02-05 00:50:00,
2013-02-05 00:51:00,38.8,34.1,29.28,WNW,292,0.0,0.0,83,0.06,,,0.06,VWS V14.01,2013-02-05 00:51:00,
2013-02-05 00:52:00,38.8,34.1,29.28,WNW,292,0.0,0.0,83,0.06,,,0.06,VWS V14.01,2013-02-05 00:52:00,
2013-02-05 00:53:00,38.5,33.8,29.28,NW,315,0.0,0.0,83,0.06,,,0.06,VWS V14.01,2013-02-05 00:53:00,
2013-02-05 00:54:00,38.5,33.8,29.28,NNW,337,0.0,0.0,83,0.06,,,0.06,VWS V14.01,2013-02-05 00:54:00,
2013-02-05 00:55:00,43.0,36.6,29.28,ENE,67,0.0,0.0,78,0.00,,,0.00,VWS V14.01,2013-02-05 00:55:00,
2013-02-05 00:56:00,38.5,34.1,29.28,SSW,202,0.0,0.0,84,0.06,,,0.06,VWS V14.01,2013-02-05 00:56:00,
2013-02-05 00:57:00,38.5,34.1,29.28,WNW,292,0.0,0.0,84,0.06,,,0.06,VWS V14.01,2013-02-05 00:57:00,
2013-02-05 00:58:00,38.5,34.1,29.28,North,0,0.0,0.0,84,0.06,,,0.06,VWS V14.01,2013-02-05 00:58:00,
2013-02-05 00:59:00,38.3,34.2,29.28,West,270,0.0,0.0,85,0.06,,,0.06,VWS V14.01,2013-02-05 00:59:00,
2013-02-05 01:00:00,43.0,36.3,29.27,WSW,247,0.0,0.0,77,0.00,,,0.00,VWS V14.01,2013-02-05 01:00:00,
2013-02-05 01:06:00,43.2,36.2,29.26,NW,315,0.0,0.0,76,0.00,,,0.00,VWS V14.01,2013-02-05 01:06:00,
2013-02-05 01:08:00,38.3,34.2,29.28,West,270,0.0,0.0,85,0.06,,,0.06,VWS V14.01,2013-02-05 01:08:00,
2013-02-05 01:09:00,38.1,34.3,29.28,West,270,0.0,0.0,86,0.06,,,0.06,VWS V14.01,2013-02-05 01:09:00,
2013-02-05 01:10:00,38.3,34.5,29.28,SW,225,0.0,0.0,86,0.06,,,0.06,VWS V14.01,2013-02-05 01:10:00,
2013-02-05 01:11:00,43.2,35.8,29.27,WNW,292,0.0,0.0,75,0.00,,,0.00,VWS V14.01,2013-02-05 01:11:00,
2013-02-05 01:12:00,38.3,34.5,29.28,NW,315,0.0,0.0,86,0.06,,,0.06,VWS V14.01,2013-02-05 01:12:00,
2013-02-05 01:13:00,38.3,34.5,29.28,NNW,337,0.0,0.0,86,0.06,,,0.06,VWS V14.01,2013-02-05 01:13:00,
2013-02-05 01:14:00,38.3,34.5,29.28,West,270,0.0,0.0,86,0.06,,,0.06,VWS V14.01,2013-02-05 01:14:00,
2013-02-05 01:15:00,38.3,34.5,29.28,WSW,247,0.0,0.0,86,0.06,,,0.06,VWS V14.01,2013-02-05 01:15:00,
2013-02-05 01:16:00,38.3,34.5,29.28,WNW,292,0.0,0.0,86,0.06,,,0.06,VWS V14.01,2013-02-05 01:16:00,
2013-02-05 01:17:00,43.3,35.9,29.26,ENE,67,0.0,0.0,75,0.00,,,0.00,VWS V14.01,2013-02-05 01:17:00,
2013-02-05 01:18:00,38.5,35.0,29.28,NW,315,0.0,0.0,87,0.06,,,0.06,VWS V14.01,2013-02-05 01:18:00,
2013-02-05 01:19:00,38.5,35.0,29.28,West,270,0.0,0.0,87,0.06,,,0.06,VWS V14.01,2013-02-05 01:19:00,
2013-02-05 01:20:00,38.5,35.0,29.28,WNW,292,0.0,0.0,87,0.06,,,0.06,VWS V14.01,2013-02-05 01:20:00,
2013-02-05 01:21:00,38.5,35.0,29.28,WNW,292,0.0,0.0,87,0.06,,,0.06,VWS V14.01,2013-02-05 01:21:00,
2013-02-05 01:22:00,38.5,35.0,29.28,NW,315,0.0,0.0,87,0.06,,,0.06,VWS V14.01,2013-02-05 01:22:00,
2013-02-05 01:23:00,43.3,35.9,29.27,WNW,292,0.0,0.0,75,0.00,,,0.00,VWS V14.01,2013-02-05 01:23:00,
2013-02-05 01:24:00,38.5,35.0,29.28,WNW,292,0.0,0.0,87,0.06,,,0.06,VWS V14.01,2013-02-05 01:24:00,
2013-02-05 01:25:00,38.5,35.0,29.28,West,270,0.0,0.0,87,0.06,,,0.06,VWS V14.01,2013-02-05 01:25:00,
2013-02-05 01:26:00,38.5,35.0,29.28,WNW,292,0.0,0.0,87,0.06,,,0.06,VWS V14.01,2013-02-05 01:26:00,
2013-02-05 01:27:00,38.5,35.0,29.28,WNW,292,0.0,0.0,87,0.06,,,0.06,VWS V14.01,2013-02-05 01:27:00,
2013-02-05 01:28:00,38.5,35.0,29.28,NW,315,0.0,0.0,87,0.06,,,0.06,VWS V14.01,2013-02-05 01:28:00,
2013-02-05 01:29:00,43.2,36.2,29.30,WNW,292,0.0,0.0,76,0.00,,,0.00,VWS V14.01,2013-02-05 01:29:00,
2013-02-05 01:30:00,38.5,35.0,29.28,WNW,292,0.0,0.0,87,0.06,,,0.06,VWS V14.01,2013-02-05 01:30:00,
2013-02-05 01:31:00,38.5,35.0,29.27,West,270,0.0,0.0,87,0.06,,,0.06,VWS V14.01,2013-02-05 01:31:00,
2013-02-05 01:32:00,38.5,35.0,29.28,WNW,292,0.0,0.0,87,0.04,,,0.06,VWS V14.01,2013-02-05 01:32:00,
2013-02-05 01:33:00,38.7,35.2,29.28,WSW,247,0.0,0.0,87,0.04,,,0.06,VWS V14.01,2013-02-05 01:33:00,
2013-02-05 01:34:00,42.1,35.8,29.31,NNW,337,0.0,0.0,78,0.04,,,0.04,VWS V14.01,2013-02-05 01:34:00,
2013-02-05 01:35:00,38.8,35.3,29.27,West,270,0.0,0.0,87,0.02,,,0.06,VWS V14.01,2013-02-05 01:35:00,
2013-02-05 01:36:00,38.8,35.3,29.27,NW,315,0.0,0.0,87,0.02,,,0.06,VWS V14.01,2013-02-05 01:36:00,
2013-02-05 01:37:00,38.8,35.3,29.27,NNW,337,0.0,0.0,87,0.02,,,0.06,VWS V14.01,2013-02-05 01:37:00,
2013-02-05 01:38:00,38.8,35.3,29.26,West,270,0.0,0.0,87,0.02,,,0.06,VWS V14.01,2013-02-05 01:38:00,
2013-02-05 01:39:00,38.8,35.3,29.26,NW,315,0.0,0.0,87,0.02,,,0.06,VWS V14.01,2013-02-05 01:39:00,
2013-02-05 01:40:00,40.3,34.6,29.29,NW,315,0.0,0.0,80,0.06,,,0.06,VWS V14.01,2013-02-05 01:40:00,
2013-02-05 01:41:00,38.8,35.3,29.26,SW,225,0.0,0.0,87,0.00,,,0.06,VWS V14.01,2013-02-05 01:41:00,
2013-02-05 01:42:00,38.8,35.3,29.26,WNW,292,0.0,0.0,87,0.00,,,0.06,VWS V14.01,2013-02-05 01:42:00,
2013-02-05 01:43:00,38.7,35.2,29.27,WNW,292,0.0,0.0,87,0.00,,,0.06,VWS V14.01,2013-02-05 01:43:00,
2013-02-05 01:44:00,38.5,35.0,29.27,WSW,247,0.0,0.0,87,0.00,,,0.06,VWS V14.01,2013-02-05 01:44:00,
2013-02-05 01:45:00,39.4,34.4,29.28,NW,315,0.0,0.0,82,0.06,,,0.06,VWS V14.01,2013-02-05 01:45:00,
2013-02-05 01:46:00,38.5,35.0,29.27,WNW,292,0.0,0.0,87,0.00,,,0.06,VWS V14.01,2013-02-05 01:46:00,
2013-02-05 01:47:00,38.5,35.0,29.27,WNW,292,0.0,0.0,87,0.00,,,0.06,VWS V14.01,2013-02-05 01:47:00,
2013-02-05 01:48:00,38.5,35.0,29.27,WSW,247,0.0,0.0,87,0.00,,,0.06,VWS V14.01,2013-02-05 01:48:00,
2013-02-05 01:49:00,38.5,35.0,29.27,West,270,0.0,0.0,87,0.00,,,0.06,VWS V14.01,2013-02-05 01:49:00,
2013-02-05 01:50:00,38.5,35.0,29.27,NNW,337,0.0,0.0,87,0.00,,,0.06,VWS V14.01,2013-02-05 01:50:00,
2013-02-05 01:51:00,38.8,34.1,29.28,WNW,292,0.0,0.0,83,0.06,,,0.06,VWS V14.01,2013-02-05 01:51:00,
2013-02-05 01:52:00,38.5,35.0,29.27,WNW,292,0.0,0.0,87,0.00,,,0.06,VWS V14.01,2013-02-05 01:52:00,
2013-02-05 01:53:00,38.5,35.0,29.26,NW,315,0.0,0.0,87,0.00,,,0.06,VWS V14.01,2013-02-05 01:53:00,
2013-02-05 01:54:00,38.3,34.8,29.26,WNW,292,0.0,0.0,87,0.00,,,0.06,VWS V14.01,2013-02-05 01:54:00,
2013-02-05 01:55:00,38.3,34.8,29.26,WSW,247,0.0,0.0,87,0.00,,,0.06,VWS V14.01,2013-02-05 01:55:00,
2013-02-05 01:56:00,38.5,34.1,29.28,SSW,202,0.0,0.0,84,0.06,,,0.06,VWS V14.01,2013-02-05 01:56:00,
2013-02-05 01:57:00,38.3,34.8,29.26,WNW,292,0.0,0.0,87,0.00,,,0.06,VWS V14.01,2013-02-05 01:57:00,
2013-02-05 01:58:00,38.3,34.8,29.26,NW,315,0.0,0.0,87,0.00,,,0.06,VWS V14.01,2013-02-05 01:58:00,
2013-02-05 01:59:00,38.1,34.6,29.25,WNW,292,0.0,0.0,87,0.00,,,0.06,VWS V14.01,2013-02-05 01:59:00,
2013-02-05 02:00:00,38.1,34.6,29.25,West,270,0.0,0.0,87,0.00,,,0.06,VWS V14.01,2013-02-05 02:00:00,
2013-02-05 02:01:00,38.1,34.6,29.25,West,270,0.0,0.0,87,0.00,,,0.06,VWS V14.01,2013-02-05 02:01:00,
2013-02-05 02:02:00,38.1,34.6,29.25,West,270,0.0,0.0,87,0.00,,,0.06,VWS V14.01,2013-02-05 02:02:00,
2013-02-05 02:03:00,37.9,34.4,29.25,West,270,0.0,0.0,87,0.00,,,0.06,VWS V14.01,2013-02-05 02:03:00,
2013-02-05 02:04:00,37.9,34.4,29.25,WNW,292,0.0,0.0,87,0.00,,,0.06,VWS V14.01,2013-02-05 02:04:00,
2013-02-05 02:05:00,37.9,34.4,29.25,West,270,0.0,0.0,87,0.00,,,0.06,VWS V14.01,2013-02-05 02:05:00,
2013-02-05 02:06:00,37.9,34.4,29.25,West,270,0.0,0.0,87,0.00,,,0.06,VWS V14.01,2013-02-05 02:06:00,
2013-02-05 02:07:00,37.9,34.4,29.25,WNW,292,0.0,0.0,87,0.00,,,0.06,VWS V14.01,2013-02-05 02:07:00,
2013-02-05 02:08:00,38.3,34.2,29.28,West,270,0.0,0.0,85,0.06,,,0.06,VWS V14.01,2013-02-05 02:08:00,
2013-02-05 02:09:00,37.9,34.4,29.26,West,270,0.0,0.0,87,0.00,,,0.06,VWS V14.01,2013-02-05 02:09:00,
2013-02-05 02:10:00,37.8,34.3,29.25,West,270,0.0,0.0,87,0.00,,,0.06,VWS V14.01,2013-02-05 02:10:00,
2013-02-05 02:11:00,37.8,34.3,29.25,WNW,292,0.0,0.0,87,0.00,,,0.06,VWS V14.01,2013-02-05 02:11:00,
2013-02-05 02:12:00,37.8,34.3,29.25,WNW,292,0.0,0.0,87,0.00,,,0.06,VWS V14.01,2013-02-05 02:12:00,
2013-02-05 02:13:00,37.8,34.3,29.25,WNW,292,0.0,0.0,87,0.00,,,0.06,VWS V14.01,2013-02-05 02:13:00,
2013-02-05 02:14:00,38.3,34.5,29.28,West,270,0.0,0.0,86,0.06,,,0.06,VWS V14.01,2013-02-05 02:14:00,
2013-02-05 02:15:00,37.8,34.3,29.25,WNW,292,0.0,0.0,87,0.00,,,0.06,VWS V14.01,2013-02-05 02:15:00,
2013-02-05 02:16:00,37.6,34.1,29.25,WNW,292,0.0,0.0,87,0.00,,,0.06,VWS V14.01,2013-02-05 02:16:00,
2013-02-05 02:17:00,37.6,34.1,29.24,WNW,292,0.0,0.0,87,0.00,,,0.06,VWS V14.01,2013-02-05 02:17:00,
2013-02-05 02:18:00,37.6,34.1,29.24,WNW,292,0.0,0.0,87,0.00,,,0.06,VWS V14.01,2013-02-05 02:18:00,
2013-02-05 02:19:00,37.6,34.1,29.24,WNW,292,0.0,0.0,87,0.00,,,0.06,VWS V14.01,2013-02-05 02:19:00,
2013-02-05 02:20:00,38.5,35.0,29.28,WNW,292,0.0,0.0,87,0.06,,,0.06,VWS V14.01,2013-02-05 02:20:00,
2013-02-05 02:21:00,37.6,34.1,29.24,West,270,0.0,0.0,87,0.00,,,0.06,VWS V14.01,2013-02-05 02:21:00,
2013-02-05 02:22:00,37.6,34.1,29.24,West,270,0.0,0.0,87,0.00,,,0.06,VWS V14.01,2013-02-05 02:22:00,
2013-02-05 02:23:00,37.6,34.1,29.24,SW,225,0.0,0.0,87,0.00,,,0.06,VWS V14.01,2013-02-05 02:23:00,
2013-02-05 02:24:00,37.6,34.1,29.24,WSW,247,0.0,0.0,87,0.00,,,0.06,VWS V14.01,2013-02-05 02:24:00,
2013-02-05 02:25:00,37.6,34.1,29.25,WNW,292,0.0,0.0,87,0.00,,,0.06,VWS V14.01,2013-02-05 02:25:00,
2013-02-05 02:26:00,38.5,35.0,29.28,WNW,292,0.0,0.0,87,0.06,,,0.06,VWS V14.01,2013-02-05 02:26:00,
2013-02-05 02:27:00,37.6,34.1,29.25,WNW,292,0.0,0.0,87,0.00,,,0.06,VWS V14.01,2013-02-05 02:27:00,
2013-02-05 02:28:00,37.6,34.1,29.24,West,270,0.0,0.0,87,0.00,,,0.06,VWS V14.01,2013-02-05 02:28:00,
2013-02-05 02:29:00,37.6,34.4,29.24,West,270,0.0,0.0,88,0.00,,,0.06,VWS V14.01,2013-02-05 02:29:00,
2013-02-05 02:30:00,37.6,34.4,29.24,WNW,292,0.0,0.0,88,0.00,,,0.06,VWS V14.01,2013-02-05 02:30:00,
2013-02-05 02:31:00,37.6,34.4,29.24,WNW,292,0.0,0.0,88,0.00,,,0.06,VWS V14.01,2013-02-05 02:31:00,
2013-02-05 02:32:00,38.5,35.0,29.28,WNW,292,0.0,0.0,87,0.04,,,0.06,VWS V14.01,2013-02-05 02:32:00,
2013-02-05 02:33:00,37.6,34.4,29.24,West,270,0.0,0.0,88,0.00,,,0.06,VWS V14.01,2013-02-05 02:33:00,
2013-02-05 02:34:00,37.6,34.4,29.24,WNW,292,0.0,0.0,88,0.00,,,0.06,VWS V14.01,2013-02-05 02:34:00,
2013-02-05 02:35:00,37.6,34.4,29.24,WNW,292,0.0,0.0,88,0.00,,,0.06,VWS V14.01,2013-02-05 02:35:00,
2013-02-05 02:36:00,37.6,34.4,29.23,West,270,0.0,0.0,88,0.00,,,0.06,VWS V14.01,2013-02-05 02:36:00,
2013-02-05 02:37:00,37.6,34.4,29.23,WNW,292,0.0,0.0,88,0.00,,,0.06,VWS V14.01,2013-02-05 02:37:00,
2013-02-05 02:38:00,38.8,35.3,29.26,West,270,0.0,0.0,87,0.02,,,0.06,VWS V14.01,2013-02-05 02:38:00,
2013-02-05 02:39:00,37.6,34.4,29.23,West,270,0.0,0.0,88,0.00,,,0.06,VWS V14.01,2013-02-05 02:39:00,
2013-02-05 02:40:00,37.6,34.4,29.23,West,270,0.0,0.0,88,0.00,,,0.06,VWS V14.01,2013-02-05 02:40:00,
2013-02-05 02:42:00,37.6,34.4,29.23,WNW,292,0.0,0.0,88,0.00,,,0.06,VWS V14.01,2013-02-05 02:42:00,
2013-02-05 02:43:00,37.6,34.4,29.23,West,270,0.0,0.0,88,0.00,,,0.06,VWS V14.01,2013-02-05 02:43:00,
2013-02-05 02:44:00,38.5,35.0,29.27,WSW,247,0.0,0.0,87,0.00,,,0.06,VWS V14.01,2013-02-05 02:44:00,
2013-02-05 02:45:00,37.6,34.4,29.23,WNW,292,0.0,0.0,88,0.00,,,0.06,VWS V14.01,2013-02-05 02:45:00,
2013-02-05 02:46:00,37.6,34.4,29.22,WNW,292,0.0,0.0,88,0.00,,,0.06,VWS V14.01,2013-02-05 02:46:00,
2013-02-05 02:47:00,37.6,34.4,29.23,WSW,247,0.0,0.0,88,0.00,,,0.06,VWS V14.01,2013-02-05 02:47:00,
2013-02-05 02:48:00,37.6,34.4,29.22,NW,315,0.0,0.0,88,0.00,,,0.06,VWS V14.01,2013-02-05 02:48:00,
2013-02-05 02:49:00,38.5,35.0,29.27,West,270,0.0,0.0,87,0.00,,,0.06,VWS V14.01,2013-02-05 02:49:00,
2013-02-05 02:50:00,37.4,34.2,29.23,West,270,0.0,0.0,88,0.00,,,0.06,VWS V14.01,2013-02-05 02:50:00,
2013-02-05 02:51:00,37.6,34.4,29.22,WNW,292,0.0,0.0,88,0.00,,,0.06,VWS V14.01,2013-02-05 02:51:00,
2013-02-05 02:52:00,37.4,34.2,29.22,WNW,292,0.0,0.0,88,0.00,,,0.06,VWS V14.01,2013-02-05 02:52:00,
2013-02-05 02:53:00,37.4,34.2,29.22,WNW,292,0.0,0.0,88,0.00,,,0.06,VWS V14.01,2013-02-05 02:53:00,
2013-02-05 02:54:00,37.2,34.0,29.22,West,270,0.0,0.0,88,0.00,,,0.06,VWS V14.01,2013-02-05 02:54:00,
2013-02-05 02:55:00,38.3,34.8,29.26,WSW,247,0.0,0.0,87,0.00,,,0.06,VWS V14.01,2013-02-05 02:55:00,
2013-02-05 02:56:00,37.2,34.0,29.22,WNW,292,0.0,0.0,88,0.00,,,0.06,VWS V14.01,2013-02-05 02:56:00,
2013-02-05 02:57:00,37.2,34.0,29.23,SSW,202,0.0,0.0,88,0.00,,,0.06,VWS V14.01,2013-02-05 02:57:00,
2013-02-05 02:58:00,37.2,34.0,29.23,West,270,0.0,0.0,88,0.00,,,0.06,VWS V14.01,2013-02-05 02:58:00,
2013-02-05 02:59:00,37.2,34.0,29.23,WNW,292,0.0,0.0,88,0.00,,,0.06,VWS V14.01,2013-02-05 02:59:00,
2013-02-05 03:00:00,38.1,34.6,29.25,West,270,0.0,0.0,87,0.00,,,0.06,VWS V14.01,2013-02-05 03:00:00,
2013-02-05 03:01:00,37.2,34.0,29.23,West,270,0.0,0.0,88,0.00,,,0.06,VWS V14.01,2013-02-05 03:01:00,
2013-02-05 03:02:00,37.2,34.0,29.23,WNW,292,0.0,0.0,88,0.00,,,0.06,VWS V14.01,2013-02-05 03:02:00,
2013-02-05 03:03:00,37.2,34.0,29.23,NNW,337,0.0,0.0,88,0.00,,,0.06,VWS V14.01,2013-02-05 03:03:00,
2013-02-05 03:04:00,37.2,34.0,29.23,West,270,0.0,0.0,88,0.00,,,0.06,VWS V14.01,2013-02-05 03:04:00,
2013-02-05 03:05:00,37.2,34.0,29.23,West,270,0.0,0.0,88,0.00,,,0.06,VWS V14.01,2013-02-05 03:05:00,
2013-02-05 03:06:00,37.9,34.4,29.25,West,270,0.0,0.0,87,0.00,,,0.06,VWS V14.01,2013-02-05 03:06:00,
2013-02-05 03:07:00,37.2,34.0,29.23,WNW,292,0.0,0.0,88,0.00,,,0.06,VWS V14.01,2013-02-05 03:07:00,
2013-02-05 03:08:00,37.2,34.0,29.23,West,270,0.0,0.0,88,0.00,,,0.06,VWS V14.01,2013-02-05 03:08:00,
2013-02-05 03:09:00,37.2,34.0,29.23,NNW,337,0.0,0.0,88,0.00,,,0.06,VWS V14.01,2013-02-05 03:09:00,
2013-02-05 03:10:00,37.2,34.0,29.23,West,270,0.0,0.0,88,0.00,,,0.06,VWS V14.01,2013-02-05 03:10:00,
2013-02-05 03:11:00,37.2,34.0,29.23,West,270,0.0,0.0,88,0.00,,,0.06,VWS V14.01,2013-02-05 03:11:00,
2013-02-05 03:12:00,37.8,34.3,29.25,WNW,292,0.0,0.0,87,0.00,,,0.06,VWS V14.01,2013-02-05 03:12:00,
2013-02-05 03:13:00,37.0,33.8,29.22,West,270,0.0,0.0,88,0.00,,,0.06,VWS V14.01,2013-02-05 03:13:00,
2013-02-05 03:14:00,37.0,33.8,29.23,West,270,0.0,0.0,88,0.00,,,0.06,VWS V14.01,2013-02-05 03:14:00,
2013-02-05 03:15:00,37.0,33.8,29.22,ENE,67,0.0,0.0,88,0.00,,,0.06,VWS V14.01,2013-02-05 03:15:00,
2013-02-05 03:16:00,37.0,33.8,29.22,WNW,292,0.0,0.0,88,0.00,,,0.06,VWS V14.01,2013-02-05 03:16:00,
2013-02-05 03:17:00,37.6,34.1,29.24,WNW,292,0.0,0.0,87,0.00,,,0.06,VWS V14.01,2013-02-05 03:17:00,
2013-02-05 03:18:00,37.0,33.8,29.22,West,270,0.0,0.0,88,0.00,,,0.06,VWS V14.01,2013-02-05 03:18:00,
2013-02-05 03:19:00,37.0,33.8,29.22,NW,315,0.0,0.0,88,0.00,,,0.06,VWS V14.01,2013-02-05 03:19:00,
2013-02-05 03:20:00,37.0,33.8,29.22,West,270,0.0,0.0,88,0.00,,,0.06,VWS V14.01,2013-02-05 03:20:00,
2013-02-05 03:21:00,37.0,33.8,29.22,NW,315,0.0,0.0,88,0.00,,,0.06,VWS V14.01,2013-02-05 03:21:00,
2013-02-05 03:22:00,37.0,33.8,29.22,NW,315,0.0,0.0,88,0.00,,,0.06,VWS V14.01,2013-02-05 03:22:00,
2013-02-05 03:23:00,37.6,34.1,29.24,SW,225,0.0,0.0,87,0.00,,,0.06,VWS V14.01,2013-02-05 03:23:00,
2013-02-05 03:24:00,36.9,33.7,29.22,SSW,202,0.0,0.0,88,0.00,,,0.06,VWS V14.01,2013-02-05 03:24:00,
2013-02-05 03:25:00,36.9,33.7,29.22,NW,315,0.0,0.0,88,0.00,,,0.06,VWS V14.01,2013-02-05 03:25:00,
2013-02-05 03:26:00,36.9,33.7,29.22,NW,315,0.0,0.0,88,0.00,,,0.06,VWS V14.01,2013-02-05 03:26:00,
2013-02-05 03:27:00,36.9,33.7,29.22,WNW,292,0.0,0.0,88,0.00,,,0.06,VWS V14.01,2013-02-05 03:27:00,
2013-02-05 03:28:00,36.7,33.5,29.22,West,270,0.0,0.0,88,0.00,,,0.06,VWS V14.01,2013-02-05 03:28:00,
2013-02-05 03:29:00,37.6,34.4,29.24,West,270,0.0,0.0,88,0.00,,,0.06,VWS V14.01,2013-02-05 03:29:00,
2013-02-05 03:30:00,36.7,33.5,29.22,West,270,0.0,0.0,88,0.00,,,0.06,VWS V14.01,2013-02-05 03:30:00,
2013-02-05 03:31:00,36.7,33.5,29.22,NW,315,0.0,0.0,88,0.00,,,0.06,VWS V14.01,2013-02-05 03:31:00,
2013-02-05 03:32:00,36.7,33.5,29.22,West,270,0.0,0.0,88,0.00,,,0.06,VWS V14.01,2013-02-05 03:32:00,
2013-02-05 03:33:00,36.5,33.3,29.22,North,0,0.0,0.0,88,0.00,,,0.06,VWS V14.01,2013-02-05 03:33:00,
2013-02-05 03:34:00,37.6,34.4,29.24,WNW,292,0.0,0.0,88,0.00,,,0.06,VWS V14.01,2013-02-05 03:34:00,
2013-02-05 03:35:00,36.5,33.3,29.22,NW,315,0.0,0.0,88,0.00,,,0.06,VWS V14.01,2013-02-05 03:35:00,
2013-02-05 03:36:00,36.5,33.3,29.22,NNW,337,0.0,0.0,88,0.00,,,0.06,VWS V14.01,2013-02-05 03:36:00,
2013-02-05 03:37:00,36.5,33.3,29.22,NNW,337,0.0,0.0,88,0.00,,,0.06,VWS V14.01,2013-02-05 03:37:00,
2013-02-05 03:38:00,36.5,33.3,29.22,WNW,292,0.0,0.0,88,0.00,,,0.06,VWS V14.01,2013-02-05 03:38:00,
2013-02-05 03:39:00,36.3,33.1,29.22,NNW,337,0.0,0.0,88,0.00,,,0.06,VWS V14.01,2013-02-05 03:39:00,
2013-02-05 03:40:00,37.6,34.4,29.23,West,270,0.0,0.0,88,0.00,,,0.06,VWS V14.01,2013-02-05 03:40:00,
2013-02-05 03:41:00,36.3,33.1,29.22,WSW,247,0.0,0.0,88,0.00,,,0.06,VWS V14.01,2013-02-05 03:41:00,
2013-02-05 03:42:00,36.3,33.1,29.22,WNW,292,0.0,0.0,88,0.00,,,0.06,VWS V14.01,2013-02-05 03:42:00,
2013-02-05 03:43:00,36.3,33.1,29.22,West,270,0.0,0.0,88,0.00,,,0.06,VWS V14.01,2013-02-05 03:43:00,
2013-02-05 03:44:00,36.3,33.1,29.22,NW,315,0.0,0.0,88,0.00,,,0.06,VWS V14.01,2013-02-05 03:44:00,
2013-02-05 03:45:00,36.3,33.1,29.22,NW,315,0.0,0.0,88,0.00,,,0.06,VWS V14.01,2013-02-05 03:45:00,
2013-02-05 03:46:00,37.6,34.4,29.22,WNW,292,0.0,0.0,88,0.00,,,0.06,VWS V14.01,2013-02-05 03:46:00,
2013-02-05 03:47:00,36.3,33.1,29.22,West,270,0.0,0.0,88,0.00,,,0.06,VWS V14.01,2013-02-05 03:47:00,
2013-02-05 03:48:00,36.3,33.1,29.22,NW,315,0.0,0.0,88,0.00,,,0.06,VWS V14.01,2013-02-05 03:48:00,
2013-02-05 03:49:00,36.3,33.1,29.22,NW,315,0.0,0.0,88,0.00,,,0.06,VWS V14.01,2013-02-05 03:49:00,
2013-02-05 03:50:00,36.3,33.1,29.22,WSW,247,0.0,0.0,88,0.00,,,0.06,VWS V14.01,2013-02-05 03:50:00,
2013-02-05 03:51:00,36.3,33.1,29.23,WNW,292,0.0,0.0,88,0.00,,,0.06,VWS V14.01,2013-02-05 03:51:00,
2013-02-05 03:52:00,37.4,34.2,29.22,WNW,292,0.0,0.0,88,0.00,,,0.06,VWS V14.01,2013-02-05 03:52:00,
2013-02-05 03:53:00,36.1,32.9,29.23,West,270,0.0,0.0,88,0.00,,,0.06,VWS V14.01,2013-02-05 03:53:00,
2013-02-05 03:54:00,36.1,32.9,29.23,WNW,292,0.0,0.0,88,0.00,,,0.06,VWS V14.01,2013-02-05 03:54:00,
2013-02-05 03:55:00,36.1,32.9,29.23,NW,315,0.0,0.0,88,0.00,,,0.06,VWS V14.01,2013-02-05 03:55:00,
2013-02-05 03:56:00,36.1,32.9,29.23,WNW,292,0.0,0.0,88,0.00,,,0.06,VWS V14.01,2013-02-05 03:56:00,
2013-02-05 03:57:00,37.2,34.0,29.23,SSW,202,0.0,0.0,88,0.00,,,0.06,VWS V14.01,2013-02-05 03:57:00,
2013-02-05 03:58:00,36.1,32.9,29.22,WNW,292,0.0,0.0,88,0.00,,,0.06,VWS V14.01,2013-02-05 03:58:00,
2013-02-05 03:59:00,36.1,32.9,29.22,West,270,0.0,0.0,88,0.00,,,0.06,VWS V14.01,2013-02-05 03:59:00,
2013-02-05 04:00:00,36.1,32.9,29.22,WNW,292,0.0,0.0,88,0.00,,,0.06,VWS V14.01,2013-02-05 04:00:00,
2013-02-05 04:01:00,36.1,32.9,29.22,SW,225,0.0,0.0,88,0.00,,,0.06,VWS V14.01,2013-02-05 04:01:00,
2013-02-05 04:02:00,36.1,32.6,29.22,SSW,202,0.0,0.0,87,0.00,,,0.06,VWS V14.01,2013-02-05 04:02:00,
2013-02-05 04:03:00,37.2,34.0,29.23,NNW,337,0.0,0.0,88,0.00,,,0.06,VWS V14.01,2013-02-05 04:03:00,
2013-02-05 04:04:00,36.0,32.5,29.22,WNW,292,0.0,0.0,87,0.00,,,0.06,VWS V14.01,2013-02-05 04:04:00,
2013-02-05 04:05:00,36.0,32.5,29.22,West,270,0.0,0.0,87,0.00,,,0.06,VWS V14.01,2013-02-05 04:05:00,
2013-02-05 04:06:00,36.0,32.5,29.22,NW,315,0.0,0.0,87,0.00,,,0.06,VWS V14.01,2013-02-05 04:06:00,
2013-02-05 04:07:00,36.0,32.5,29.22,WNW,292,0.0,0.0,87,0.00,,,0.06,VWS V14.01,2013-02-05 04:07:00,
2013-02-05 04:08:00,35.8,32.3,29.22,WNW,292,0.0,0.0,87,0.00,,,0.06,VWS V14.01,2013-02-05 04:08:00,
2013-02-05 04:09:00,37.2,34.0,29.23,NNW,337,0.0,0.0,88,0.00,,,0.06,VWS V14.01,2013-02-05 04:09:00,
2013-02-05 04:10:00,35.8,32.3,29.22,WNW,292,0.0,0.0,87,0.00,,,0.06,VWS V14.01,2013-02-05 04:10:00,
2013-02-05 04:11:00,35.8,32.3,29.22,West,270,0.0,0.0,87,0.00,,,0.06,VWS V14.01,2013-02-05 04:11:00,
2013-02-05 04:12:00,35.8,32.3,29.22,West,270,0.0,0.0,87,0.00,,,0.06,VWS V14.01,2013-02-05 04:12:00,
2013-02-05 04:13:00,35.8,32.3,29.22,WNW,292,0.0,0.0,87,0.00,,,0.06,VWS V14.01,2013-02-05 04:13:00,
2013-02-05 04:14:00,35.8,32.3,29.22,West,270,0.0,0.0,87,0.00,,,0.06,VWS V14.01,2013-02-05 04:14:00,
2013-02-05 04:15:00,37.0,33.8,29.22,ENE,67,0.0,0.0,88,0.00,,,0.06,VWS V14.01,2013-02-05 04:15:00,
2013-02-05 04:16:00,35.8,32.3,29.22,West,270,0.0,0.0,87,0.00,,,0.06,VWS V14.01,2013-02-05 04:16:00,
2013-02-05 04:17:00,35.8,32.3,29.22,West,270,0.0,0.0,87,0.00,,,0.06,VWS V14.01,2013-02-05 04:17:00,
2013-02-05 04:18:00,35.8,32.3,29.22,West,270,0.0,0.0,87,0.00,,,0.06,VWS V14.01,2013-02-05 04:18:00,
2013-02-05 04:19:00,35.8,32.3,29.22,WNW,292,0.0,0.0,87,0.00,,,0.06,VWS V14.01,2013-02-05 04:19:00,
2013-02-05 04:20:00,35.8,32.3,29.22,SSW,202,0.0,0.0,87,0.00,,,0.06,VWS V14.01,2013-02-05 04:20:00,
2013-02-05 04:21:00,37.0,33.8,29.22,NW,315,0.0,0.0,88,0.00,,,0.06,VWS V14.01,2013-02-05 04:21:00,
2013-02-05 04:22:00,35.8,32.3,29.22,WNW,292,0.0,0.0,87,0.00,,,0.06,VWS V14.01,2013-02-05 04:22:00,
2013-02-05 04:23:00,35.6,32.1,29.22,WSW,247,0.0,0.0,87,0.00,,,0.06,VWS V14.01,2013-02-05 04:23:00,
2013-02-05 04:24:00,35.6,32.1,29.22,West,270,0.0,0.0,87,0.00,,,0.06,VWS V14.01,2013-02-05 04:24:00,
2013-02-05 04:25:00,35.4,31.9,29.22,WNW,292,0.0,0.0,87,0.00,,,0.06,VWS V14.01,2013-02-05 04:25:00,
2013-02-05 04:26:00,35.4,31.9,29.22,NW,315,0.0,0.0,87,0.00,,,0.06,VWS V14.01,2013-02-05 04:26:00,
2013-02-05 04:27:00,36.9,33.7,29.22,WNW,292,0.0,0.0,88,0.00,,,0.06,VWS V14.01,2013-02-05 04:27:00,
2013-02-05 04:28:00,35.4,31.9,29.23,North,0,0.0,0.0,87,0.00,,,0.06,VWS V14.01,2013-02-05 04:28:00,
2013-02-05 04:29:00,35.4,31.9,29.22,NW,315,0.0,0.0,87,0.00,,,0.06,VWS V14.01,2013-02-05 04:29:00,
2013-02-05 04:30:00,35.4,31.9,29.22,West,270,0.0,0.0,87,0.00,,,0.06,VWS V14.01,2013-02-05 04:30:00,
2013-02-05 04:31:00,35.4,31.9,29.22,WNW,292,0.0,0.0,87,0.00,,,0.06,VWS V14.01,2013-02-05 04:31:00,
2013-02-05 04:32:00,35.4,31.9,29.22,WNW,292,0.0,0.0,87,0.00,,,0.06,VWS V14.01,2013-02-05 04:32:00,
2013-02-05 04:33:00,36.5,33.3,29.22,North,0,0.0,0.0,88,0.00,,,0.06,VWS V14.01,2013-02-05 04:33:00,
2013-02-05 04:34:00,35.4,31.9,29.22,NNW,337,0.0,0.0,87,0.00,,,0.06,VWS V14.01,2013-02-05 04:34:00,
2013-02-05 04:35:00,35.4,31.9,29.23,WNW,292,0.0,0.0,87,0.00,,,0.06,VWS V14.01,2013-02-05 04:35:00,
2013-02-05 04:36:00,35.4,31.9,29.23,East,90,0.0,0.0,87,0.00,,,0.06,VWS V14.01,2013-02-05 04:36:00,
2013-02-05 04:37:00,35.4,31.6,29.23,SW,225,0.0,0.0,86,0.00,,,0.06,VWS V14.01,2013-02-05 04:37:00,
2013-02-05 04:38:00,35.4,31.6,29.22,West,270,0.0,0.0,86,0.00,,,0.06,VWS V14.01,2013-02-05 04:38:00,
2013-02-05 04:39:00,36.3,33.1,29.22,NNW,337,0.0,0.0,88,0.00,,,0.06,VWS V14.01,2013-02-05 04:39:00,
2013-02-05 04:40:00,35.4,31.6,29.23,WSW,247,0.0,0.0,86,0.00,,,0.06,VWS V14.01,2013-02-05 04:40:00,
2013-02-05 04:41:00,35.4,31.6,29.22,NW,315,0.0,0.0,86,0.00,,,0.06,VWS V14.01,2013-02-05 04:41:00,
2013-02-05 04:42:00,35.4,31.6,29.22,WNW,292,0.0,0.0,86,0.00,,,0.06,VWS V14.01,2013-02-05 04:42:00,
2013-02-05 04:43:00,35.4,31.6,29.22,WNW,292,0.0,0.0,86,0.00,,,0.06,VWS V14.01,2013-02-05 04:43:00,
2013-02-05 04:44:00,35.2,31.4,29.22,West,270,0.0,0.0,86,0.00,,,0.06,VWS V14.01,2013-02-05 04:44:00,
2013-02-05 04:45:00,36.3,33.1,29.22,NW,315,0.0,0.0,88,0.00,,,0.06,VWS V14.01,2013-02-05 04:45:00,
2013-02-05 04:46:00,35.2,31.4,29.22,NNW,337,0.0,0.0,86,0.00,,,0.06,VWS V14.01,2013-02-05 04:46:00,
2013-02-05 04:47:00,35.2,31.4,29.22,SW,225,0.0,0.0,86,0.00,,,0.06,VWS V14.01,2013-02-05 04:47:00,
2013-02-05 04:48:00,35.2,31.4,29.22,WNW,292,0.0,0.0,86,0.00,,,0.06,VWS V14.01,2013-02-05 04:48:00,
2013-02-05 04:49:00,35.2,31.4,29.22,WSW,247,0.0,0.0,86,0.00,,,0.06,VWS V14.01,2013-02-05 04:49:00,
2013-02-05 04:50:00,35.2,31.4,29.23,WNW,292,0.0,0.0,86,0.00,,,0.06,VWS V14.01,2013-02-05 04:50:00,
2013-02-05 04:51:00,36.3,33.1,29.23,WNW,292,0.0,0.0,88,0.00,,,0.06,VWS V14.01,2013-02-05 04:51:00,
2013-02-05 04:52:00,35.2,31.4,29.22,WNW,292,0.0,0.0,86,0.00,,,0.06,VWS V14.01,2013-02-05 04:52:00,
2013-02-05 04:53:00,35.2,31.4,29.22,WNW,292,0.0,0.0,86,0.00,,,0.06,VWS V14.01,2013-02-05 04:53:00,
2013-02-05 04:54:00,35.2,31.4,29.22,WNW,292,0.0,0.0,86,0.00,,,0.06,VWS V14.01,2013-02-05 04:54:00,
2013-02-05 04:55:00,35.2,31.1,29.22,WNW,292,0.0,0.0,85,0.00,,,0.06,VWS V14.01,2013-02-05 04:55:00,
2013-02-05 04:56:00,35.2,31.1,29.22,ENE,67,0.0,0.0,85,0.00,,,0.06,VWS V14.01,2013-02-05 04:56:00,
2013-02-05 04:57:00,36.1,32.9,29.23,WNW,292,0.0,0.0,88,0.00,,,0.06,VWS V14.01,2013-02-05 04:57:00,
2013-02-05 04:59:00,35.2,31.1,29.22,West,270,0.0,0.0,85,0.00,,,0.06,VWS V14.01,2013-02-05 04:59:00,
2013-02-05 05:00:00,36.1,32.9,29.22,WNW,292,0.0,0.0,88,0.00,,,0.06,VWS V14.01,2013-02-05 05:00:00,
2013-02-05 05:01:00,36.1,32.9,29.22,SW,225,0.0,0.0,88,0.00,,,0.06,VWS V14.01,2013-02-05 05:01:00,
2013-02-05 05:02:00,36.1,32.6,29.22,SSW,202,0.0,0.0,87,0.00,,,0.06,VWS V14.01,2013-02-05 05:02:00,
2013-02-05 05:03:00,35.2,31.1,29.22,WNW,292,0.0,0.0,85,0.00,,,0.06,VWS V14.01,2013-02-05 05:03:00,
2013-02-05 05:04:00,35.1,31.0,29.21,WNW,292,0.0,0.0,85,0.00,,,0.06,VWS V14.01,2013-02-05 05:04:00,
2013-02-05 05:05:00,35.1,31.0,29.21,WSW,247,0.0,0.0,85,0.00,,,0.06,VWS V14.01,2013-02-05 05:05:00,
2013-02-05 05:06:00,36.0,32.5,29.22,NW,315,0.0,0.0,87,0.00,,,0.06,VWS V14.01,2013-02-05 05:06:00,
2013-02-05 05:07:00,34.9,30.6,29.21,WNW,292,0.0,0.0,84,0.00,,,0.06,VWS V14.01,2013-02-05 05:07:00,
2013-02-05 05:08:00,34.9,30.6,29.21,NW,315,0.0,0.0,84,0.00,,,0.06,VWS V14.01,2013-02-05 05:08:00,
2013-02-05 05:09:00,34.9,30.6,29.21,WNW,292,0.0,0.0,84,0.00,,,0.06,VWS V14.01,2013-02-05 05:09:00,
2013-02-05 05:10:00,34.9,30.6,29.21,NW,315,0.0,0.0,84,0.00,,,0.06,VWS V14.01,2013-02-05 05:10:00,
2013-02-05 05:11:00,35.8,32.3,29.22,West,270,0.0,0.0,87,0.00,,,0.06,VWS V14.01,2013-02-05 05:11:00,
2013-02-05 05:12:00,34.9,30.6,29.21,WSW,247,0.0,0.0,84,0.00,,,0.06,VWS V14.01,2013-02-05 05:12:00,
2013-02-05 05:13:00,34.9,30.6,29.21,WNW,292,0.0,0.0,84,0.00,,,0.06,VWS V14.01,2013-02-05 05:13:00,
2013-02-05 05:14:00,34.9,30.6,29.21,WNW,292,0.0,0.0,84,0.00,,,0.06,VWS V14.01,2013-02-05 05:14:00,
2013-02-05 05:15:00,34.9,30.6,29.21,West,270,0.0,0.0,84,0.00,,,0.06,VWS V14.01,2013-02-05 05:15:00,
2013-02-05 05:16:00,34.9,30.6,29.21,West,270,0.0,0.0,84,0.00,,,0.06,VWS V14.01,2013-02-05 05:16:00,
2013-02-05 05:17:00,35.8,32.3,29.22,West,270,0.0,0.0,87,0.00,,,0.06,VWS V14.01,2013-02-05 05:17:00,
2013-02-05 05:18:00,34.9,30.6,29.21,West,270,0.0,0.0,84,0.00,,,0.06,VWS V14.01,2013-02-05 05:18:00,
2013-02-05 05:19:00,34.9,30.6,29.21,NW,315,0.0,0.0,84,0.00,,,0.06,VWS V14.01,2013-02-05 05:19:00,
2013-02-05 05:20:00,34.7,30.4,29.20,West,270,0.0,0.0,84,0.00,,,0.06,VWS V14.01,2013-02-05 05:20:00,
2013-02-05 05:21:00,34.7,30.4,29.21,West,270,0.0,0.0,84,0.00,,,0.06,VWS V14.01,2013-02-05 05:21:00,
2013-02-05 05:22:00,35.8,32.3,29.22,WNW,292,0.0,0.0,87,0.00,,,0.06,VWS V14.01,2013-02-05 05:22:00,
2013-02-05 05:23:00,34.7,30.4,29.21,West,270,0.0,0.0,84,0.00,,,0.06,VWS V14.01,2013-02-05 05:23:00,
2013-02-05 05:24:00,34.7,30.4,29.21,WNW,292,0.0,0.0,84,0.00,,,0.06,VWS V14.01,2013-02-05 05:24:00,
2013-02-05 05:25:00,34.5,30.2,29.21,West,270,0.0,0.0,84,0.00,,,0.06,VWS V14.01,2013-02-05 05:25:00,
2013-02-05 05:26:00,34.5,30.2,29.21,NW,315,0.0,0.0,84,0.00,,,0.06,VWS V14.01,2013-02-05 05:26:00,
2013-02-05 05:27:00,35.4,31.9,29.22,WNW,292,0.0,0.0,87,0.00,,,0.06,VWS V14.01,2013-02-05 05:27:00,
2013-02-05 05:28:00,34.5,30.2,29.21,NW,315,0.0,0.0,84,0.00,,,0.06,VWS V14.01,2013-02-05 05:28:00,
2013-02-05 05:29:00,34.5,30.2,29.21,West,270,0.0,0.0,84,0.00,,,0.06,VWS V14.01,2013-02-05 05:29:00,
2013-02-05 05:30:00,34.5,30.2,29.21,WNW,292,0.0,0.0,84,0.00,,,0.06,VWS V14.01,2013-02-05 05:30:00,
2013-02-05 05:31:00,34.3,30.0,29.21,WNW,292,0.0,0.0,84,0.00,,,0.06,VWS V14.01,2013-02-05 05:31:00,
2013-02-05 05:32:00,34.3,30.0,29.21,NW,315,0.0,0.0,84,0.00,,,0.06,VWS V14.01,2013-02-05 05:32:00,
2013-02-05 05:33:00,35.4,31.9,29.22,West,270,0.0,0.0,87,0.00,,,0.06,VWS V14.01,2013-02-05 05:33:00,
2013-02-05 05:34:00,34.3,30.0,29.21,WNW,292,0.0,0.0,84,0.00,,,0.06,VWS V14.01,2013-02-05 05:34:00,
2013-02-05 05:35:00,34.3,30.0,29.20,West,270,0.0,0.0,84,0.00,,,0.06,VWS V14.01,2013-02-05 05:35:00,
2013-02-05 05:36:00,34.3,30.0,29.20,NNE,22,0.0,0.0,84,0.00,,,0.06,VWS V14.01,2013-02-05 05:36:00,
2013-02-05 05:37:00,34.3,30.0,29.20,West,270,0.0,0.0,84,0.00,,,0.06,VWS V14.01,2013-02-05 05:37:00,
2013-02-05 05:38:00,34.3,30.0,29.20,West,270,0.0,0.0,84,0.00,,,0.06,VWS V14.01,2013-02-05 05:38:00,
2013-02-05 05:39:00,35.4,31.6,29.23,West,270,0.0,0.0,86,0.00,,,0.06,VWS V14.01,2013-02-05 05:39:00,
2013-02-05 05:40:00,34.3,30.0,29.20,NW,315,0.0,0.0,84,0.00,,,0.06,VWS V14.01,2013-02-05 05:40:00,
2013-02-05 05:41:00,34.3,30.0,29.21,NNW,337,0.0,0.0,84,0.00,,,0.06,VWS V14.01,2013-02-05 05:41:00,
2013-02-05 05:42:00,34.3,30.0,29.21,West,270,0.0,0.0,84,0.00,,,0.06,VWS V14.01,2013-02-05 05:42:00,
2013-02-05 05:43:00,34.3,30.0,29.21,SSW,202,0.0,0.0,84,0.00,,,0.06,VWS V14.01,2013-02-05 05:43:00,
2013-02-05 05:44:00,35.2,31.4,29.22,West,270,0.0,0.0,86,0.00,,,0.06,VWS V14.01,2013-02-05 05:44:00,
2013-02-05 05:45:00,34.3,30.0,29.21,WNW,292,0.0,0.0,84,0.00,,,0.06,VWS V14.01,2013-02-05 05:45:00,
2013-02-05 05:46:00,34.3,30.0,29.21,West,270,0.0,0.0,84,0.00,,,0.06,VWS V14.01,2013-02-05 05:46:00,
2013-02-05 05:47:00,34.3,30.0,29.21,West,270,0.0,0.0,84,0.00,,,0.06,VWS V14.01,2013-02-05 05:47:00,
2013-02-05 05:48:00,34.3,30.0,29.21,WSW,247,0.0,0.0,84,0.00,,,0.06,VWS V14.01,2013-02-05 05:48:00,
2013-02-05 05:49:00,34.3,30.0,29.21,WNW,292,0.0,0.0,84,0.00,,,0.06,VWS V14.01,2013-02-05 05:49:00,
2013-02-05 05:50:00,35.2,31.4,29.23,WNW,292,0.0,0.0,86,0.00,,,0.06,VWS V14.01,2013-02-05 05:50:00,
2013-02-05 05:51:00,34.3,30.0,29.21,WNW,292,0.0,0.0,84,0.00,,,0.06,VWS V14.01,2013-02-05 05:51:00,
2013-02-05 05:52:00,34.3,30.0,29.21,West,270,0.0,0.0,84,0.00,,,0.06,VWS V14.01,2013-02-05 05:52:00,
2013-02-05 05:53:00,34.3,30.0,29.21,West,270,0.0,0.0,84,0.00,,,0.06,VWS V14.01,2013-02-05 05:53:00,
2013-02-05 05:54:00,34.3,30.0,29.21,NW,315,0.0,0.0,84,0.00,,,0.06,VWS V14.01,2013-02-05 05:54:00,
2013-02-05 05:55:00,34.3,30.0,29.21,WNW,292,0.0,0.0,84,0.00,,,0.06,VWS V14.01,2013-02-05 05:55:00,
2013-02-05 05:56:00,35.2,31.1,29.22,ENE,67,0.0,0.0,85,0.00,,,0.06,VWS V14.01,2013-02-05 05:56:00,
2013-02-05 05:57:00,34.3,30.0,29.21,West,270,0.0,0.0,84,0.00,,,0.06,VWS V14.01,2013-02-05 05:57:00,
2013-02-05 05:58:00,34.3,30.0,29.21,SW,225,0.0,0.0,84,0.00,,,0.06,VWS V14.01,2013-02-05 05:58:00,
2013-02-05 05:59:00,34.3,29.7,29.21,West,270,0.0,0.0,83,0.00,,,0.06,VWS V14.01,2013-02-05 05:59:00,
2013-02-05 06:00:00,34.3,29.7,29.21,NNW,337,0.0,0.0,83,0.00,,,0.06,VWS V14.01,2013-02-05 06:00:00,
2013-02-05 06:01:00,35.2,31.1,29.22,WSW,247,0.0,0.0,85,0.00,,,0.06,VWS V14.01,2013-02-05 06:01:00,
2013-02-05 06:02:00,34.3,29.7,29.21,WNW,292,0.0,0.0,83,0.00,,,0.06,VWS V14.01,2013-02-05 06:02:00,
2013-02-05 06:03:00,34.3,29.7,29.21,NNW,337,0.0,0.0,83,0.00,,,0.06,VWS V14.01,2013-02-05 06:03:00,
2013-02-05 06:04:00,34.3,29.7,29.21,West,270,0.0,0.0,83,0.00,,,0.06,VWS V14.01,2013-02-05 06:04:00,
2013-02-05 06:05:00,34.3,29.7,29.21,West,270,0.0,0.0,83,0.00,,,0.06,VWS V14.01,2013-02-05 06:05:00,
2013-02-05 06:06:00,34.3,29.7,29.21,SW,225,0.0,0.0,83,0.00,,,0.06,VWS V14.01,2013-02-05 06:06:00,
2013-02-05 06:07:00,34.9,30.6,29.21,WNW,292,0.0,0.0,84,0.00,,,0.06,VWS V14.01,2013-02-05 06:07:00,
2013-02-05 06:08:00,34.3,29.7,29.21,WNW,292,0.0,0.0,83,0.00,,,0.06,VWS V14.01,2013-02-05 06:08:00,
2013-02-05 06:09:00,34.3,29.7,29.21,WNW,292,0.0,0.0,83,0.00,,,0.06,VWS V14.01,2013-02-05 06:09:00,
2013-02-05 06:10:00,34.3,29.7,29.21,West,270,0.0,0.0,83,0.00,,,0.06,VWS V14.01,2013-02-05 06:10:00,
2013-02-05 06:11:00,34.3,29.7,29.21,West,270,0.0,0.0,83,0.00,,,0.06,VWS V14.01,2013-02-05 06:11:00,
2013-02-05 06:12:00,34.3,29.7,29.21,WNW,292,0.0,0.0,83,0.00,,,0.06,VWS V14.01,2013-02-05 06:12:00,
2013-02-05 06:13:00,34.9,30.6,29.21,WNW,292,0.0,0.0,84,0.00,,,0.06,VWS V14.01,2013-02-05 06:13:00,
2013-02-05 06:14:00,34.3,29.7,29.21,West,270,0.0,0.0,83,0.00,,,0.06,VWS V14.01,2013-02-05 06:14:00,
2013-02-05 06:15:00,34.3,29.7,29.21,NNW,337,0.0,0.0,83,0.00,,,0.06,VWS V14.01,2013-02-05 06:15:00,
2013-02-05 06:16:00,34.3,29.7,29.21,NW,315,0.0,0.0,83,0.00,,,0.06,VWS V14.01,2013-02-05 06:16:00,
2013-02-05 06:17:00,34.3,29.7,29.21,WNW,292,0.0,0.0,83,0.00,,,0.06,VWS V14.01,2013-02-05 06:17:00,
2013-02-05 06:18:00,34.9,30.6,29.21,West,270,0.0,0.0,84,0.00,,,0.06,VWS V14.01,2013-02-05 06:18:00,
2013-02-05 06:19:00,34.2,29.6,29.21,West,270,0.0,0.0,83,0.00,,,0.06,VWS V14.01,2013-02-05 06:19:00,
2013-02-05 06:20:00,34.2,29.6,29.21,West,270,0.0,0.0,83,0.00,,,0.06,VWS V14.01,2013-02-05 06:20:00,
2013-02-05 06:21:00,34.2,29.6,29.21,NW,315,0.0,0.0,83,0.00,,,0.06,VWS V14.01,2013-02-05 06:21:00,
2013-02-05 06:22:00,34.0,29.4,29.21,WNW,292,0.0,0.0,83,0.00,,,0.06,VWS V14.01,2013-02-05 06:22:00,
2013-02-05 06:23:00,34.2,29.6,29.21,WNW,292,0.0,0.0,83,0.00,,,0.06,VWS V14.01,2013-02-05 06:23:00,
2013-02-05 06:24:00,34.7,30.4,29.21,WNW,292,0.0,0.0,84,0.00,,,0.06,VWS V14.01,2013-02-05 06:24:00,
2013-02-05 06:25:00,34.0,29.4,29.21,West,270,0.0,0.0,83,0.00,,,0.06,VWS V14.01,2013-02-05 06:25:00,
2013-02-05 06:26:00,34.0,29.4,29.21,NW,315,0.0,0.0,83,0.00,,,0.06,VWS V14.01,2013-02-05 06:26:00,
2013-02-05 06:27:00,34.0,29.4,29.21,WNW,292,0.0,0.0,83,0.00,,,0.06,VWS V14.01,2013-02-05 06:27:00,
2013-02-05 06:28:00,34.0,29.4,29.21,South,180,0.0,0.0,83,0.00,,,0.06,VWS V14.01,2013-02-05 06:28:00,
2013-02-05 06:29:00,34.0,29.4,29.21,NW,315,0.0,0.0,83,0.00,,,0.06,VWS V14.01,2013-02-05 06:29:00,
2013-02-05 06:30:00,34.5,30.2,29.21,WNW,292,0.0,0.0,84,0.00,,,0.06,VWS V14.01,2013-02-05 06:30:00,
2013-02-05 06:31:00,34.0,29.4,29.21,WNW,292,0.0,0.0,83,0.00,,,0.06,VWS V14.01,2013-02-05 06:31:00,
2013-02-05 06:32:00,34.0,29.4,29.21,WNW,292,0.0,0.0,83,0.00,,,0.06,VWS V14.01,2013-02-05 06:32:00,
2013-02-05 06:33:00,34.0,29.4,29.21,WNW,292,0.0,0.0,83,0.00,,,0.06,VWS V14.01,2013-02-05 06:33:00,
2013-02-05 06:34:00,34.0,29.4,29.21,WNW,292,0.0,0.0,83,0.00,,,0.06,VWS V14.01,2013-02-05 06:34:00,
2013-02-05 06:35:00,34.0,29.4,29.21,NW,315,0.0,0.0,83,0.00,,,0.06,VWS V14.01,2013-02-05 06:35:00,
2013-02-05 06:36:00,34.3,30.0,29.20,NNE,22,0.0,0.0,84,0.00,,,0.06,VWS V14.01,2013-02-05 06:36:00,
2013-02-05 06:37:00,33.8,29.2,29.21,WSW,247,0.0,0.0,83,0.00,,,0.06,VWS V14.01,2013-02-05 06:37:00,
2013-02-05 06:38:00,33.8,29.2,29.21,WNW,292,0.0,0.0,83,0.00,,,0.06,VWS V14.01,2013-02-05 06:38:00,
2013-02-05 06:39:00,34.0,29.4,29.21,NW,315,0.0,0.0,83,0.00,,,0.06,VWS V14.01,2013-02-05 06:39:00,
2013-02-05 06:40:00,34.0,29.4,29.21,WSW,247,0.0,0.0,83,0.00,,,0.06,VWS V14.01,2013-02-05 06:40:00,
2013-02-05 06:41:00,34.3,30.0,29.21,NNW,337,0.0,0.0,84,0.00,,,0.06,VWS V14.01,2013-02-05 06:41:00,
2013-02-05 06:42:00,33.8,29.2,29.20,NW,315,0.0,0.0,83,0.00,,,0.06,VWS V14.01,2013-02-05 06:42:00,
2013-02-05 06:43:00,34.0,29.4,29.20,WNW,292,0.0,0.0,83,0.00,,,0.06,VWS V14.01,2013-02-05 06:43:00,
2013-02-05 06:44:00,34.0,29.4,29.20,West,270,0.0,0.0,83,0.00,,,0.06,VWS V14.01,2013-02-05 06:44:00,
2013-02-05 06:45:00,34.0,29.4,29.21,NW,315,0.0,0.0,83,0.00,,,0.06,VWS V14.01,2013-02-05 06:45:00,
2013-02-05 06:46:00,34.3,30.0,29.21,West,270,0.0,0.0,84,0.00,,,0.06,VWS V14.01,2013-02-05 06:46:00,
2013-02-05 06:47:00,34.0,29.4,29.20,West,270,0.0,0.0,83,0.00,,,0.06,VWS V14.01,2013-02-05 06:47:00,
2013-02-05 06:48:00,34.0,29.4,29.20,WNW,292,0.0,0.0,83,0.00,,,0.06,VWS V14.01,2013-02-05 06:48:00,
2013-02-05 06:49:00,34.0,29.4,29.20,West,270,0.0,0.0,83,0.00,,,0.06,VWS V14.01,2013-02-05 06:49:00,
2013-02-05 06:50:00,34.2,29.6,29.20,WNW,292,0.0,0.0,83,0.00,,,0.06,VWS V14.01,2013-02-05 06:50:00,
2013-02-05 06:51:00,34.2,29.6,29.21,NW,315,0.0,0.0,83,0.00,,,0.06,VWS V14.01,2013-02-05 06:51:00,
2013-02-05 06:52:00,34.3,30.0,29.21,West,270,0.0,0.0,84,0.00,,,0.06,VWS V14.01,2013-02-05 06:52:00,
2013-02-05 06:53:00,34.2,29.6,29.21,NW,315,0.0,0.0,83,0.00,,,0.06,VWS V14.01,2013-02-05 06:53:00,
2013-02-05 06:54:00,34.2,29.6,29.21,WNW,292,0.0,0.0,83,0.00,,,0.06,VWS V14.01,2013-02-05 06:54:00,
2013-02-05 06:55:00,34.2,29.6,29.20,SSW,202,0.0,0.0,83,0.00,,,0.06,VWS V14.01,2013-02-05 06:55:00,
2013-02-05 06:56:00,34.2,29.6,29.20,NW,315,0.0,0.0,83,0.00,,,0.06,VWS V14.01,2013-02-05 06:56:00,
2013-02-05 06:57:00,34.3,30.0,29.21,West,270,0.0,0.0,84,0.00,,,0.06,VWS V14.01,2013-02-05 06:57:00,
2013-02-05 06:58:00,34.3,29.7,29.20,WNW,292,0.0,0.0,83,0.00,,,0.06,VWS V14.01,2013-02-05 06:58:00,
2013-02-05 06:59:00,34.3,29.7,29.20,WNW,292,0.0,0.0,83,0.00,,,0.06,VWS V14.01,2013-02-05 06:59:00,
2013-02-05 07:00:00,34.3,29.7,29.20,WNW,292,0.0,0.0,83,0.00,,,0.06,VWS V14.01,2013-02-05 07:00:00,
2013-02-05 07:01:00,34.3,29.7,29.20,SW,225,0.0,0.0,83,0.00,,,0.06,VWS V14.01,2013-02-05 07:01:00,
2013-02-05 07:02:00,34.3,29.7,29.20,West,270,0.0,0.0,83,0.00,,,0.06,VWS V14.01,2013-02-05 07:02:00,
2013-02-05 07:03:00,34.3,29.7,29.21,NNW,337,0.0,0.0,83,0.00,,,0.06,VWS V14.01,2013-02-05 07:03:00,
2013-02-05 07:04:00,34.3,29.7,29.20,WNW,292,0.0,0.0,83,0.00,,,0.06,VWS V14.01,2013-02-05 07:04:00,
2013-02-05 07:05:00,34.3,29.7,29.20,WNW,292,0.0,0.0,83,0.00,,,0.06,VWS V14.01,2013-02-05 07:05:00,
2013-02-05 07:06:00,34.3,29.7,29.20,WSW,247,0.0,0.0,83,0.00,,,0.06,VWS V14.01,2013-02-05 07:06:00,
2013-02-05 07:07:00,34.3,29.7,29.20,WNW,292,0.0,0.0,83,0.00,,,0.06,VWS V14.01,2013-02-05 07:07:00,
2013-02-05 07:08:00,34.5,29.9,29.20,SSW,202,0.0,0.0,83,0.00,,,0.06,VWS V14.01,2013-02-05 07:08:00,
2013-02-05 07:09:00,34.3,29.7,29.21,WNW,292,0.0,0.0,83,0.00,,,0.06,VWS V14.01,2013-02-05 07:09:00,
2013-02-05 07:10:00,34.7,30.1,29.21,SW,225,0.0,0.0,83,0.00,,,0.06,VWS V14.01,2013-02-05 07:10:00,
2013-02-05 07:11:00,34.9,30.3,29.21,West,270,0.0,0.0,83,0.00,,,0.06,VWS V14.01,2013-02-05 07:11:00,
2013-02-05 07:12:00,34.9,30.3,29.20,WNW,292,0.0,0.0,83,0.00,,,0.06,VWS V14.01,2013-02-05 07:12:00,
2013-02-05 07:13:00,34.9,30.3,29.20,NW,315,0.0,0.0,83,0.00,,,0.06,VWS V14.01,2013-02-05 07:13:00,
2013-02-05 07:14:00,35.2,30.6,29.20,SSW,202,0.0,0.0,83,0.00,,,0.06,VWS V14.01,2013-02-05 07:14:00,
2013-02-05 07:15:00,34.3,29.7,29.21,NNW,337,0.0,0.0,83,0.00,,,0.06,VWS V14.01,2013-02-05 07:15:00,
2013-02-05 07:16:00,35.4,30.8,29.20,SW,225,0.0,0.0,83,0.00,,,0.06,VWS V14.01,2013-02-05 07:16:00,
2013-02-05 07:17:00,35.4,30.8,29.20,North,0,0.0,0.0,83,0.00,,,0.06,VWS V14.01,2013-02-05 07:17:00,
2013-02-05 07:18:00,35.6,30.7,29.20,WSW,247,0.0,0.0,82,0.00,,,0.06,VWS V14.01,2013-02-05 07:18:00,
2013-02-05 07:19:00,35.8,30.9,29.20,SW,225,0.0,0.0,82,0.00,,,0.06,VWS V14.01,2013-02-05 07:19:00,
2013-02-05 07:20:00,34.2,29.6,29.21,West,270,0.0,0.0,83,0.00,,,0.06,VWS V14.01,2013-02-05 07:20:00,
2013-02-05 07:21:00,36.0,31.0,29.20,WNW,292,0.0,0.0,82,0.00,,,0.06,VWS V14.01,2013-02-05 07:21:00,
2013-02-05 07:22:00,36.0,31.0,29.20,West,270,0.0,0.0,82,0.00,,,0.06,VWS V14.01,2013-02-05 07:22:00,
2013-02-05 07:23:00,36.1,31.1,29.20,WSW,247,0.0,0.0,82,0.00,,,0.06,VWS V14.01,2013-02-05 07:23:00,
2013-02-05 07:24:00,36.3,31.3,29.20,WNW,292,0.0,0.0,82,0.00,,,0.06,VWS V14.01,2013-02-05 07:24:00,
2013-02-05 07:25:00,36.3,31.0,29.19,West,270,0.0,0.0,81,0.00,,,0.06,VWS V14.01,2013-02-05 07:25:00,
2013-02-05 07:26:00,34.0,29.4,29.21,NW,315,0.0,0.0,83,0.00,,,0.06,VWS V14.01,2013-02-05 07:26:00,
2013-02-05 07:27:00,36.7,31.4,29.20,WNW,292,0.0,0.0,81,0.00,,,0.06,VWS V14.01,2013-02-05 07:27:00,
2013-02-05 07:28:00,36.9,31.6,29.20,WNW,292,0.0,0.0,81,0.00,,,0.06,VWS V14.01,2013-02-05 07:28:00,
2013-02-05 07:29:00,37.0,31.7,29.20,WSW,247,0.0,0.0,81,0.00,,,0.06,VWS V14.01,2013-02-05 07:29:00,
2013-02-05 07:30:00,37.2,31.9,29.20,West,270,0.0,0.0,81,0.00,,,0.06,VWS V14.01,2013-02-05 07:30:00,
2013-02-05 07:31:00,37.6,32.3,29.20,West,270,0.0,0.0,81,0.00,,,0.06,VWS V14.01,2013-02-05 07:31:00,
2013-02-05 07:32:00,34.0,29.4,29.21,WNW,292,0.0,0.0,83,0.00,,,0.06,VWS V14.01,2013-02-05 07:32:00,
2013-02-05 07:33:00,37.9,32.6,29.20,WSW,247,0.0,0.0,81,0.00,,,0.06,VWS V14.01,2013-02-05 07:33:00,
2013-02-05 07:34:00,38.5,33.2,29.20,West,270,0.0,0.0,81,0.00,,,0.06,VWS V14.01,2013-02-05 07:34:00,
2013-02-05 07:35:00,38.8,33.5,29.20,WNW,292,0.0,0.0,81,0.00,,,0.06,VWS V14.01,2013-02-05 07:35:00,
2013-02-05 07:36:00,39.0,33.4,29.20,WNW,292,0.0,0.0,80,0.00,,,0.06,VWS V14.01,2013-02-05 07:36:00,
2013-02-05 07:37:00,39.4,33.4,29.20,WNW,292,0.0,0.0,79,0.00,,,0.06,VWS V14.01,2013-02-05 07:37:00,
2013-02-05 07:38:00,33.8,29.2,29.21,WNW,292,0.0,0.0,83,0.00,,,0.06,VWS V14.01,2013-02-05 07:38:00,
2013-02-05 07:39:00,39.9,33.9,29.20,SW,225,0.0,0.0,79,0.00,,,0.06,VWS V14.01,2013-02-05 07:39:00,
2013-02-05 07:40:00,40.1,33.8,29.19,WNW,292,0.0,0.0,78,0.00,,,0.06,VWS V14.01,2013-02-05 07:40:00,
2013-02-05 07:41:00,40.3,33.7,29.19,SW,225,0.0,0.0,77,0.00,,,0.06,VWS V14.01,2013-02-05 07:41:00,
2013-02-05 07:42:00,40.6,34.0,29.19,SW,225,0.0,0.0,77,0.00,,,0.06,VWS V14.01,2013-02-05 07:42:00,
2013-02-05 07:43:00,40.8,34.2,29.19,WSW,247,0.0,0.0,77,0.00,,,0.06,VWS V14.01,2013-02-05 07:43:00,
2013-02-05 07:44:00,34.0,29.4,29.20,West,270,0.0,0.0,83,0.00,,,0.06,VWS V14.01,2013-02-05 07:44:00,
2013-02-05 07:45:00,41.5,34.5,29.20,WNW,292,0.0,0.0,76,0.00,,,0.06,VWS V14.01,2013-02-05 07:45:00,
2013-02-05 07:46:00,41.7,34.7,29.20,SSW,202,0.0,0.0,76,0.00,,,0.06,VWS V14.01,2013-02-05 07:46:00,
2013-02-05 07:47:00,42.4,35.4,29.20,South,180,0.0,0.0,76,0.00,,,0.06,VWS V14.01,2013-02-05 07:47:00,
2013-02-05 07:48:00,42.6,35.2,29.19,WSW,247,0.0,0.0,75,0.00,,,0.06,VWS V14.01,2013-02-05 07:48:00,
2013-02-05 07:49:00,34.0,29.4,29.20,West,270,0.0,0.0,83,0.00,,,0.06,VWS V14.01,2013-02-05 07:49:00,
2013-02-05 07:50:00,43.7,36.0,29.19,West,270,0.0,0.0,74,0.00,,,0.06,VWS V14.01,2013-02-05 07:50:00,
2013-02-05 07:51:00,43.9,36.2,29.19,West,270,0.0,0.0,74,0.00,,,0.06,VWS V14.01,2013-02-05 07:51:00,
2013-02-05 07:52:00,44.4,36.3,29.19,West,270,0.0,0.0,73,0.00,,,0.06,VWS V14.01,2013-02-05 07:52:00,
2013-02-05 07:53:00,45.0,36.5,29.19,West,270,0.0,0.0,72,0.00,,,0.06,VWS V14.01,2013-02-05 07:53:00,
2013-02-05 07:54:00,45.3,36.8,29.19,WSW,247,0.0,0.0,72,0.00,,,0.06,VWS V14.01,2013-02-05 07:54:00,
2013-02-05 07:55:00,34.2,29.6,29.20,SSW,202,0.0,0.0,83,0.00,,,0.06,VWS V14.01,2013-02-05 07:55:00,
2013-02-05 07:56:00,46.2,37.0,29.19,WNW,292,0.0,0.0,70,0.00,,,0.06,VWS V14.01,2013-02-05 07:56:00,
2013-02-05 07:57:00,46.2,36.6,29.19,WNW,292,0.0,0.0,69,0.00,,,0.06,VWS V14.01,2013-02-05 07:57:00,
2013-02-05 07:58:00,46.6,37.0,29.19,WSW,247,0.0,0.0,69,0.00,,,0.06,VWS V14.01,2013-02-05 07:58:00,
2013-02-05 07:59:00,46.9,36.9,29.19,NW,315,0.0,0.0,68,0.00,,,0.06,VWS V14.01,2013-02-05 07:59:00,
2013-02-05 08:00:00,47.1,37.1,29.19,SSW,202,0.0,0.0,68,0.00,,,0.06,VWS V14.01,2013-02-05 08:00:00,
2013-02-05 08:01:00,34.3,29.7,29.20,SW,225,0.0,0.0,83,0.00,,,0.06,VWS V14.01,2013-02-05 08:01:00,
2013-02-05 08:02:00,47.7,37.3,29.18,West,270,0.0,0.0,67,0.00,,,0.06,VWS V14.01,2013-02-05 08:02:00,
2013-02-05 08:03:00,47.8,37.0,29.19,WSW,247,0.0,0.0,66,0.00,,,0.06,VWS V14.01,2013-02-05 08:03:00,
2013-02-05 08:04:00,48.0,37.2,29.18,WSW,247,0.0,0.0,66,0.00,,,0.06,VWS V14.01,2013-02-05 08:04:00,
2013-02-05 08:05:00,48.4,37.2,29.18,NW,315,0.0,0.0,65,0.00,,,0.06,VWS V14.01,2013-02-05 08:05:00,
2013-02-05 08:06:00,48.6,37.0,29.18,NW,315,0.0,0.0,64,0.00,,,0.06,VWS V14.01,2013-02-05 08:06:00,
2013-02-05 08:07:00,34.3,29.7,29.20,WNW,292,0.0,0.0,83,0.00,,,0.06,VWS V14.01,2013-02-05 08:07:00,
2013-02-05 08:08:00,48.9,37.3,29.18,WNW,292,0.0,0.0,64,0.00,,,0.06,VWS V14.01,2013-02-05 08:08:00,
2013-02-05 08:09:00,49.1,37.5,29.18,West,270,0.0,0.0,64,0.00,,,0.06,VWS V14.01,2013-02-05 08:09:00,
2013-02-05 08:10:00,49.1,37.5,29.18,NNW,337,0.0,0.0,64,0.00,,,0.06,VWS V14.01,2013-02-05 08:10:00,
2013-02-05 08:11:00,49.1,37.1,29.18,WSW,247,0.0,0.0,63,0.00,,,0.06,VWS V14.01,2013-02-05 08:11:00,
2013-02-05 08:12:00,34.9,30.3,29.20,WNW,292,0.0,0.0,83,0.00,,,0.06,VWS V14.01,2013-02-05 08:12:00,
2013-02-05 08:13:00,48.7,36.3,29.18,SSW,202,0.0,0.0,62,0.00,,,0.06,VWS V14.01,2013-02-05 08:13:00,
2013-02-05 08:14:00,48.7,36.3,29.18,West,270,0.0,0.0,62,0.00,,,0.06,VWS V14.01,2013-02-05 08:14:00,
2013-02-05 08:15:00,48.4,36.0,29.18,West,270,0.0,0.0,62,0.00,,,0.06,VWS V14.01,2013-02-05 08:15:00,
2013-02-05 08:16:00,48.4,36.0,29.18,West,270,0.0,0.0,62,0.00,,,0.06,VWS V14.01,2013-02-05 08:16:00,
2013-02-05 08:17:00,48.6,36.2,29.18,WSW,247,0.0,0.0,62,0.00,,,0.06,VWS V14.01,2013-02-05 08:17:00,
2013-02-05 08:18:00,35.6,30.7,29.20,WSW,247,0.0,0.0,82,0.00,,,0.06,VWS V14.01,2013-02-05 08:18:00,
2013-02-05 08:19:00,48.7,36.7,29.17,West,270,0.0,0.0,63,0.00,,,0.06,VWS V14.01,2013-02-05 08:19:00,
2013-02-05 08:20:00,48.7,36.7,29.17,West,270,0.0,0.0,63,0.00,,,0.06,VWS V14.01,2013-02-05 08:20:00,
2013-02-05 08:21:00,48.9,36.5,29.17,WSW,247,0.0,0.0,62,0.00,,,0.06,VWS V14.01,2013-02-05 08:21:00,
2013-02-05 08:22:00,48.9,36.5,29.17,WSW,247,0.0,0.0,62,0.00,,,0.06,VWS V14.01,2013-02-05 08:22:00,
2013-02-05 08:23:00,48.9,36.5,29.17,SW,225,0.0,0.0,62,0.00,,,0.06,VWS V14.01,2013-02-05 08:23:00,
2013-02-05 08:24:00,36.3,31.3,29.20,WNW,292,0.0,0.0,82,0.00,,,0.06,VWS V14.01,2013-02-05 08:24:00,
2013-02-05 08:25:00,49.3,36.4,29.17,WNW,292,0.0,0.0,61,0.00,,,0.06,VWS V14.01,2013-02-05 08:25:00,
2013-02-05 08:26:00,49.3,36.4,29.18,WNW,292,0.0,0.0,61,0.00,,,0.06,VWS V14.01,2013-02-05 08:26:00,
2013-02-05 08:27:00,49.6,36.7,29.17,NW,315,0.0,0.0,61,0.00,,,0.06,VWS V14.01,2013-02-05 08:27:00,
2013-02-05 08:28:00,49.6,36.7,29.17,WSW,247,0.0,0.0,61,0.00,,,0.06,VWS V14.01,2013-02-05 08:28:00,
2013-02-05 08:29:00,37.0,31.7,29.20,WSW,247,0.0,0.0,81,0.00,,,0.06,VWS V14.01,2013-02-05 08:29:00,
2013-02-05 08:30:00,49.8,36.5,29.17,West,270,0.0,0.0,60,0.00,,,0.06,VWS V14.01,2013-02-05 08:30:00,
2013-02-05 08:31:00,50.2,37.3,29.17,WNW,292,0.0,0.0,61,0.00,,,0.06,VWS V14.01,2013-02-05 08:31:00,
2013-02-05 08:32:00,50.5,37.2,29.17,WSW,247,0.0,0.0,60,0.00,,,0.06,VWS V14.01,2013-02-05 08:32:00,
2013-02-05 08:33:00,50.7,37.3,29.17,West,270,0.0,0.0,60,0.00,,,0.06,VWS V14.01,2013-02-05 08:33:00,
2013-02-05 08:34:00,50.9,37.5,29.17,SE,135,0.0,0.0,60,0.00,,,0.06,VWS V14.01,2013-02-05 08:34:00,
2013-02-05 08:35:00,38.8,33.5,29.20,WNW,292,0.0,0.0,81,0.00,,,0.06,VWS V14.01,2013-02-05 08:35:00,
2013-02-05 08:36:00,51.4,37.6,29.17,ESE,112,0.0,0.0,59,0.00,,,0.06,VWS V14.01,2013-02-05 08:36:00,
2013-02-05 08:37:00,51.6,37.8,29.17,WNW,292,0.0,0.0,59,0.00,,,0.06,VWS V14.01,2013-02-05 08:37:00,
2013-02-05 08:38:00,51.6,37.3,29.17,West,270,0.0,0.0,58,0.00,,,0.06,VWS V14.01,2013-02-05 08:38:00,
2013-02-05 08:39:00,52.0,37.7,29.17,NW,315,0.0,0.0,58,0.00,,,0.06,VWS V14.01,2013-02-05 08:39:00,
2013-02-05 08:40:00,40.1,33.8,29.19,WNW,292,0.0,0.0,78,0.00,,,0.06,VWS V14.01,2013-02-05 08:40:00,
2013-02-05 08:41:00,52.2,37.4,29.17,SW,225,0.0,0.0,57,0.00,,,0.06,VWS V14.01,2013-02-05 08:41:00,
2013-02-05 08:42:00,52.3,37.5,29.17,WNW,292,0.0,0.0,57,0.00,,,0.06,VWS V14.01,2013-02-05 08:42:00,
2013-02-05 08:43:00,52.3,37.5,29.17,WNW,292,0.0,0.0,57,0.00,,,0.06,VWS V14.01,2013-02-05 08:43:00,
2013-02-05 08:44:00,52.5,37.7,29.17,NW,315,0.0,0.0,57,0.00,,,0.06,VWS V14.01,2013-02-05 08:44:00,
2013-02-05 08:45:00,52.9,38.1,29.17,WNW,292,0.0,0.0,57,0.00,,,0.06,VWS V14.01,2013-02-05 08:45:00,
2013-02-05 08:46:00,41.7,34.7,29.20,SSW,202,0.0,0.0,76,0.00,,,0.06,VWS V14.01,2013-02-05 08:46:00,
2013-02-05 08:47:00,53.2,38.4,29.17,West,270,0.0,0.0,57,0.00,,,0.06,VWS V14.01,2013-02-05 08:47:00,
2013-02-05 08:48:00,53.4,38.6,29.17,WSW,247,0.0,0.0,57,0.00,,,0.06,VWS V14.01,2013-02-05 08:48:00,
2013-02-05 08:49:00,53.6,38.8,29.17,NW,315,0.0,0.0,57,0.00,,,0.06,VWS V14.01,2013-02-05 08:49:00,
2013-02-05 08:50:00,53.8,38.5,29.17,NW,315,0.0,0.0,56,0.00,,,0.06,VWS V14.01,2013-02-05 08:50:00,
2013-02-05 08:51:00,54.1,38.3,29.17,South,180,0.0,0.0,55,0.00,,,0.06,VWS V14.01,2013-02-05 08:51:00,
2013-02-05 08:52:00,44.4,36.3,29.19,West,270,0.0,0.0,73,0.00,,,0.06,VWS V14.01,2013-02-05 08:52:00,
2013-02-05 08:53:00,54.3,38.0,29.17,West,270,0.0,0.0,54,0.00,,,0.06,VWS V14.01,2013-02-05 08:53:00,
2013-02-05 08:54:00,54.5,38.2,29.17,NW,315,0.0,0.0,54,0.00,,,0.06,VWS V14.01,2013-02-05 08:54:00,
2013-02-05 08:55:00,54.3,37.5,29.17,West,270,0.0,0.0,53,0.00,,,0.06,VWS V14.01,2013-02-05 08:55:00,
2013-02-05 08:56:00,54.1,37.4,29.17,WNW,292,0.0,0.0,53,0.00,,,0.06,VWS V14.01,2013-02-05 08:56:00,
2013-02-05 08:57:00,54.0,37.3,29.17,WSW,247,0.0,0.0,53,0.00,,,0.06,VWS V14.01,2013-02-05 08:57:00,
2013-02-05 08:58:00,46.6,37.0,29.19,WSW,247,0.0,0.0,69,0.00,,,0.06,VWS V14.01,2013-02-05 08:58:00,
2013-02-05 08:59:00,54.0,37.8,29.17,WSW,247,0.0,0.0,54,0.00,,,0.06,VWS V14.01,2013-02-05 08:59:00,
2013-02-05 09:00:00,54.1,37.8,29.17,WNW,292,0.0,0.0,54,0.00,,,0.06,VWS V14.01,2013-02-05 09:00:00,
2013-02-05 09:01:00,54.3,38.0,29.17,West,270,0.0,0.0,54,0.00,,,0.06,VWS V14.01,2013-02-05 09:01:00,
2013-02-05 09:02:00,54.5,38.2,29.17,NW,315,0.0,0.0,54,0.00,,,0.06,VWS V14.01,2013-02-05 09:02:00,
2013-02-05 09:03:00,47.8,37.0,29.19,WSW,247,0.0,0.0,66,0.00,,,0.06,VWS V14.01,2013-02-05 09:03:00,
2013-02-05 09:04:00,54.7,37.4,29.17,West,270,0.0,0.0,52,0.00,,,0.06,VWS V14.01,2013-02-05 09:04:00,
2013-02-05 09:05:00,54.7,37.4,29.17,WSW,247,0.0,0.0,52,0.00,,,0.06,VWS V14.01,2013-02-05 09:05:00,
2013-02-05 09:06:00,54.7,37.4,29.17,West,270,0.0,0.0,52,0.00,,,0.06,VWS V14.01,2013-02-05 09:06:00,
2013-02-05 09:07:00,54.5,37.2,29.17,West,270,0.0,0.0,52,0.00,,,0.06,VWS V14.01,2013-02-05 09:07:00,
2013-02-05 09:08:00,54.5,37.2,29.17,West,270,0.0,0.0,52,0.00,,,0.06,VWS V14.01,2013-02-05 09:08:00,
2013-02-05 09:09:00,49.1,37.5,29.18,West,270,0.0,0.0,64,0.00,,,0.06,VWS V14.01,2013-02-05 09:09:00,
2013-02-05 09:10:00,54.3,37.1,29.17,SW,225,0.0,0.0,52,0.00,,,0.06,VWS V14.01,2013-02-05 09:10:00,
2013-02-05 09:11:00,54.1,36.9,29.17,WNW,292,0.0,0.0,52,0.00,,,0.06,VWS V14.01,2013-02-05 09:11:00,
2013-02-05 09:12:00,53.8,36.6,29.17,NNW,337,0.0,0.0,52,0.00,,,0.06,VWS V14.01,2013-02-05 09:12:00,
2013-02-05 09:13:00,53.8,36.6,29.17,WNW,292,0.0,0.0,52,0.00,,,0.06,VWS V14.01,2013-02-05 09:13:00,
2013-02-05 09:14:00,53.4,36.7,29.18,WNW,292,0.0,0.0,53,0.00,,,0.06,VWS V14.01,2013-02-05 09:14:00,
2013-02-05 09:15:00,48.4,36.0,29.18,West,270,0.0,0.0,62,0.00,,,0.06,VWS V14.01,2013-02-05 09:15:00,
2013-02-05 09:16:00,53.6,36.9,29.18,West,270,0.0,0.0,53,0.00,,,0.06,VWS V14.01,2013-02-05 09:16:00,
2013-02-05 09:17:00,53.6,36.9,29.18,NE,45,0.0,0.0,53,0.00,,,0.06,VWS V14.01,2013-02-05 09:17:00,
2013-02-05 09:18:00,53.4,36.7,29.18,West,270,0.0,0.0,53,0.00,,,0.06,VWS V14.01,2013-02-05 09:18:00,
2013-02-05 09:19:00,53.2,36.0,29.17,NW,315,0.0,0.0,52,0.00,,,0.06,VWS V14.01,2013-02-05 09:19:00,
2013-02-05 09:20:00,52.9,35.8,29.17,West,270,0.0,0.0,52,0.00,,,0.06,VWS V14.01,2013-02-05 09:20:00,
2013-02-05 09:21:00,48.9,36.5,29.17,WSW,247,0.0,0.0,62,0.00,,,0.06,VWS V14.01,2013-02-05 09:21:00,
2013-02-05 09:22:00,52.7,36.5,29.17,West,270,0.0,0.0,54,0.00,,,0.06,VWS V14.01,2013-02-05 09:22:00,
2013-02-05 09:23:00,52.9,36.7,29.17,West,270,0.0,0.0,54,0.00,,,0.06,VWS V14.01,2013-02-05 09:23:00,
2013-02-05 09:24:00,52.9,37.2,29.17,WNW,292,0.0,0.0,55,0.00,,,0.06,VWS V14.01,2013-02-05 09:24:00,
2013-02-05 09:25:00,53.2,37.0,29.17,WNW,292,0.0,0.0,54,0.00,,,0.06,VWS V14.01,2013-02-05 09:25:00,
2013-02-05 09:26:00,53.2,37.0,29.17,WNW,292,0.0,0.0,54,0.00,,,0.06,VWS V14.01,2013-02-05 09:26:00,
2013-02-05 09:27:00,49.6,36.7,29.17,NW,315,0.0,0.0,61,0.00,,,0.06,VWS V14.01,2013-02-05 09:27:00,
2013-02-05 09:28:00,53.8,37.1,29.18,WNW,292,0.0,0.0,53,0.00,,,0.06,VWS V14.01,2013-02-05 09:28:00,
2013-02-05 09:29:00,54.1,37.4,29.17,WNW,292,0.0,0.0,53,0.00,,,0.06,VWS V14.01,2013-02-05 09:29:00,
2013-02-05 09:30:00,54.5,37.7,29.17,West,270,0.0,0.0,53,0.00,,,0.06,VWS V14.01,2013-02-05 09:30:00,
2013-02-05 09:31:00,54.9,37.6,29.17,NNW,337,0.0,0.0,52,0.00,,,0.06,VWS V14.01,2013-02-05 09:31:00,
2013-02-05 09:32:00,55.2,37.9,29.18,NW,315,0.0,0.0,52,0.00,,,0.06,VWS V14.01,2013-02-05 09:32:00,
2013-02-05 09:33:00,50.7,37.3,29.17,West,270,0.0,0.0,60,0.00,,,0.06,VWS V14.01,2013-02-05 09:33:00,
2013-02-05 09:34:00,55.4,37.6,29.17,WNW,292,0.0,0.0,51,0.00,,,0.06,VWS V14.01,2013-02-05 09:34:00,
2013-02-05 09:35:00,55.6,37.3,29.17,WNW,292,0.0,0.0,50,0.00,,,0.06,VWS V14.01,2013-02-05 09:35:00,
2013-02-05 09:36:00,55.6,37.3,29.17,WNW,292,0.0,0.0,50,0.00,,,0.06,VWS V14.01,2013-02-05 09:36:00,
2013-02-05 09:37:00,55.6,36.8,29.17,WNW,292,0.0,0.0,49,0.00,,,0.06,VWS V14.01,2013-02-05 09:37:00,
2013-02-05 09:38:00,51.6,37.3,29.17,West,270,0.0,0.0,58,0.00,,,0.06,VWS V14.01,2013-02-05 09:38:00,
2013-02-05 09:39:00,55.6,36.8,29.17,West,270,0.0,0.0,49,0.00,,,0.06,VWS V14.01,2013-02-05 09:39:00,
2013-02-05 09:40:00,55.6,36.8,29.17,NW,315,0.0,0.0,49,0.00,,,0.06,VWS V14.01,2013-02-05 09:40:00,
2013-02-05 09:41:00,55.6,36.8,29.17,WNW,292,0.0,0.0,49,0.00,,,0.06,VWS V14.01,2013-02-05 09:41:00,
2013-02-05 09:42:00,55.6,36.8,29.17,WNW,292,0.0,0.0,49,0.00,,,0.06,VWS V14.01,2013-02-05 09:42:00,
2013-02-05 09:43:00,55.6,36.2,29.17,NW,315,0.0,0.0,48,0.00,,,0.06,VWS V14.01,2013-02-05 09:43:00,
2013-02-05 09:44:00,52.5,37.7,29.17,NW,315,0.0,0.0,57,0.00,,,0.06,VWS V14.01,2013-02-05 09:44:00,
2013-02-05 09:45:00,54.9,35.6,29.17,West,270,0.0,0.0,48,0.00,,,0.06,VWS V14.01,2013-02-05 09:45:00,
2013-02-05 09:46:00,54.7,35.4,29.17,WNW,292,0.0,0.0,48,0.00,,,0.06,VWS V14.01,2013-02-05 09:46:00,
2013-02-05 09:47:00,54.1,34.9,29.17,NW,315,0.0,0.0,48,0.00,,,0.06,VWS V14.01,2013-02-05 09:47:00,
2013-02-05 09:48:00,53.8,34.6,29.17,NNW,337,0.0,0.0,48,0.00,,,0.06,VWS V14.01,2013-02-05 09:48:00,
2013-02-05 09:49:00,53.6,38.8,29.17,NW,315,0.0,0.0,57,0.00,,,0.06,VWS V14.01,2013-02-05 09:49:00,
2013-02-05 09:50:00,53.2,34.5,29.17,NW,315,0.0,0.0,49,0.00,,,0.06,VWS V14.01,2013-02-05 09:50:00,
2013-02-05 09:51:00,53.2,35.1,29.16,WSW,247,0.0,0.0,50,0.00,,,0.06,VWS V14.01,2013-02-05 09:51:00,
2013-02-05 09:52:00,53.2,35.1,29.16,NW,315,0.0,0.0,50,0.00,,,0.06,VWS V14.01,2013-02-05 09:52:00,
2013-02-05 09:53:00,53.4,35.2,29.17,NNW,337,0.0,0.0,50,0.00,,,0.06,VWS V14.01,2013-02-05 09:53:00,
2013-02-05 09:54:00,54.5,38.2,29.17,NW,315,0.0,0.0,54,0.00,,,0.06,VWS V14.01,2013-02-05 09:54:00,
2013-02-05 09:55:00,53.8,35.6,29.16,NW,315,0.0,0.0,50,0.00,,,0.06,VWS V14.01,2013-02-05 09:55:00,
2013-02-05 09:56:00,54.0,35.3,29.16,WNW,292,0.0,0.0,49,0.00,,,0.06,VWS V14.01,2013-02-05 09:56:00,
2013-02-05 09:57:00,54.0,35.3,29.16,WNW,292,0.0,0.0,49,0.00,,,0.06,VWS V14.01,2013-02-05 09:57:00,
2013-02-05 09:58:00,53.8,34.6,29.16,West,270,0.0,0.0,48,0.00,,,0.06,VWS V14.01,2013-02-05 09:58:00,
2013-02-05 09:59:00,54.0,37.8,29.17,WSW,247,0.0,0.0,54,0.00,,,0.06,VWS V14.01,2013-02-05 09:59:00,
2013-02-05 10:00:00,53.4,34.2,29.16,WNW,292,0.0,0.0,48,0.00,,,0.06,VWS V14.01,2013-02-05 10:00:00,
2013-02-05 10:01:00,52.9,33.8,29.16,West,270,0.0,0.0,48,0.00,,,0.06,VWS V14.01,2013-02-05 10:01:00,
2013-02-05 10:02:00,52.5,33.4,29.16,NNW,337,0.0,0.0,48,0.00,,,0.06,VWS V14.01,2013-02-05 10:02:00,
2013-02-05 10:03:00,52.3,33.7,29.16,West,270,0.0,0.0,49,0.00,,,0.06,VWS V14.01,2013-02-05 10:03:00,
2013-02-05 10:04:00,52.2,33.6,29.16,WNW,292,0.0,0.0,49,0.00,,,0.06,VWS V14.01,2013-02-05 10:04:00,
2013-02-05 10:05:00,54.7,37.4,29.17,WSW,247,0.0,0.0,52,0.00,,,0.06,VWS V14.01,2013-02-05 10:05:00,
2013-02-05 10:06:00,52.3,33.7,29.15,WNW,292,0.0,0.0,49,0.00,,,0.06,VWS V14.01,2013-02-05 10:06:00,
2013-02-05 10:07:00,52.3,33.7,29.15,NNW,337,0.0,0.0,49,0.00,,,0.06,VWS V14.01,2013-02-05 10:07:00,
2013-02-05 10:08:00,52.3,33.7,29.15,NNW,337,0.0,0.0,49,0.00,,,0.06,VWS V14.01,2013-02-05 10:08:00,
2013-02-05 10:09:00,52.3,33.7,29.15,NW,315,0.0,0.0,49,0.00,,,0.06,VWS V14.01,2013-02-05 10:09:00,
2013-02-05 10:10:00,52.3,33.7,29.15,WNW,292,0.0,0.0,49,0.00,,,0.06,VWS V14.01,2013-02-05 10:10:00,
2013-02-05 10:11:00,54.1,36.9,29.17,WNW,292,0.0,0.0,52,0.00,,,0.06,VWS V14.01,2013-02-05 10:11:00,
2013-02-05 10:12:00,52.5,33.9,29.15,NW,315,0.0,0.0,49,0.00,,,0.06,VWS V14.01,2013-02-05 10:12:00,
2013-02-05 10:13:00,52.5,33.9,29.15,NNW,337,0.0,0.0,49,0.00,,,0.06,VWS V14.01,2013-02-05 10:13:00,
2013-02-05 10:14:00,52.9,34.3,29.15,WNW,292,0.0,0.0,49,0.00,,,0.06,VWS V14.01,2013-02-05 10:14:00,
2013-02-05 10:15:00,52.9,34.3,29.15,WNW,292,0.0,0.0,49,0.00,,,0.06,VWS V14.01,2013-02-05 10:15:00,
2013-02-05 10:16:00,53.6,36.9,29.18,West,270,0.0,0.0,53,0.00,,,0.06,VWS V14.01,2013-02-05 10:16:00,
2013-02-05 10:17:00,52.9,33.8,29.15,WSW,247,0.0,0.0,48,0.00,,,0.06,VWS V14.01,2013-02-05 10:17:00,
2013-02-05 10:18:00,52.9,33.8,29.15,WSW,247,0.0,0.0,48,0.00,,,0.06,VWS V14.01,2013-02-05 10:18:00,
2013-02-05 10:19:00,52.9,33.8,29.15,WNW,292,0.0,0.0,48,0.00,,,0.06,VWS V14.01,2013-02-05 10:19:00,
2013-02-05 10:20:00,52.9,33.8,29.15,WNW,292,0.0,0.0,48,0.00,,,0.06,VWS V14.01,2013-02-05 10:20:00,
2013-02-05 10:21:00,52.9,33.8,29.15,West,270,0.0,0.0,48,0.00,,,0.06,VWS V14.01,2013-02-05 10:21:00,
2013-02-05 10:22:00,52.7,36.5,29.17,West,270,0.0,0.0,54,0.00,,,0.06,VWS V14.01,2013-02-05 10:22:00,
2013-02-05 10:23:00,52.7,33.6,29.15,WNW,292,0.0,0.0,48,0.00,,,0.06,VWS V14.01,2013-02-05 10:23:00,
2013-02-05 10:24:00,52.5,33.4,29.15,NNW,337,0.0,0.0,48,0.00,,,0.06,VWS V14.01,2013-02-05 10:24:00,
2013-02-05 10:25:00,52.5,33.4,29.14,WNW,292,0.0,0.0,48,0.00,,,0.06,VWS V14.01,2013-02-05 10:25:00,
2013-02-05 10:26:00,52.5,33.4,29.14,WNW,292,0.0,0.0,48,0.00,,,0.06,VWS V14.01,2013-02-05 10:26:00,
2013-02-05 10:27:00,52.3,33.2,29.14,NW,315,0.0,0.0,48,0.00,,,0.06,VWS V14.01,2013-02-05 10:27:00,
2013-02-05 10:28:00,53.8,37.1,29.18,WNW,292,0.0,0.0,53,0.00,,,0.06,VWS V14.01,2013-02-05 10:28:00,
2013-02-05 10:29:00,52.3,33.2,29.14,SW,225,0.0,0.0,48,0.00,,,0.06,VWS V14.01,2013-02-05 10:29:00,
2013-02-05 10:30:00,52.3,33.2,29.14,NW,315,0.0,0.0,48,0.00,,,0.06,VWS V14.01,2013-02-05 10:30:00,
2013-02-05 10:31:00,52.3,33.2,29.15,WNW,292,0.0,0.0,48,0.00,,,0.06,VWS V14.01,2013-02-05 10:31:00,
2013-02-05 10:32:00,52.5,33.4,29.15,WNW,292,0.0,0.0,48,0.00,,,0.06,VWS V14.01,2013-02-05 10:32:00,
2013-02-05 10:33:00,52.5,33.4,29.14,WNW,292,0.0,0.0,48,0.00,,,0.06,VWS V14.01,2013-02-05 10:33:00,
2013-02-05 10:34:00,55.4,37.6,29.17,WNW,292,0.0,0.0,51,0.00,,,0.06,VWS V14.01,2013-02-05 10:34:00,
2013-02-05 10:35:00,52.7,33.0,29.14,WSW,247,0.0,0.0,47,0.00,,,0.06,VWS V14.01,2013-02-05 10:35:00,
2013-02-05 10:36:00,52.5,32.9,29.14,NW,315,0.0,0.0,47,0.00,,,0.06,VWS V14.01,2013-02-05 10:36:00,
2013-02-05 10:37:00,52.5,32.9,29.14,South,180,0.0,0.0,47,0.00,,,0.06,VWS V14.01,2013-02-05 10:37:00,
2013-02-05 10:38:00,52.3,32.7,29.14,WNW,292,0.0,0.0,47,0.00,,,0.06,VWS V14.01,2013-02-05 10:38:00,
2013-02-05 10:39:00,51.8,32.2,29.14,SSW,202,0.0,0.0,47,0.00,,,0.06,VWS V14.01,2013-02-05 10:39:00,
2013-02-05 10:40:00,55.6,36.8,29.17,NW,315,0.0,0.0,49,0.00,,,0.06,VWS V14.01,2013-02-05 10:40:00,
2013-02-05 10:41:00,50.9,31.4,29.14,NW,315,0.0,0.0,47,0.00,,,0.06,VWS V14.01,2013-02-05 10:41:00,
2013-02-05 10:42:00,50.5,31.0,29.14,WNW,292,0.0,0.0,47,0.00,,,0.06,VWS V14.01,2013-02-05 10:42:00,
2013-02-05 10:43:00,50.2,30.8,29.14,NW,315,0.0,0.0,47,0.00,,,0.06,VWS V14.01,2013-02-05 10:43:00,
2013-02-05 10:44:00,49.8,30.9,29.14,NW,315,0.0,0.0,48,0.00,,,0.06,VWS V14.01,2013-02-05 10:44:00,
2013-02-05 10:45:00,54.9,35.6,29.17,West,270,0.0,0.0,48,0.00,,,0.06,VWS V14.01,2013-02-05 10:45:00,
2013-02-05 10:46:00,49.3,31.0,29.14,NW,315,0.0,0.0,49,0.00,,,0.06,VWS V14.01,2013-02-05 10:46:00,
2013-02-05 10:47:00,49.1,30.8,29.14,WNW,292,0.0,0.0,49,0.00,,,0.06,VWS V14.01,2013-02-05 10:47:00,
2013-02-05 10:48:00,49.1,30.8,29.14,WNW,292,0.0,0.0,49,0.00,,,0.06,VWS V14.01,2013-02-05 10:48:00,
2013-02-05 10:49:00,48.7,30.4,29.14,WNW,292,0.0,0.0,49,0.00,,,0.06,VWS V14.01,2013-02-05 10:49:00,
2013-02-05 10:50:00,48.4,29.6,29.14,North,0,0.0,0.0,48,0.00,,,0.06,VWS V14.01,2013-02-05 10:50:00,
2013-02-05 10:51:00,53.2,35.1,29.16,WSW,247,0.0,0.0,50,0.00,,,0.06,VWS V14.01,2013-02-05 10:51:00,
2013-02-05 10:52:00,48.0,29.8,29.14,NNW,337,0.0,0.0,49,0.00,,,0.06,VWS V14.01,2013-02-05 10:52:00,
2013-02-05 10:53:00,47.8,29.6,29.14,WNW,292,0.0,0.0,49,0.00,,,0.06,VWS V14.01,2013-02-05 10:53:00,
2013-02-05 10:54:00,47.8,29.6,29.14,WNW,292,0.0,0.0,49,0.00,,,0.06,VWS V14.01,2013-02-05 10:54:00,
2013-02-05 10:55:00,47.8,29.6,29.13,WSW,247,0.0,0.0,49,0.00,,,0.06,VWS V14.01,2013-02-05 10:55:00,
2013-02-05 10:56:00,47.8,29.6,29.14,NW,315,0.0,0.0,49,0.00,,,0.06,VWS V14.01,2013-02-05 10:56:00,
2013-02-05 10:57:00,54.0,35.3,29.16,WNW,292,0.0,0.0,49,0.00,,,0.06,VWS V14.01,2013-02-05 10:57:00,
2013-02-05 10:58:00,47.8,29.6,29.14,WNW,292,0.0,0.0,49,0.00,,,0.06,VWS V14.01,2013-02-05 10:58:00,
2013-02-05 10:59:00,47.8,30.1,29.14,NW,315,0.0,0.0,50,0.00,,,0.06,VWS V14.01,2013-02-05 10:59:00,
2013-02-05 11:00:00,47.8,30.1,29.14,NNW,337,0.0,0.0,50,0.00,,,0.06,VWS V14.01,2013-02-05 11:00:00,
2013-02-05 11:01:00,47.7,30.0,29.14,NW,315,0.0,0.0,50,0.00,,,0.06,VWS V14.01,2013-02-05 11:01:00,
2013-02-05 11:02:00,52.5,33.4,29.16,NNW,337,0.0,0.0,48,0.00,,,0.06,VWS V14.01,2013-02-05 11:02:00,
2013-02-05 11:03:00,47.5,29.8,29.13,NNE,22,0.0,0.0,50,0.00,,,0.06,VWS V14.01,2013-02-05 11:03:00,
2013-02-05 11:04:00,47.5,29.8,29.14,NNW,337,0.0,0.0,50,0.00,,,0.06,VWS V14.01,2013-02-05 11:04:00,
2013-02-05 11:05:00,47.5,29.8,29.14,WNW,292,0.0,0.0,50,0.00,,,0.06,VWS V14.01,2013-02-05 11:05:00,
2013-02-05 11:06:00,47.5,29.8,29.14,WNW,292,0.0,0.0,50,0.00,,,0.06,VWS V14.01,2013-02-05 11:06:00,
2013-02-05 11:07:00,52.3,33.7,29.15,NNW,337,0.0,0.0,49,0.00,,,0.06,VWS V14.01,2013-02-05 11:07:00,
2013-02-05 11:08:00,47.5,29.8,29.14,NNW,337,0.0,0.0,50,0.00,,,0.06,VWS V14.01,2013-02-05 11:08:00,
2013-02-05 11:09:00,47.5,29.8,29.14,NNW,337,0.0,0.0,50,0.00,,,0.06,VWS V14.01,2013-02-05 11:09:00,
2013-02-05 11:10:00,47.5,29.8,29.14,NNW,337,0.0,0.0,50,0.00,,,0.06,VWS V14.01,2013-02-05 11:10:00,
2013-02-05 11:11:00,47.5,29.8,29.14,West,270,0.0,0.0,50,0.00,,,0.06,VWS V14.01,2013-02-05 11:11:00,
2013-02-05 11:12:00,47.5,29.8,29.14,NNW,337,0.0,0.0,50,0.00,,,0.06,VWS V14.01,2013-02-05 11:12:00,
2013-02-05 11:13:00,52.5,33.9,29.15,NNW,337,0.0,0.0,49,0.00,,,0.06,VWS V14.01,2013-02-05 11:13:00,
2013-02-05 11:14:00,47.7,30.5,29.14,WNW,292,0.0,0.0,51,0.00,,,0.06,VWS V14.01,2013-02-05 11:14:00,
2013-02-05 11:15:00,47.7,30.0,29.14,WNW,292,0.0,0.0,50,0.00,,,0.06,VWS V14.01,2013-02-05 11:15:00,
2013-02-05 11:16:00,47.7,30.0,29.14,NW,315,0.0,0.0,50,0.00,,,0.06,VWS V14.01,2013-02-05 11:16:00,
2013-02-05 11:17:00,47.5,30.3,29.14,NW,315,0.0,0.0,51,0.00,,,0.06,VWS V14.01,2013-02-05 11:17:00,
2013-02-05 11:18:00,47.5,30.3,29.14,NW,315,0.0,0.0,51,0.00,,,0.06,VWS V14.01,2013-02-05 11:18:00,
2013-02-05 11:19:00,52.9,33.8,29.15,WNW,292,0.0,0.0,48,0.00,,,0.06,VWS V14.01,2013-02-05 11:19:00,
2013-02-05 11:20:00,47.7,30.5,29.13,WSW,247,0.0,0.0,51,0.00,,,0.06,VWS V14.01,2013-02-05 11:20:00,
2013-02-05 11:21:00,47.7,30.5,29.13,NNW,337,0.0,0.0,51,0.00,,,0.06,VWS V14.01,2013-02-05 11:21:00,
2013-02-05 11:22:00,47.7,30.5,29.13,WNW,292,0.0,0.0,51,0.00,,,0.06,VWS V14.01,2013-02-05 11:22:00,
2013-02-05 11:23:00,47.5,30.3,29.13,NNW,337,0.0,0.0,51,0.00,,,0.06,VWS V14.01,2013-02-05 11:23:00,
2013-02-05 11:24:00,52.5,33.4,29.15,NNW,337,0.0,0.0,48,0.00,,,0.06,VWS V14.01,2013-02-05 11:24:00,
2013-02-05 11:25:00,47.3,30.1,29.13,WSW,247,0.0,0.0,51,0.00,,,0.06,VWS V14.01,2013-02-05 11:25:00,
2013-02-05 11:26:00,46.9,29.7,29.13,WNW,292,0.0,0.0,51,0.00,,,0.06,VWS V14.01,2013-02-05 11:26:00,
2013-02-05 11:27:00,46.8,29.2,29.13,WNW,292,0.0,0.0,50,0.00,,,0.06,VWS V14.01,2013-02-05 11:27:00,
2013-02-05 11:28:00,46.6,29.5,29.13,WNW,292,0.0,0.0,51,0.00,,,0.06,VWS V14.01,2013-02-05 11:28:00,
2013-02-05 11:29:00,46.2,29.1,29.13,NNW,337,0.0,0.0,51,0.00,,,0.06,VWS V14.01,2013-02-05 11:29:00,
2013-02-05 11:30:00,52.3,33.2,29.14,NW,315,0.0,0.0,48,0.00,,,0.06,VWS V14.01,2013-02-05 11:30:00,
2013-02-05 11:31:00,46.0,29.4,29.13,NW,315,0.0,0.0,52,0.00,,,0.06,VWS V14.01,2013-02-05 11:31:00,
2013-02-05 11:32:00,46.0,29.4,29.13,NW,315,0.0,0.0,52,0.00,,,0.06,VWS V14.01,2013-02-05 11:32:00,
2013-02-05 11:33:00,46.0,29.4,29.13,North,0,0.0,0.0,52,0.00,,,0.06,VWS V14.01,2013-02-05 11:33:00,
2013-02-05 11:34:00,46.0,29.4,29.13,WNW,292,0.0,0.0,52,0.00,,,0.06,VWS V14.01,2013-02-05 11:34:00,
2013-02-05 11:35:00,52.7,33.0,29.14,WSW,247,0.0,0.0,47,0.00,,,0.06,VWS V14.01,2013-02-05 11:35:00,
2013-02-05 11:36:00,46.0,29.4,29.13,West,270,0.0,0.0,52,0.00,,,0.06,VWS V14.01,2013-02-05 11:36:00,
2013-02-05 11:37:00,46.0,29.4,29.13,NW,315,0.0,0.0,52,0.00,,,0.06,VWS V14.01,2013-02-05 11:37:00,
2013-02-05 11:38:00,46.0,29.4,29.13,NNW,337,0.0,0.0,52,0.00,,,0.06,VWS V14.01,2013-02-05 11:38:00,
2013-02-05 11:39:00,46.0,29.4,29.13,NNW,337,0.0,0.0,52,0.00,,,0.06,VWS V14.01,2013-02-05 11:39:00,
2013-02-05 11:40:00,46.0,28.9,29.13,WNW,292,0.0,0.0,51,0.00,,,0.06,VWS V14.01,2013-02-05 11:40:00,
2013-02-05 11:41:00,50.9,31.4,29.14,NW,315,0.0,0.0,47,0.00,,,0.06,VWS V14.01,2013-02-05 11:41:00,
2013-02-05 11:42:00,45.9,29.3,29.12,NNW,337,0.0,0.0,52,0.00,,,0.06,VWS V14.01,2013-02-05 11:42:00,
2013-02-05 11:43:00,45.7,29.1,29.13,NW,315,0.0,0.0,52,0.00,,,0.06,VWS V14.01,2013-02-05 11:43:00,
2013-02-05 11:44:00,45.7,29.1,29.12,North,0,0.0,0.0,52,0.00,,,0.06,VWS V14.01,2013-02-05 11:44:00,
2013-02-05 11:45:00,45.5,28.9,29.13,NNE,22,0.0,0.0,52,0.00,,,0.06,VWS V14.01,2013-02-05 11:45:00,
2013-02-05 11:46:00,49.3,31.0,29.14,NW,315,0.0,0.0,49,0.00,,,0.06,VWS V14.01,2013-02-05 11:46:00,
2013-02-05 11:47:00,45.3,28.7,29.12,West,270,0.0,0.0,52,0.00,,,0.06,VWS V14.01,2013-02-05 11:47:00,
2013-02-05 11:48:00,45.1,28.5,29.12,NW,315,0.0,0.0,52,0.00,,,0.06,VWS V14.01,2013-02-05 11:48:00,
2013-02-05 11:49:00,45.1,28.5,29.12,WNW,292,0.0,0.0,52,0.00,,,0.06,VWS V14.01,2013-02-05 11:49:00,
2013-02-05 11:50:00,45.1,28.5,29.12,West,270,0.0,0.0,52,0.00,,,0.06,VWS V14.01,2013-02-05 11:50:00,
2013-02-05 11:51:00,48.0,29.3,29.14,NW,315,0.0,0.0,48,0.00,,,0.06,VWS V14.01,2013-02-05 11:51:00,
2013-02-05 11:52:00,45.1,28.5,29.12,North,0,0.0,0.0,52,0.00,,,0.06,VWS V14.01,2013-02-05 11:52:00,
2013-02-05 11:53:00,45.1,28.5,29.13,WNW,292,0.0,0.0,52,0.00,,,0.06,VWS V14.01,2013-02-05 11:53:00,
2013-02-05 11:54:00,45.1,28.5,29.13,West,270,0.0,0.0,52,0.00,,,0.06,VWS V14.01,2013-02-05 11:54:00,
2013-02-05 11:55:00,45.1,28.5,29.13,North,0,0.0,0.0,52,0.00,,,0.06,VWS V14.01,2013-02-05 11:55:00,
2013-02-05 11:56:00,45.0,28.5,29.12,NW,315,0.0,0.0,52,0.00,,,0.06,VWS V14.01,2013-02-05 11:56:00,
2013-02-05 11:57:00,47.8,29.6,29.14,NNW,337,0.0,0.0,49,0.00,,,0.06,VWS V14.01,2013-02-05 11:57:00,
2013-02-05 11:58:00,45.0,28.5,29.12,West,270,0.0,0.0,52,0.00,,,0.06,VWS V14.01,2013-02-05 11:58:00,
2013-02-05 11:59:00,44.8,28.3,29.12,WNW,292,0.0,0.0,52,0.00,,,0.06,VWS V14.01,2013-02-05 11:59:00,
2013-02-05 12:00:00,44.6,28.1,29.12,WNW,292,0.0,0.0,52,0.00,,,0.06,VWS V14.01,2013-02-05 12:00:00,
2013-02-05 12:01:00,44.4,27.9,29.12,NNW,337,0.0,0.0,52,0.00,,,0.06,VWS V14.01,2013-02-05 12:01:00,
2013-02-05 12:02:00,44.4,27.9,29.12,NNW,337,0.0,0.0,52,0.00,,,0.06,VWS V14.01,2013-02-05 12:02:00,
2013-02-05 12:03:00,47.5,29.8,29.13,NNE,22,0.0,0.0,50,0.00,,,0.06,VWS V14.01,2013-02-05 12:03:00,
2013-02-05 12:04:00,44.2,27.7,29.13,SSW,202,0.0,0.0,52,0.00,,,0.06,VWS V14.01,2013-02-05 12:04:00,
2013-02-05 12:05:00,44.2,27.7,29.13,NW,315,0.0,0.0,52,0.00,,,0.06,VWS V14.01,2013-02-05 12:05:00,
2013-02-05 12:06:00,44.2,27.7,29.13,NNW,337,0.0,0.0,52,0.00,,,0.06,VWS V14.01,2013-02-05 12:06:00,
2013-02-05 12:07:00,44.2,28.2,29.13,WNW,292,0.0,0.0,53,0.00,,,0.06,VWS V14.01,2013-02-05 12:07:00,
2013-02-05 12:08:00,44.2,28.2,29.13,NNW,337,0.0,0.0,53,0.00,,,0.06,VWS V14.01,2013-02-05 12:08:00,
2013-02-05 12:09:00,47.5,29.8,29.14,NNW,337,0.0,0.0,50,0.00,,,0.06,VWS V14.01,2013-02-05 12:09:00,
2013-02-05 12:10:00,44.1,28.1,29.12,WNW,292,0.0,0.0,53,0.00,,,0.06,VWS V14.01,2013-02-05 12:10:00,
2013-02-05 12:11:00,44.1,28.1,29.12,WNW,292,0.0,0.0,53,0.00,,,0.06,VWS V14.01,2013-02-05 12:11:00,
2013-02-05 12:12:00,43.9,27.9,29.12,NW,315,0.0,0.0,53,0.00,,,0.06,VWS V14.01,2013-02-05 12:12:00,
2013-02-05 12:13:00,43.9,27.9,29.12,WNW,292,0.0,0.0,53,0.00,,,0.06,VWS V14.01,2013-02-05 12:13:00,
2013-02-05 12:14:00,47.7,30.5,29.14,WNW,292,0.0,0.0,51,0.00,,,0.06,VWS V14.01,2013-02-05 12:14:00,
2013-02-05 12:15:00,43.9,27.9,29.12,West,270,0.0,0.0,53,0.00,,,0.06,VWS V14.01,2013-02-05 12:15:00,
2013-02-05 12:16:00,43.7,27.7,29.12,West,270,0.0,0.0,53,0.00,,,0.06,VWS V14.01,2013-02-05 12:16:00,
2013-02-05 12:17:00,43.7,27.7,29.12,WNW,292,0.0,0.0,53,0.00,,,0.06,VWS V14.01,2013-02-05 12:17:00,
2013-02-05 12:18:00,43.7,27.7,29.12,WNW,292,0.0,0.0,53,0.00,,,0.06,VWS V14.01,2013-02-05 12:18:00,
2013-02-05 12:19:00,47.7,31.0,29.13,NNW,337,0.0,0.0,52,0.00,,,0.06,VWS V14.01,2013-02-05 12:19:00,
2013-02-05 12:20:00,43.5,27.5,29.12,NW,315,0.0,0.0,53,0.00,,,0.06,VWS V14.01,2013-02-05 12:20:00,
2013-02-05 12:21:00,43.5,27.5,29.12,WSW,247,0.0,0.0,53,0.00,,,0.06,VWS V14.01,2013-02-05 12:21:00,
2013-02-05 12:22:00,43.5,27.5,29.12,NW,315,0.0,0.0,53,0.00,,,0.06,VWS V14.01,2013-02-05 12:22:00,
2013-02-05 12:23:00,43.3,27.3,29.12,NW,315,0.0,0.0,53,0.00,,,0.06,VWS V14.01,2013-02-05 12:23:00,
2013-02-05 12:24:00,43.3,27.3,29.11,NW,315,0.0,0.0,53,0.00,,,0.06,VWS V14.01,2013-02-05 12:24:00,
2013-02-05 12:25:00,47.3,30.1,29.13,WSW,247,0.0,0.0,51,0.00,,,0.06,VWS V14.01,2013-02-05 12:25:00,
2013-02-05 12:26:00,43.3,27.3,29.11,NW,315,0.0,0.0,53,0.00,,,0.06,VWS V14.01,2013-02-05 12:26:00,
2013-02-05 12:27:00,43.2,27.7,29.12,WNW,292,0.0,0.0,54,0.00,,,0.06,VWS V14.01,2013-02-05 12:27:00,
2013-02-05 12:28:00,43.2,27.7,29.12,WNW,292,0.0,0.0,54,0.00,,,0.06,VWS V14.01,2013-02-05 12:28:00,
2013-02-05 12:29:00,43.2,27.7,29.11,NNW,337,0.0,0.0,54,0.00,,,0.06,VWS V14.01,2013-02-05 12:29:00,
2013-02-05 12:30:00,46.0,28.9,29.13,NW,315,0.0,0.0,51,0.00,,,0.06,VWS V14.01,2013-02-05 12:30:00,
2013-02-05 12:31:00,43.2,27.7,29.11,NNW,337,0.0,0.0,54,0.00,,,0.06,VWS V14.01,2013-02-05 12:31:00,
2013-02-05 12:32:00,43.3,27.8,29.11,WNW,292,0.0,0.0,54,0.00,,,0.06,VWS V14.01,2013-02-05 12:32:00,
2013-02-05 12:33:00,43.2,27.7,29.11,NW,315,0.0,0.0,54,0.00,,,0.06,VWS V14.01,2013-02-05 12:33:00,
2013-02-05 12:34:00,43.3,27.8,29.11,WNW,292,0.0,0.0,54,0.00,,,0.06,VWS V14.01,2013-02-05 12:34:00,
2013-02-05 12:35:00,43.3,27.8,29.11,WSW,247,0.0,0.0,54,0.00,,,0.06,VWS V14.01,2013-02-05 12:35:00,
2013-02-05 12:36:00,46.0,29.4,29.13,West,270,0.0,0.0,52,0.00,,,0.06,VWS V14.01,2013-02-05 12:36:00,
2013-02-05 12:37:00,43.3,27.3,29.11,NNW,337,0.0,0.0,53,0.00,,,0.06,VWS V14.01,2013-02-05 12:37:00,
2013-02-05 12:38:00,43.3,27.3,29.11,NNW,337,0.0,0.0,53,0.00,,,0.06,VWS V14.01,2013-02-05 12:38:00,
2013-02-05 12:39:00,43.3,27.3,29.11,WNW,292,0.0,0.0,53,0.00,,,0.06,VWS V14.01,2013-02-05 12:39:00,
2013-02-05 12:40:00,43.2,27.2,29.11,West,270,0.0,0.0,53,0.00,,,0.06,VWS V14.01,2013-02-05 12:40:00,
2013-02-05 12:41:00,43.0,27.1,29.11,NW,315,0.0,0.0,53,0.00,,,0.06,VWS V14.01,2013-02-05 12:41:00,
2013-02-05 12:42:00,45.9,29.3,29.12,NNW,337,0.0,0.0,52,0.00,,,0.06,VWS V14.01,2013-02-05 12:42:00,
2013-02-05 12:43:00,43.0,27.1,29.11,North,0,0.0,0.0,53,0.00,,,0.06,VWS V14.01,2013-02-05 12:43:00,
2013-02-05 12:44:00,43.0,27.1,29.11,North,0,0.0,0.0,53,0.00,,,0.06,VWS V14.01,2013-02-05 12:44:00,
2013-02-05 12:45:00,42.8,27.3,29.10,WNW,292,0.0,0.0,54,0.00,,,0.06,VWS V14.01,2013-02-05 12:45:00,
2013-02-05 12:46:00,43.0,27.5,29.10,WNW,292,0.0,0.0,54,0.00,,,0.06,VWS V14.01,2013-02-05 12:46:00,
2013-02-05 12:47:00,43.0,27.5,29.10,NW,315,0.0,0.0,54,0.00,,,0.06,VWS V14.01,2013-02-05 12:47:00,
2013-02-05 12:48:00,45.1,28.5,29.12,NW,315,0.0,0.0,52,0.00,,,0.06,VWS V14.01,2013-02-05 12:48:00,
2013-02-05 12:49:00,42.6,27.1,29.10,WNW,292,0.0,0.0,54,0.00,,,0.06,VWS V14.01,2013-02-05 12:49:00,
2013-02-05 12:50:00,42.8,27.3,29.10,NNW,337,0.0,0.0,54,0.00,,,0.06,VWS V14.01,2013-02-05 12:50:00,
2013-02-05 12:51:00,43.0,27.5,29.10,NW,315,0.0,0.0,54,0.00,,,0.06,VWS V14.01,2013-02-05 12:51:00,
2013-02-05 12:52:00,43.0,27.5,29.10,NW,315,0.0,0.0,54,0.00,,,0.06,VWS V14.01,2013-02-05 12:52:00,
2013-02-05 12:53:00,45.1,28.5,29.13,WNW,292,0.0,0.0,52,0.00,,,0.06,VWS V14.01,2013-02-05 12:53:00,
2013-02-05 12:54:00,43.0,27.5,29.10,WSW,247,0.0,0.0,54,0.00,,,0.06,VWS V14.01,2013-02-05 12:54:00,
2013-02-05 12:55:00,43.2,27.7,29.10,NW,315,0.0,0.0,54,0.00,,,0.06,VWS V14.01,2013-02-05 12:55:00,
2013-02-05 12:56:00,43.0,27.5,29.10,NNW,337,0.0,0.0,54,0.00,,,0.06,VWS V14.01,2013-02-05 12:56:00,
2013-02-05 12:57:00,43.2,27.7,29.10,WNW,292,0.0,0.0,54,0.00,,,0.06,VWS V14.01,2013-02-05 12:57:00,
2013-02-05 12:58:00,43.2,27.7,29.10,NW,315,0.0,0.0,54,0.00,,,0.06,VWS V14.01,2013-02-05 12:58:00,
2013-02-05 12:59:00,44.8,28.3,29.12,WNW,292,0.0,0.0,52,0.00,,,0.06,VWS V14.01,2013-02-05 12:59:00,
2013-02-05 13:00:00,43.3,27.8,29.10,WNW,292,0.0,0.0,54,0.00,,,0.06,VWS V14.01,2013-02-05 13:00:00,
2013-02-05 13:01:00,43.3,27.8,29.10,WSW,247,0.0,0.0,54,0.00,,,0.06,VWS V14.01,2013-02-05 13:01:00,
2013-02-05 13:02:00,43.3,27.8,29.10,NNW,337,0.0,0.0,54,0.00,,,0.06,VWS V14.01,2013-02-05 13:02:00,
2013-02-05 13:03:00,43.5,28.0,29.10,NNW,337,0.0,0.0,54,0.00,,,0.06,VWS V14.01,2013-02-05 13:03:00,
2013-02-05 13:04:00,43.5,28.0,29.09,NW,315,0.0,0.0,54,0.00,,,0.06,VWS V14.01,2013-02-05 13:04:00,
2013-02-05 13:05:00,44.2,27.7,29.13,NW,315,0.0,0.0,52,0.00,,,0.06,VWS V14.01,2013-02-05 13:05:00,
2013-02-05 13:06:00,43.9,28.8,29.09,SW,225,0.0,0.0,55,0.00,,,0.06,VWS V14.01,2013-02-05 13:06:00,
2013-02-05 13:07:00,43.9,28.8,29.09,WNW,292,0.0,0.0,55,0.00,,,0.06,VWS V14.01,2013-02-05 13:07:00,
2013-02-05 13:08:00,44.1,29.0,29.09,WNW,292,0.0,0.0,55,0.00,,,0.06,VWS V14.01,2013-02-05 13:08:00,
2013-02-05 13:09:00,44.2,28.6,29.09,West,270,0.0,0.0,54,0.00,,,0.06,VWS V14.01,2013-02-05 13:09:00,
2013-02-05 13:10:00,44.1,28.1,29.12,WNW,292,0.0,0.0,53,0.00,,,0.06,VWS V14.01,2013-02-05 13:10:00,
2013-02-05 13:11:00,44.4,28.8,29.09,NNW,337,0.0,0.0,54,0.00,,,0.06,VWS V14.01,2013-02-05 13:11:00,
2013-02-05 13:12:00,44.4,28.4,29.09,South,180,0.0,0.0,53,0.00,,,0.06,VWS V14.01,2013-02-05 13:12:00,
2013-02-05 13:13:00,44.4,28.4,29.09,NNE,22,0.0,0.0,53,0.00,,,0.06,VWS V14.01,2013-02-05 13:13:00,
2013-02-05 13:14:00,44.4,28.4,29.08,SSE,157,0.0,0.0,53,0.00,,,0.06,VWS V14.01,2013-02-05 13:14:00,
2013-02-05 13:15:00,43.9,27.9,29.12,West,270,0.0,0.0,53,0.00,,,0.06,VWS V14.01,2013-02-05 13:15:00,
2013-02-05 13:16:00,44.4,28.4,29.08,NNW,337,0.0,0.0,53,0.00,,,0.06,VWS V14.01,2013-02-05 13:16:00,
2013-02-05 13:17:00,44.4,28.4,29.08,WNW,292,0.0,0.0,53,0.00,,,0.06,VWS V14.01,2013-02-05 13:17:00,
2013-02-05 13:18:00,44.4,28.4,29.08,West,270,0.0,0.0,53,0.00,,,0.06,VWS V14.01,2013-02-05 13:18:00,
2013-02-05 13:19:00,44.2,28.2,29.08,NNW,337,0.0,0.0,53,0.00,,,0.06,VWS V14.01,2013-02-05 13:19:00,
2013-02-05 13:20:00,44.2,28.2,29.08,West,270,0.0,0.0,53,0.00,,,0.06,VWS V14.01,2013-02-05 13:20:00,
2013-02-05 13:21:00,43.5,27.5,29.12,WSW,247,0.0,0.0,53,0.00,,,0.06,VWS V14.01,2013-02-05 13:21:00,
2013-02-05 13:22:00,44.1,28.1,29.08,WNW,292,0.0,0.0,53,0.00,,,0.06,VWS V14.01,2013-02-05 13:22:00,
2013-02-05 13:23:00,43.9,27.9,29.08,West,270,0.0,0.0,53,0.00,,,0.06,VWS V14.01,2013-02-05 13:23:00,
2013-02-05 13:24:00,43.9,27.9,29.08,NW,315,0.0,0.0,53,0.00,,,0.06,VWS V14.01,2013-02-05 13:24:00,
2013-02-05 13:25:00,43.9,27.9,29.08,NW,315,0.0,0.0,53,0.00,,,0.06,VWS V14.01,2013-02-05 13:25:00,
2013-02-05 13:26:00,43.7,27.7,29.09,West,270,0.0,0.0,53,0.00,,,0.06,VWS V14.01,2013-02-05 13:26:00,
2013-02-05 13:27:00,43.2,27.7,29.12,WNW,292,0.0,0.0,54,0.00,,,0.06,VWS V14.01,2013-02-05 13:27:00,
2013-02-05 13:28:00,43.5,27.5,29.08,NNW,337,0.0,0.0,53,0.00,,,0.06,VWS V14.01,2013-02-05 13:28:00,
2013-02-05 13:29:00,43.5,27.5,29.08,NNW,337,0.0,0.0,53,0.00,,,0.06,VWS V14.01,2013-02-05 13:29:00,
2013-02-05 13:30:00,43.5,28.0,29.08,NNW,337,0.0,0.0,54,0.00,,,0.06,VWS V14.01,2013-02-05 13:30:00,
2013-02-05 13:31:00,43.7,28.2,29.08,NW,315,0.0,0.0,54,0.00,,,0.06,VWS V14.01,2013-02-05 13:31:00,
2013-02-05 13:32:00,43.3,27.8,29.11,WNW,292,0.0,0.0,54,0.00,,,0.06,VWS V14.01,2013-02-05 13:32:00,
2013-02-05 13:33:00,43.7,28.2,29.08,West,270,0.0,0.0,54,0.00,,,0.06,VWS V14.01,2013-02-05 13:33:00,
2013-02-05 13:34:00,43.7,28.2,29.08,WNW,292,0.0,0.0,54,0.00,,,0.06,VWS V14.01,2013-02-05 13:34:00,
2013-02-05 13:35:00,43.9,28.4,29.08,West,270,0.0,0.0,54,0.00,,,0.06,VWS V14.01,2013-02-05 13:35:00,
2013-02-05 13:36:00,43.9,28.4,29.08,North,0,0.0,0.0,54,0.00,,,0.06,VWS V14.01,2013-02-05 13:36:00,
2013-02-05 13:37:00,43.9,28.4,29.08,WNW,292,0.0,0.0,54,0.00,,,0.06,VWS V14.01,2013-02-05 13:37:00,
2013-02-05 13:38:00,43.3,27.3,29.11,NNW,337,0.0,0.0,53,0.00,,,0.06,VWS V14.01,2013-02-05 13:38:00,
2013-02-05 13:39:00,44.2,28.6,29.08,WNW,292,0.0,0.0,54,0.00,,,0.06,VWS V14.01,2013-02-05 13:39:00,
2013-02-05 13:40:00,44.2,28.6,29.08,NW,315,0.0,0.0,54,0.00,,,0.06,VWS V14.01,2013-02-05 13:40:00,
2013-02-05 13:41:00,44.4,28.8,29.08,NW,315,0.0,0.0,54,0.00,,,0.06,VWS V14.01,2013-02-05 13:41:00,
2013-02-05 13:42:00,44.4,28.4,29.08,NW,315,0.0,0.0,53,0.00,,,0.06,VWS V14.01,2013-02-05 13:42:00,
2013-02-05 13:43:00,44.2,28.2,29.08,WSW,247,0.0,0.0,53,0.00,,,0.06,VWS V14.01,2013-02-05 13:43:00,
2013-02-05 13:44:00,43.0,27.0,29.11,North,0,0.0,0.0,53,0.00,,,0.06,VWS V14.01,2013-02-05 13:44:00,
2013-02-05 13:45:00,44.4,28.4,29.08,WNW,292,0.0,0.0,53,0.00,,,0.06,VWS V14.01,2013-02-05 13:45:00,
2013-02-05 13:46:00,44.4,28.4,29.08,West,270,0.0,0.0,53,0.00,,,0.06,VWS V14.01,2013-02-05 13:46:00,
2013-02-05 13:47:00,44.4,28.4,29.08,NNW,337,0.0,0.0,53,0.00,,,0.06,VWS V14.01,2013-02-05 13:47:00,
2013-02-05 13:48:00,44.4,28.4,29.08,North,0,0.0,0.0,53,0.00,,,0.06,VWS V14.01,2013-02-05 13:48:00,
2013-02-05 13:49:00,44.4,28.4,29.08,NNW,337,0.0,0.0,53,0.00,,,0.06,VWS V14.01,2013-02-05 13:49:00,
2013-02-05 13:50:00,42.8,27.3,29.10,NNW,337,0.0,0.0,54,0.00,,,0.06,VWS V14.01,2013-02-05 13:50:00,
2013-02-05 13:51:00,44.4,28.4,29.08,WNW,292,0.0,0.0,53,0.00,,,0.06,VWS V14.01,2013-02-05 13:51:00,
2013-02-05 13:52:00,44.4,28.4,29.08,WNW,292,0.0,0.0,53,0.00,,,0.06,VWS V14.01,2013-02-05 13:52:00,
2013-02-05 13:53:00,44.4,28.4,29.08,WNW,292,0.0,0.0,53,0.00,,,0.06,VWS V14.01,2013-02-05 13:53:00,
2013-02-05 13:54:00,44.4,28.4,29.08,WSW,247,0.0,0.0,53,0.00,,,0.06,VWS V14.01,2013-02-05 13:54:00,
2013-02-05 13:55:00,44.6,29.0,29.08,WSW,247,0.0,0.0,54,0.00,,,0.06,VWS V14.01,2013-02-05 13:55:00,
2013-02-05 13:56:00,43.0,27.5,29.10,NNW,337,0.0,0.0,54,0.00,,,0.06,VWS V14.01,2013-02-05 13:56:00,
2013-02-05 13:57:00,44.6,29.0,29.08,NW,315,0.0,0.0,54,0.00,,,0.06,VWS V14.01,2013-02-05 13:57:00,
2013-02-05 13:58:00,44.6,29.0,29.08,WNW,292,0.0,0.0,54,0.00,,,0.06,VWS V14.01,2013-02-05 13:58:00,
2013-02-05 13:59:00,44.6,29.0,29.08,NNW,337,0.0,0.0,54,0.00,,,0.06,VWS V14.01,2013-02-05 13:59:00,
2013-02-05 14:00:00,44.8,29.2,29.07,North,0,0.0,0.0,54,0.00,,,0.06,VWS V14.01,2013-02-05 14:00:00,
2013-02-05 14:01:00,43.3,27.8,29.10,WSW,247,0.0,0.0,54,0.00,,,0.06,VWS V14.01,2013-02-05 14:01:00,
2013-02-05 14:02:00,44.8,29.2,29.07,WNW,292,0.0,0.0,54,0.00,,,0.06,VWS V14.01,2013-02-05 14:02:00,
2013-02-05 14:03:00,44.8,29.2,29.07,NW,315,0.0,0.0,54,0.00,,,0.06,VWS V14.01,2013-02-05 14:03:00,
2013-02-05 14:04:00,45.0,29.4,29.07,NNW,337,0.0,0.0,54,0.00,,,0.06,VWS V14.01,2013-02-05 14:04:00,
2013-02-05 14:05:00,45.0,29.4,29.07,WNW,292,0.0,0.0,54,0.00,,,0.06,VWS V14.01,2013-02-05 14:05:00,
2013-02-05 14:06:00,44.8,28.7,29.07,NNW,337,0.0,0.0,53,0.00,,,0.06,VWS V14.01,2013-02-05 14:06:00,
2013-02-05 14:07:00,43.9,28.8,29.09,WNW,292,0.0,0.0,55,0.00,,,0.06,VWS V14.01,2013-02-05 14:07:00,
2013-02-05 14:08:00,44.8,28.7,29.07,North,0,0.0,0.0,53,0.00,,,0.06,VWS V14.01,2013-02-05 14:08:00,
2013-02-05 14:09:00,44.8,28.7,29.07,NNW,337,0.0,0.0,53,0.00,,,0.06,VWS V14.01,2013-02-05 14:09:00,
2013-02-05 14:10:00,44.8,28.7,29.06,WNW,292,0.0,0.0,53,0.00,,,0.06,VWS V14.01,2013-02-05 14:10:00,
2013-02-05 14:11:00,45.0,29.4,29.07,NW,315,0.0,0.0,54,0.00,,,0.06,VWS V14.01,2013-02-05 14:11:00,
2013-02-05 14:12:00,45.1,29.9,29.07,West,270,0.0,0.0,55,0.00,,,0.06,VWS V14.01,2013-02-05 14:12:00,
2013-02-05 14:13:00,44.4,28.4,29.09,NNE,22,0.0,0.0,53,0.00,,,0.06,VWS V14.01,2013-02-05 14:13:00,
2013-02-05 14:14:00,45.7,30.5,29.07,WNW,292,0.0,0.0,55,0.00,,,0.06,VWS V14.01,2013-02-05 14:14:00,
2013-02-05 14:15:00,45.7,30.5,29.07,North,0,0.0,0.0,55,0.00,,,0.06,VWS V14.01,2013-02-05 14:15:00,
2013-02-05 14:16:00,46.0,30.8,29.06,WNW,292,0.0,0.0,55,0.00,,,0.06,VWS V14.01,2013-02-05 14:16:00,
2013-02-05 14:17:00,46.2,30.5,29.06,West,270,0.0,0.0,54,0.00,,,0.06,VWS V14.01,2013-02-05 14:17:00,
2013-02-05 14:18:00,46.2,30.5,29.06,NW,315,0.0,0.0,54,0.00,,,0.06,VWS V14.01,2013-02-05 14:18:00,
2013-02-05 14:19:00,44.2,28.2,29.08,NNW,337,0.0,0.0,53,0.00,,,0.06,VWS V14.01,2013-02-05 14:19:00,
2013-02-05 14:20:00,46.6,30.9,29.06,WNW,292,0.0,0.0,54,0.00,,,0.06,VWS V14.01,2013-02-05 14:20:00,
2013-02-05 14:21:00,46.6,30.9,29.06,NW,315,0.0,0.0,54,0.00,,,0.06,VWS V14.01,2013-02-05 14:21:00,
2013-02-05 14:22:00,46.8,30.6,29.06,West,270,0.0,0.0,53,0.00,,,0.06,VWS V14.01,2013-02-05 14:22:00,
2013-02-05 14:23:00,46.8,30.6,29.06,WNW,292,0.0,0.0,53,0.00,,,0.06,VWS V14.01,2013-02-05 14:23:00,
2013-02-05 14:24:00,46.9,30.7,29.06,West,270,0.0,0.0,53,0.00,,,0.06,VWS V14.01,2013-02-05 14:24:00,
2013-02-05 14:25:00,43.9,27.9,29.08,NW,315,0.0,0.0,53,0.00,,,0.06,VWS V14.01,2013-02-05 14:25:00,
2013-02-05 14:26:00,46.9,30.7,29.06,NNW,337,0.0,0.0,53,0.00,,,0.06,VWS V14.01,2013-02-05 14:26:00,
2013-02-05 14:27:00,46.9,30.7,29.05,NNE,22,0.0,0.0,53,0.00,,,0.06,VWS V14.01,2013-02-05 14:27:00,
2013-02-05 14:28:00,47.1,30.9,29.05,WNW,292,0.0,0.0,53,0.00,,,0.06,VWS V14.01,2013-02-05 14:28:00,
2013-02-05 14:29:00,47.1,30.9,29.05,WNW,292,0.0,0.0,53,0.00,,,0.06,VWS V14.01,2013-02-05 14:29:00,
2013-02-05 14:30:00,43.5,28.0,29.08,NNW,337,0.0,0.0,54,0.00,,,0.06,VWS V14.01,2013-02-05 14:30:00,
2013-02-05 14:31:00,47.1,30.4,29.05,West,270,0.0,0.0,52,0.00,,,0.06,VWS V14.01,2013-02-05 14:31:00,
2013-02-05 14:32:00,47.1,30.4,29.05,SW,225,0.0,0.0,52,0.00,,,0.06,VWS V14.01,2013-02-05 14:32:00,
2013-02-05 14:33:00,47.3,31.0,29.05,WNW,292,0.0,0.0,53,0.00,,,0.06,VWS V14.01,2013-02-05 14:33:00,
2013-02-05 14:34:00,47.3,31.0,29.05,West,270,0.0,0.0,53,0.00,,,0.06,VWS V14.01,2013-02-05 14:34:00,
2013-02-05 14:35:00,47.1,30.4,29.05,West,270,0.0,0.0,52,0.00,,,0.06,VWS V14.01,2013-02-05 14:35:00,
2013-02-05 14:36:00,43.9,28.4,29.08,North,0,0.0,0.0,54,0.00,,,0.06,VWS V14.01,2013-02-05 14:36:00,
2013-02-05 14:37:00,47.3,31.0,29.05,NW,315,0.0,0.0,53,0.00,,,0.06,VWS V14.01,2013-02-05 14:37:00,
2013-02-05 14:38:00,47.3,31.0,29.05,WNW,292,0.0,0.0,53,0.00,,,0.06,VWS V14.01,2013-02-05 14:38:00,
2013-02-05 14:39:00,47.5,31.2,29.05,WNW,292,0.0,0.0,53,0.00,,,0.06,VWS V14.01,2013-02-05 14:39:00,
2013-02-05 14:40:00,47.5,31.2,29.05,SW,225,0.0,0.0,53,0.00,,,0.06,VWS V14.01,2013-02-05 14:40:00,
2013-02-05 14:41:00,47.5,30.8,29.05,WNW,292,0.0,0.0,52,0.00,,,0.06,VWS V14.01,2013-02-05 14:41:00,
2013-02-05 14:42:00,44.4,28.4,29.08,NW,315,0.0,0.0,53,0.00,,,0.06,VWS V14.01,2013-02-05 14:42:00,
2013-02-05 14:43:00,47.5,30.8,29.05,NNW,337,0.0,0.0,52,0.00,,,0.06,VWS V14.01,2013-02-05 14:43:00,
2013-02-05 14:44:00,47.5,30.8,29.05,WSW,247,0.0,0.0,52,0.00,,,0.06,VWS V14.01,2013-02-05 14:44:00,
2013-02-05 14:45:00,47.5,30.8,29.05,West,270,0.0,0.0,52,0.00,,,0.06,VWS V14.01,2013-02-05 14:45:00,
2013-02-05 14:46:00,47.3,30.6,29.05,NNW,337,0.0,0.0,52,0.00,,,0.06,VWS V14.01,2013-02-05 14:46:00,
2013-02-05 14:47:00,47.3,30.1,29.05,North,0,0.0,0.0,51,0.00,,,0.06,VWS V14.01,2013-02-05 14:47:00,
2013-02-05 14:48:00,44.4,28.4,29.08,North,0,0.0,0.0,53,0.00,,,0.06,VWS V14.01,2013-02-05 14:48:00,
2013-02-05 14:49:00,47.1,29.9,29.05,WNW,292,0.0,0.0,51,0.00,,,0.06,VWS V14.01,2013-02-05 14:49:00,
2013-02-05 14:50:00,46.9,29.2,29.05,NNW,337,0.0,0.0,50,0.00,,,0.06,VWS V14.01,2013-02-05 14:50:00,
2013-02-05 14:51:00,46.8,29.6,29.05,NNW,337,0.0,0.0,51,0.00,,,0.06,VWS V14.01,2013-02-05 14:51:00,
2013-02-05 14:52:00,46.6,29.5,29.05,North,0,0.0,0.0,51,0.00,,,0.06,VWS V14.01,2013-02-05 14:52:00,
2013-02-05 14:53:00,44.4,28.4,29.08,WNW,292,0.0,0.0,53,0.00,,,0.06,VWS V14.01,2013-02-05 14:53:00,
2013-02-05 14:54:00,46.2,29.6,29.05,NNW,337,0.0,0.0,52,0.00,,,0.06,VWS V14.01,2013-02-05 14:54:00,
2013-02-05 14:55:00,46.6,29.9,29.05,North,0,0.0,0.0,52,0.00,,,0.06,VWS V14.01,2013-02-05 14:55:00,
2013-02-05 14:56:00,46.2,29.6,29.05,WNW,292,0.0,0.0,52,0.00,,,0.06,VWS V14.01,2013-02-05 14:56:00,
2013-02-05 14:57:00,46.2,29.6,29.05,West,270,0.0,0.0,52,0.00,,,0.06,VWS V14.01,2013-02-05 14:57:00,
2013-02-05 14:58:00,46.2,29.6,29.04,WNW,292,0.0,0.0,52,0.00,,,0.06,VWS V14.01,2013-02-05 14:58:00,
2013-02-05 14:59:00,44.6,29.0,29.08,NNW,337,0.0,0.0,54,0.00,,,0.06,VWS V14.01,2013-02-05 14:59:00,
2013-02-05 15:00:00,46.2,29.6,29.04,ESE,112,0.0,0.0,52,0.00,,,0.06,VWS V14.01,2013-02-05 15:00:00,
2013-02-05 15:01:00,46.2,29.6,29.04,NW,315,0.0,0.0,52,0.00,,,0.06,VWS V14.01,2013-02-05 15:01:00,
2013-02-05 15:02:00,46.2,29.6,29.04,NW,315,0.0,0.0,52,0.00,,,0.06,VWS V14.01,2013-02-05 15:02:00,
2013-02-05 15:03:00,46.0,29.4,29.04,WNW,292,0.0,0.0,52,0.00,,,0.06,VWS V14.01,2013-02-05 15:03:00,
2013-02-05 15:04:00,46.0,29.4,29.04,WNW,292,0.0,0.0,52,0.00,,,0.06,VWS V14.01,2013-02-05 15:04:00,
2013-02-05 15:05:00,45.0,29.4,29.07,WNW,292,0.0,0.0,54,0.00,,,0.06,VWS V14.01,2013-02-05 15:05:00,
2013-02-05 15:06:00,45.7,29.1,29.04,North,0,0.0,0.0,52,0.00,,,0.06,VWS V14.01,2013-02-05 15:06:00,
2013-02-05 15:07:00,45.7,29.1,29.04,West,270,0.0,0.0,52,0.00,,,0.06,VWS V14.01,2013-02-05 15:07:00,
2013-02-05 15:08:00,45.7,29.1,29.04,WSW,247,0.0,0.0,52,0.00,,,0.06,VWS V14.01,2013-02-05 15:08:00,
2013-02-05 15:09:00,45.7,29.1,29.03,ESE,112,0.0,0.0,52,0.00,,,0.06,VWS V14.01,2013-02-05 15:09:00,
2013-02-05 15:10:00,45.7,29.1,29.03,NW,315,0.0,0.0,52,0.00,,,0.06,VWS V14.01,2013-02-05 15:10:00,
2013-02-05 15:11:00,45.0,29.4,29.07,NW,315,0.0,0.0,54,0.00,,,0.06,VWS V14.01,2013-02-05 15:11:00,
2013-02-05 15:12:00,45.7,29.1,29.04,West,270,0.0,0.0,52,0.00,,,0.06,VWS V14.01,2013-02-05 15:12:00,
2013-02-05 15:13:00,45.7,29.6,29.04,NW,315,0.0,0.0,53,0.00,,,0.06,VWS V14.01,2013-02-05 15:13:00,
2013-02-05 15:14:00,45.7,29.6,29.04,WNW,292,0.0,0.0,53,0.00,,,0.06,VWS V14.01,2013-02-05 15:14:00,
2013-02-05 15:15:00,45.7,29.1,29.03,WNW,292,0.0,0.0,52,0.00,,,0.06,VWS V14.01,2013-02-05 15:15:00,
2013-02-05 15:16:00,46.0,30.8,29.06,WNW,292,0.0,0.0,55,0.00,,,0.06,VWS V14.01,2013-02-05 15:16:00,
2013-02-05 15:17:00,45.7,29.6,29.04,West,270,0.0,0.0,53,0.00,,,0.06,VWS V14.01,2013-02-05 15:17:00,
2013-02-05 15:18:00,45.5,29.4,29.03,WNW,292,0.0,0.0,53,0.00,,,0.06,VWS V14.01,2013-02-05 15:18:00,
2013-02-05 15:19:00,45.3,29.2,29.03,SSW,202,0.0,0.0,53,0.00,,,0.06,VWS V14.01,2013-02-05 15:19:00,
2013-02-05 15:20:00,45.3,29.2,29.03,WSW,247,0.0,0.0,53,0.00,,,0.06,VWS V14.01,2013-02-05 15:20:00,
2013-02-05 15:21:00,45.3,29.2,29.04,WNW,292,0.0,0.0,53,0.00,,,0.06,VWS V14.01,2013-02-05 15:21:00,
2013-02-05 15:22:00,46.8,30.6,29.06,West,270,0.0,0.0,53,0.00,,,0.06,VWS V14.01,2013-02-05 15:22:00,
2013-02-05 15:23:00,45.1,29.0,29.03,WNW,292,0.0,0.0,53,0.00,,,0.06,VWS V14.01,2013-02-05 15:23:00,
2013-02-05 15:24:00,45.1,29.0,29.03,WNW,292,0.0,0.0,53,0.00,,,0.06,VWS V14.01,2013-02-05 15:24:00,
2013-02-05 15:25:00,45.1,29.5,29.03,WNW,292,0.0,0.0,54,0.00,,,0.06,VWS V14.01,2013-02-05 15:25:00,
2013-02-05 15:26:00,45.1,29.5,29.03,West,270,0.0,0.0,54,0.00,,,0.06,VWS V14.01,2013-02-05 15:26:00,
2013-02-05 15:27:00,46.9,30.7,29.05,NNE,22,0.0,0.0,53,0.00,,,0.06,VWS V14.01,2013-02-05 15:27:00,
2013-02-05 15:28:00,45.0,29.4,29.03,WSW,247,0.0,0.0,54,0.00,,,0.06,VWS V14.01,2013-02-05 15:28:00,
2013-02-05 15:29:00,45.0,29.4,29.03,West,270,0.0,0.0,54,0.00,,,0.06,VWS V14.01,2013-02-05 15:29:00,
2013-02-05 15:30:00,45.0,29.4,29.03,West,270,0.0,0.0,54,0.00,,,0.06,VWS V14.01,2013-02-05 15:30:00,
2013-02-05 15:31:00,45.0,29.4,29.03,West,270,0.0,0.0,54,0.00,,,0.06,VWS V14.01,2013-02-05 15:31:00,
2013-02-05 15:32:00,47.1,30.4,29.05,SW,225,0.0,0.0,52,0.00,,,0.06,VWS V14.01,2013-02-05 15:32:00,
2013-02-05 15:33:00,44.8,29.2,29.03,West,270,0.0,0.0,54,0.00,,,0.06,VWS V14.01,2013-02-05 15:33:00,
2013-02-05 15:34:00,45.0,29.4,29.03,WSW,247,0.0,0.0,54,0.00,,,0.06,VWS V14.01,2013-02-05 15:34:00,
2013-02-05 15:35:00,44.8,29.2,29.03,South,180,0.0,0.0,54,0.00,,,0.06,VWS V14.01,2013-02-05 15:35:00,
2013-02-05 15:36:00,44.8,29.2,29.03,West,270,0.0,0.0,54,0.00,,,0.06,VWS V14.01,2013-02-05 15:36:00,
2013-02-05 15:37:00,44.6,29.0,29.03,WNW,292,0.0,0.0,54,0.00,,,0.06,VWS V14.01,2013-02-05 15:37:00,
2013-02-05 15:38:00,47.3,31.0,29.05,WNW,292,0.0,0.0,53,0.00,,,0.06,VWS V14.01,2013-02-05 15:38:00,
2013-02-05 15:39:00,44.4,28.8,29.03,NW,315,0.0,0.0,54,0.00,,,0.06,VWS V14.01,2013-02-05 15:39:00,
2013-02-05 15:40:00,44.4,28.8,29.04,SW,225,0.0,0.0,54,0.00,,,0.06,VWS V14.01,2013-02-05 15:40:00,
2013-02-05 15:41:00,44.4,28.8,29.03,WNW,292,0.0,0.0,54,0.00,,,0.06,VWS V14.01,2013-02-05 15:41:00,
2013-02-05 15:42:00,44.4,28.8,29.03,NW,315,0.0,0.0,54,0.00,,,0.06,VWS V14.01,2013-02-05 15:42:00,
2013-02-05 15:43:00,44.2,29.1,29.04,West,270,0.0,0.0,55,0.00,,,0.06,VWS V14.01,2013-02-05 15:43:00,
2013-02-05 15:44:00,47.5,30.8,29.05,WSW,247,0.0,0.0,52,0.00,,,0.06,VWS V14.01,2013-02-05 15:44:00,
2013-02-05 15:45:00,44.2,29.1,29.04,NW,315,0.0,0.0,55,0.00,,,0.06,VWS V14.01,2013-02-05 15:45:00,
2013-02-05 15:46:00,44.4,29.3,29.04,WNW,292,0.0,0.0,55,0.00,,,0.06,VWS V14.01,2013-02-05 15:46:00,
2013-02-05 15:47:00,44.4,29.3,29.04,NW,315,0.0,0.0,55,0.00,,,0.06,VWS V14.01,2013-02-05 15:47:00,
2013-02-05 15:48:00,44.4,29.3,29.04,NE,45,0.0,0.0,55,0.00,,,0.06,VWS V14.01,2013-02-05 15:48:00,
2013-02-05 15:49:00,44.4,29.3,29.03,WNW,292,0.0,0.0,55,0.00,,,0.06,VWS V14.01,2013-02-05 15:49:00,
2013-02-05 15:50:00,46.9,29.2,29.05,NNW,337,0.0,0.0,50,0.00,,,0.06,VWS V14.01,2013-02-05 15:50:00,
2013-02-05 15:51:00,44.4,29.3,29.03,West,270,0.0,0.0,55,0.00,,,0.06,VWS V14.01,2013-02-05 15:51:00,
2013-02-05 15:52:00,44.4,29.3,29.03,West,270,0.0,0.0,55,0.00,,,0.06,VWS V14.01,2013-02-05 15:52:00,
2013-02-05 15:53:00,44.4,29.3,29.03,West,270,0.0,0.0,55,0.00,,,0.06,VWS V14.01,2013-02-05 15:53:00,
2013-02-05 15:54:00,44.4,29.3,29.03,WNW,292,0.0,0.0,55,0.00,,,0.06,VWS V14.01,2013-02-05 15:54:00,
2013-02-05 15:55:00,44.4,29.3,29.03,NE,45,0.0,0.0,55,0.00,,,0.06,VWS V14.01,2013-02-05 15:55:00,
2013-02-05 15:56:00,46.2,29.6,29.05,WNW,292,0.0,0.0,52,0.00,,,0.06,VWS V14.01,2013-02-05 15:56:00,
2013-02-05 15:57:00,44.4,29.7,29.03,WNW,292,0.0,0.0,56,0.00,,,0.06,VWS V14.01,2013-02-05 15:57:00,
2013-02-05 15:58:00,44.4,29.7,29.03,West,270,0.0,0.0,56,0.00,,,0.06,VWS V14.01,2013-02-05 15:58:00,
2013-02-05 15:59:00,44.4,29.7,29.03,NW,315,0.0,0.0,56,0.00,,,0.06,VWS V14.01,2013-02-05 15:59:00,
2013-02-05 16:00:00,44.4,29.7,29.03,WSW,247,0.0,0.0,56,0.00,,,0.06,VWS V14.01,2013-02-05 16:00:00,
2013-02-05 16:01:00,46.2,29.6,29.04,NW,315,0.0,0.0,52,0.00,,,0.06,VWS V14.01,2013-02-05 16:01:00,
2013-02-05 16:02:00,44.4,29.7,29.03,WNW,292,0.0,0.0,56,0.00,,,0.06,VWS V14.01,2013-02-05 16:02:00,
2013-02-05 16:03:00,44.4,29.3,29.03,WNW,292,0.0,0.0,55,0.00,,,0.06,VWS V14.01,2013-02-05 16:03:00,
2013-02-05 16:04:00,44.4,29.3,29.03,NNE,22,0.0,0.0,55,0.00,,,0.06,VWS V14.01,2013-02-05 16:04:00,
2013-02-05 16:05:00,44.4,29.7,29.03,WNW,292,0.0,0.0,56,0.00,,,0.06,VWS V14.01,2013-02-05 16:05:00,
2013-02-05 16:06:00,44.2,29.5,29.02,WNW,292,0.0,0.0,56,0.00,,,0.06,VWS V14.01,2013-02-05 16:06:00,
2013-02-05 16:07:00,45.7,29.1,29.04,West,270,0.0,0.0,52,0.00,,,0.06,VWS V14.01,2013-02-05 16:07:00,
2013-02-05 16:08:00,44.2,29.5,29.02,West,270,0.0,0.0,56,0.00,,,0.06,VWS V14.01,2013-02-05 16:08:00,
2013-02-05 16:09:00,44.2,30.0,29.02,WNW,292,0.0,0.0,57,0.00,,,0.06,VWS V14.01,2013-02-05 16:09:00,
2013-02-05 16:10:00,44.2,30.0,29.02,NNW,337,0.0,0.0,57,0.00,,,0.06,VWS V14.01,2013-02-05 16:10:00,
2013-02-05 16:11:00,44.2,30.0,29.02,WNW,292,0.0,0.0,57,0.00,,,0.06,VWS V14.01,2013-02-05 16:11:00,
2013-02-05 16:12:00,45.7,29.1,29.04,West,270,0.0,0.0,52,0.00,,,0.06,VWS V14.01,2013-02-05 16:12:00,
2013-02-05 16:13:00,44.2,30.0,29.02,West,270,0.0,0.0,57,0.00,,,0.06,VWS V14.01,2013-02-05 16:13:00,
2013-02-05 16:14:00,44.1,29.9,29.01,WNW,292,0.0,0.0,57,0.00,,,0.06,VWS V14.01,2013-02-05 16:14:00,
2013-02-05 16:15:00,44.1,29.9,29.01,SW,225,0.0,0.0,57,0.00,,,0.06,VWS V14.01,2013-02-05 16:15:00,
2013-02-05 16:16:00,44.1,29.9,29.01,NNE,22,0.0,0.0,57,0.00,,,0.06,VWS V14.01,2013-02-05 16:16:00,
2013-02-05 16:17:00,43.9,29.7,29.01,SSW,202,0.0,0.0,57,0.00,,,0.06,VWS V14.01,2013-02-05 16:17:00,
2013-02-05 16:18:00,45.5,29.4,29.03,WNW,292,0.0,0.0,53,0.00,,,0.06,VWS V14.01,2013-02-05 16:18:00,
2013-02-05 16:19:00,43.9,29.7,29.01,NW,315,0.0,0.0,57,0.00,,,0.06,VWS V14.01,2013-02-05 16:19:00,
2013-02-05 16:20:00,43.9,29.7,29.01,WNW,292,0.0,0.0,57,0.00,,,0.06,VWS V14.01,2013-02-05 16:20:00,
2013-02-05 16:21:00,43.9,29.7,29.01,WNW,292,0.0,0.0,57,0.00,,,0.06,VWS V14.01,2013-02-05 16:21:00,
2013-02-05 16:22:00,43.9,29.7,29.01,NNW,337,0.0,0.0,57,0.00,,,0.06,VWS V14.01,2013-02-05 16:22:00,
2013-02-05 16:23:00,43.9,29.7,29.00,NNE,22,0.0,0.0,57,0.00,,,0.06,VWS V14.01,2013-02-05 16:23:00,
2013-02-05 16:24:00,45.1,29.0,29.03,WNW,292,0.0,0.0,53,0.00,,,0.06,VWS V14.01,2013-02-05 16:24:00,
2013-02-05 16:25:00,43.9,29.7,29.00,WSW,247,0.0,0.0,57,0.00,,,0.06,VWS V14.01,2013-02-05 16:25:00,
2013-02-05 16:26:00,43.9,29.7,29.00,SW,225,0.0,0.0,57,0.00,,,0.06,VWS V14.01,2013-02-05 16:26:00,
2013-02-05 16:27:00,43.9,29.7,29.00,NW,315,0.0,0.0,57,0.00,,,0.06,VWS V14.01,2013-02-05 16:27:00,
2013-02-05 16:28:00,43.9,29.7,29.01,SW,225,0.0,0.0,57,0.00,,,0.06,VWS V14.01,2013-02-05 16:28:00,
2013-02-05 16:29:00,43.9,29.7,29.01,West,270,0.0,0.0,57,0.00,,,0.06,VWS V14.01,2013-02-05 16:29:00,
2013-02-05 16:30:00,45.0,29.4,29.03,West,270,0.0,0.0,54,0.00,,,0.06,VWS V14.01,2013-02-05 16:30:00,
2013-02-05 16:31:00,43.9,29.7,29.01,West,270,0.0,0.0,57,0.00,,,0.06,VWS V14.01,2013-02-05 16:31:00,
2013-02-05 16:32:00,43.7,29.5,29.01,West,270,0.0,0.0,57,0.00,,,0.06,VWS V14.01,2013-02-05 16:32:00,
2013-02-05 16:33:00,43.7,29.5,29.01,WNW,292,0.0,0.0,57,0.00,,,0.06,VWS V14.01,2013-02-05 16:33:00,
2013-02-05 16:34:00,43.7,29.5,29.01,West,270,0.0,0.0,57,0.00,,,0.06,VWS V14.01,2013-02-05 16:34:00,
2013-02-05 16:35:00,43.9,29.7,29.01,NW,315,0.0,0.0,57,0.00,,,0.06,VWS V14.01,2013-02-05 16:35:00,
2013-02-05 16:36:00,44.8,29.2,29.03,West,270,0.0,0.0,54,0.00,,,0.06,VWS V14.01,2013-02-05 16:36:00,
2013-02-05 16:37:00,43.9,29.7,29.00,NW,315,0.0,0.0,57,0.00,,,0.06,VWS V14.01,2013-02-05 16:37:00,
2013-02-05 16:38:00,43.9,29.7,29.01,WNW,292,0.0,0.0,57,0.00,,,0.06,VWS V14.01,2013-02-05 16:38:00,
2013-02-05 16:39:00,43.7,29.5,29.00,West,270,0.0,0.0,57,0.00,,,0.06,VWS V14.01,2013-02-05 16:39:00,
2013-02-05 16:40:00,43.7,29.5,29.00,WNW,292,0.0,0.0,57,0.00,,,0.06,VWS V14.01,2013-02-05 16:40:00,
2013-02-05 16:41:00,44.4,28.8,29.03,WNW,292,0.0,0.0,54,0.00,,,0.06,VWS V14.01,2013-02-05 16:41:00,
2013-02-05 16:42:00,43.7,29.9,29.00,WNW,292,0.0,0.0,58,0.00,,,0.06,VWS V14.01,2013-02-05 16:42:00,
2013-02-05 16:43:00,43.9,30.1,29.01,WNW,292,0.0,0.0,58,0.00,,,0.06,VWS V14.01,2013-02-05 16:43:00,
2013-02-05 16:44:00,43.9,30.1,29.01,West,270,0.0,0.0,58,0.00,,,0.06,VWS V14.01,2013-02-05 16:44:00,
2013-02-05 16:45:00,43.9,30.1,29.01,WNW,292,0.0,0.0,58,0.00,,,0.06,VWS V14.01,2013-02-05 16:45:00,
2013-02-05 16:46:00,43.9,30.1,29.01,NW,315,0.0,0.0,58,0.00,,,0.06,VWS V14.01,2013-02-05 16:46:00,
2013-02-05 16:47:00,44.4,29.3,29.04,NW,315,0.0,0.0,55,0.00,,,0.06,VWS V14.01,2013-02-05 16:47:00,
2013-02-05 16:48:00,43.9,30.1,29.01,WNW,292,0.0,0.0,58,0.00,,,0.06,VWS V14.01,2013-02-05 16:48:00,
2013-02-05 16:49:00,43.7,29.9,29.01,NNW,337,0.0,0.0,58,0.00,,,0.06,VWS V14.01,2013-02-05 16:49:00,
2013-02-05 16:50:00,43.7,29.9,29.00,NW,315,0.0,0.0,58,0.00,,,0.06,VWS V14.01,2013-02-05 16:50:00,
2013-02-05 16:51:00,43.5,29.7,29.00,West,270,0.0,0.0,58,0.00,,,0.06,VWS V14.01,2013-02-05 16:51:00,
2013-02-05 16:52:00,44.4,29.3,29.03,West,270,0.0,0.0,55,0.00,,,0.06,VWS V14.01,2013-02-05 16:52:00,
2013-02-05 16:53:00,43.5,29.7,29.00,NW,315,0.0,0.0,58,0.00,,,0.06,VWS V14.01,2013-02-05 16:53:00,
2013-02-05 16:54:00,43.5,29.7,29.00,WNW,292,0.0,0.0,58,0.00,,,0.06,VWS V14.01,2013-02-05 16:54:00,
2013-02-05 16:55:00,43.5,30.1,29.00,NNE,22,0.0,0.0,59,0.00,,,0.06,VWS V14.01,2013-02-05 16:55:00,
2013-02-05 16:56:00,43.5,30.1,29.00,WSW,247,0.0,0.0,59,0.00,,,0.06,VWS V14.01,2013-02-05 16:56:00,
2013-02-05 16:57:00,43.5,30.1,29.00,WSW,247,0.0,0.0,59,0.00,,,0.06,VWS V14.01,2013-02-05 16:57:00,
2013-02-05 16:58:00,44.4,29.7,29.03,West,270,0.0,0.0,56,0.00,,,0.06,VWS V14.01,2013-02-05 16:58:00,
2013-02-05 16:59:00,43.5,30.1,29.00,WSW,247,0.0,0.0,59,0.00,,,0.06,VWS V14.01,2013-02-05 16:59:00,
2013-02-05 17:00:00,43.5,30.1,29.00,NW,315,0.0,0.0,59,0.00,,,0.06,VWS V14.01,2013-02-05 17:00:00,
2013-02-05 17:01:00,43.3,30.0,28.99,West,270,0.0,0.0,59,0.00,,,0.06,VWS V14.01,2013-02-05 17:01:00,
2013-02-05 17:02:00,43.3,30.0,29.00,NW,315,0.0,0.0,59,0.00,,,0.06,VWS V14.01,2013-02-05 17:02:00,
2013-02-05 17:03:00,44.4,29.3,29.03,WNW,292,0.0,0.0,55,0.00,,,0.06,VWS V14.01,2013-02-05 17:03:00,
2013-02-05 17:04:00,43.2,29.9,28.99,WNW,292,0.0,0.0,59,0.00,,,0.06,VWS V14.01,2013-02-05 17:04:00,
2013-02-05 17:05:00,43.2,29.9,28.99,SW,225,0.0,0.0,59,0.00,,,0.06,VWS V14.01,2013-02-05 17:05:00,
2013-02-05 17:06:00,43.2,30.3,28.99,WSW,247,0.0,0.0,60,0.00,,,0.06,VWS V14.01,2013-02-05 17:06:00,
2013-02-05 17:07:00,43.2,30.3,28.99,WNW,292,0.0,0.0,60,0.00,,,0.06,VWS V14.01,2013-02-05 17:07:00,
2013-02-05 17:08:00,43.0,30.1,28.99,West,270,0.0,0.0,60,0.00,,,0.06,VWS V14.01,2013-02-05 17:08:00,
2013-02-05 17:09:00,44.2,30.0,29.02,WNW,292,0.0,0.0,57,0.00,,,0.06,VWS V14.01,2013-02-05 17:09:00,
2013-02-05 17:10:00,43.2,30.7,28.99,NW,315,0.0,0.0,61,0.00,,,0.06,VWS V14.01,2013-02-05 17:10:00,
2013-02-05 17:11:00,43.2,30.7,28.99,NNW,337,0.0,0.0,61,0.00,,,0.06,VWS V14.01,2013-02-05 17:11:00,
2013-02-05 17:12:00,43.2,30.7,28.99,WNW,292,0.0,0.0,61,0.00,,,0.06,VWS V14.01,2013-02-05 17:12:00,
2013-02-05 17:13:00,43.3,30.8,28.98,SW,225,0.0,0.0,61,0.00,,,0.06,VWS V14.01,2013-02-05 17:13:00,
2013-02-05 17:14:00,43.3,30.8,28.98,West,270,0.0,0.0,61,0.00,,,0.06,VWS V14.01,2013-02-05 17:14:00,
2013-02-05 17:15:00,44.1,29.9,29.01,SW,225,0.0,0.0,57,0.00,,,0.06,VWS V14.01,2013-02-05 17:15:00,
2013-02-05 17:16:00,43.3,31.2,28.98,WNW,292,0.0,0.0,62,0.00,,,0.06,VWS V14.01,2013-02-05 17:16:00,
2013-02-05 17:17:00,43.3,31.2,28.98,SSW,202,0.0,0.0,62,0.00,,,0.06,VWS V14.01,2013-02-05 17:17:00,
2013-02-05 17:18:00,43.5,31.4,28.98,WNW,292,0.0,0.0,62,0.00,,,0.06,VWS V14.01,2013-02-05 17:18:00,
2013-02-05 17:19:00,43.5,31.4,28.98,SW,225,0.0,0.0,62,0.00,,,0.06,VWS V14.01,2013-02-05 17:19:00,
2013-02-05 17:20:00,43.5,31.4,28.98,North,0,0.0,0.0,62,0.00,,,0.06,VWS V14.01,2013-02-05 17:20:00,
2013-02-05 17:21:00,43.9,29.7,29.01,WNW,292,0.0,0.0,57,0.00,,,0.06,VWS V14.01,2013-02-05 17:21:00,
2013-02-05 17:22:00,43.5,31.8,28.98,WNW,292,0.0,0.0,63,0.00,,,0.06,VWS V14.01,2013-02-05 17:22:00,
2013-02-05 17:23:00,43.5,31.8,28.98,WSW,247,0.0,0.0,63,0.00,,,0.06,VWS V14.01,2013-02-05 17:23:00,
2013-02-05 17:24:00,43.5,32.2,28.97,NNW,337,0.0,0.0,64,0.00,,,0.06,VWS V14.01,2013-02-05 17:24:00,
2013-02-05 17:25:00,43.5,32.2,28.97,SW,225,0.0,0.0,64,0.00,,,0.06,VWS V14.01,2013-02-05 17:25:00,
2013-02-05 17:26:00,43.9,29.7,29.00,SW,225,0.0,0.0,57,0.00,,,0.06,VWS V14.01,2013-02-05 17:26:00,
2013-02-05 17:27:00,43.5,32.2,28.97,NW,315,0.0,0.0,64,0.00,,,0.06,VWS V14.01,2013-02-05 17:27:00,
2013-02-05 17:28:00,43.5,32.5,28.97,WNW,292,0.0,0.0,65,0.00,,,0.06,VWS V14.01,2013-02-05 17:28:00,
2013-02-05 17:29:00,43.5,32.5,28.98,NNW,337,0.0,0.0,65,0.00,,,0.06,VWS V14.01,2013-02-05 17:29:00,
2013-02-05 17:30:00,43.5,32.5,28.98,WSW,247,0.0,0.0,65,0.00,,,0.06,VWS V14.01,2013-02-05 17:30:00,
2013-02-05 17:31:00,43.5,32.5,28.98,WNW,292,0.0,0.0,65,0.00,,,0.06,VWS V14.01,2013-02-05 17:31:00,
2013-02-05 17:32:00,43.7,29.5,29.01,West,270,0.0,0.0,57,0.00,,,0.06,VWS V14.01,2013-02-05 17:32:00,
2013-02-05 17:33:00,43.5,32.9,28.97,WNW,292,0.0,0.0,66,0.00,,,0.06,VWS V14.01,2013-02-05 17:33:00,
2013-02-05 17:34:00,43.5,32.9,28.97,West,270,0.0,0.0,66,0.00,,,0.06,VWS V14.01,2013-02-05 17:34:00,
2013-02-05 17:35:00,43.5,33.3,28.97,West,270,0.0,0.0,67,0.00,,,0.06,VWS V14.01,2013-02-05 17:35:00,
2013-02-05 17:36:00,43.5,33.3,28.97,WSW,247,0.0,0.0,67,0.00,,,0.06,VWS V14.01,2013-02-05 17:36:00,
2013-02-05 17:37:00,43.5,33.3,28.97,WNW,292,0.0,0.0,67,0.00,,,0.06,VWS V14.01,2013-02-05 17:37:00,
2013-02-05 17:38:00,43.9,29.7,29.01,WNW,292,0.0,0.0,57,0.00,,,0.06,VWS V14.01,2013-02-05 17:38:00,
2013-02-05 17:39:00,43.5,33.3,28.97,WNW,292,0.0,0.0,67,0.00,,,0.06,VWS V14.01,2013-02-05 17:39:00,
2013-02-05 17:40:00,43.5,33.3,28.97,WNW,292,0.0,0.0,67,0.00,,,0.06,VWS V14.01,2013-02-05 17:40:00,
2013-02-05 17:41:00,43.3,33.1,28.97,West,270,0.0,0.0,67,0.00,,,0.06,VWS V14.01,2013-02-05 17:41:00,
2013-02-05 17:42:00,43.3,33.5,28.97,WNW,292,0.0,0.0,68,0.00,,,0.06,VWS V14.01,2013-02-05 17:42:00,
2013-02-05 17:43:00,43.3,33.5,28.97,WNW,292,0.0,0.0,68,0.00,,,0.06,VWS V14.01,2013-02-05 17:43:00,
2013-02-05 17:44:00,43.9,30.1,29.01,West,270,0.0,0.0,58,0.00,,,0.06,VWS V14.01,2013-02-05 17:44:00,
2013-02-05 17:45:00,43.3,33.5,28.97,North,0,0.0,0.0,68,0.02,,,0.08,VWS V14.01,2013-02-05 17:45:00,
2013-02-05 17:46:00,43.3,33.5,28.97,NW,315,0.0,0.0,68,0.02,,,0.08,VWS V14.01,2013-02-05 17:46:00,
2013-02-05 17:47:00,43.3,33.8,28.97,West,270,0.0,0.0,69,0.02,,,0.08,VWS V14.01,2013-02-05 17:47:00,
2013-02-05 17:48:00,43.3,33.8,28.97,WNW,292,0.0,0.0,69,0.02,,,0.08,VWS V14.01,2013-02-05 17:48:00,
2013-02-05 17:49:00,43.7,29.9,29.01,NNW,337,0.0,0.0,58,0.00,,,0.06,VWS V14.01,2013-02-05 17:49:00,
2013-02-05 17:50:00,43.3,33.8,28.97,WNW,292,0.0,0.0,69,0.02,,,0.08,VWS V14.01,2013-02-05 17:50:00,
2013-02-05 17:51:00,43.2,33.7,28.97,NW,315,0.0,0.0,69,0.02,,,0.08,VWS V14.01,2013-02-05 17:51:00,
2013-02-05 17:52:00,43.2,33.7,28.97,West,270,0.0,0.0,69,0.02,,,0.08,VWS V14.01,2013-02-05 17:52:00,
2013-02-05 17:53:00,43.2,33.7,28.97,WSW,247,0.0,0.0,69,0.02,,,0.08,VWS V14.01,2013-02-05 17:53:00,
2013-02-05 17:54:00,43.0,33.5,28.96,NNW,337,0.0,0.0,69,0.02,,,0.08,VWS V14.01,2013-02-05 17:54:00,
2013-02-05 17:55:00,43.5,30.1,29.00,NNE,22,0.0,0.0,59,0.00,,,0.06,VWS V14.01,2013-02-05 17:55:00,
2013-02-05 17:56:00,43.0,33.5,28.97,SSW,202,0.0,0.0,69,0.02,,,0.08,VWS V14.01,2013-02-05 17:56:00,
2013-02-05 17:57:00,43.0,33.5,28.96,WNW,292,0.0,0.0,69,0.02,,,0.08,VWS V14.01,2013-02-05 17:57:00,
2013-02-05 17:58:00,43.0,33.5,28.96,SE,135,0.0,0.0,69,0.02,,,0.08,VWS V14.01,2013-02-05 17:58:00,
2013-02-05 17:59:00,43.0,33.5,28.96,SW,225,0.0,0.0,69,0.02,,,0.08,VWS V14.01,2013-02-05 17:59:00,
2013-02-05 18:00:00,42.8,33.3,28.97,NNE,22,0.0,0.0,69,0.02,,,0.08,VWS V14.01,2013-02-05 18:00:00,
2013-02-05 18:01:00,43.3,30.0,28.99,West,270,0.0,0.0,59,0.00,,,0.06,VWS V14.01,2013-02-05 18:01:00,
2013-02-05 18:02:00,42.8,33.7,28.97,West,270,0.0,0.0,70,0.02,,,0.08,VWS V14.01,2013-02-05 18:02:00,
2013-02-05 18:03:00,42.6,33.5,28.97,NW,315,0.0,0.0,70,0.02,,,0.08,VWS V14.01,2013-02-05 18:03:00,
2013-02-05 18:04:00,43.0,33.9,28.96,NW,315,0.0,0.0,70,0.02,,,0.08,VWS V14.01,2013-02-05 18:04:00,
2013-02-05 18:05:00,43.0,33.9,28.96,North,0,0.0,0.0,70,0.02,,,0.08,VWS V14.01,2013-02-05 18:05:00,
2013-02-05 18:06:00,43.0,33.9,28.97,WNW,292,0.0,0.0,70,0.02,,,0.08,VWS V14.01,2013-02-05 18:06:00,
2013-02-05 18:07:00,43.2,30.3,28.99,WNW,292,0.0,0.0,60,0.00,,,0.06,VWS V14.01,2013-02-05 18:07:00,
2013-02-05 18:08:00,43.0,33.9,28.96,SW,225,0.0,0.0,70,0.02,,,0.08,VWS V14.01,2013-02-05 18:08:00,
2013-02-05 18:09:00,43.0,33.9,28.96,WNW,292,0.0,0.0,70,0.02,,,0.08,VWS V14.01,2013-02-05 18:09:00,
2013-02-05 18:10:00,43.0,33.9,28.97,SW,225,0.0,0.0,70,0.02,,,0.08,VWS V14.01,2013-02-05 18:10:00,
2013-02-05 18:11:00,43.0,33.9,28.96,West,270,0.0,0.0,70,0.02,,,0.08,VWS V14.01,2013-02-05 18:11:00,
2013-02-05 18:12:00,43.0,33.9,28.96,WNW,292,0.0,0.0,70,0.02,,,0.08,VWS V14.01,2013-02-05 18:12:00,
2013-02-05 18:13:00,43.3,30.8,28.98,SW,225,0.0,0.0,61,0.00,,,0.06,VWS V14.01,2013-02-05 18:13:00,
2013-02-05 18:14:00,43.2,34.1,28.97,WNW,292,0.0,0.0,70,0.02,,,0.08,VWS V14.01,2013-02-05 18:14:00,
2013-02-05 18:15:00,43.2,34.1,28.96,WNW,292,0.0,0.0,70,0.02,,,0.08,VWS V14.01,2013-02-05 18:15:00,
2013-02-05 18:16:00,43.2,34.1,28.96,North,0,0.0,0.0,70,0.02,,,0.08,VWS V14.01,2013-02-05 18:16:00,
2013-02-05 18:17:00,43.2,34.1,28.96,NW,315,0.0,0.0,70,0.02,,,0.08,VWS V14.01,2013-02-05 18:17:00,
2013-02-05 18:18:00,43.5,31.4,28.98,WNW,292,0.0,0.0,62,0.00,,,0.06,VWS V14.01,2013-02-05 18:18:00,
2013-02-05 18:19:00,43.2,34.1,28.96,WSW,247,0.0,0.0,70,0.02,,,0.08,VWS V14.01,2013-02-05 18:19:00,
2013-02-05 18:20:00,43.2,34.1,28.96,WNW,292,0.0,0.0,70,0.02,,,0.08,VWS V14.01,2013-02-05 18:20:00,
2013-02-05 18:21:00,43.2,34.1,28.96,NW,315,0.0,0.0,70,0.02,,,0.08,VWS V14.01,2013-02-05 18:21:00,
2013-02-05 18:22:00,43.2,34.1,28.96,SSW,202,0.0,0.0,70,0.02,,,0.08,VWS V14.01,2013-02-05 18:22:00,
2013-02-05 18:23:00,43.0,34.2,28.96,SSW,202,0.0,0.0,71,0.02,,,0.08,VWS V14.01,2013-02-05 18:23:00,
2013-02-05 18:24:00,43.5,32.2,28.97,NNW,337,0.0,0.0,64,0.00,,,0.06,VWS V14.01,2013-02-05 18:24:00,
2013-02-05 18:25:00,43.2,34.5,28.95,NE,45,0.0,0.0,71,0.02,,,0.08,VWS V14.01,2013-02-05 18:25:00,
2013-02-05 18:26:00,43.2,34.5,28.95,SSW,202,0.0,0.0,71,0.02,,,0.08,VWS V14.01,2013-02-05 18:26:00,
2013-02-05 18:27:00,43.2,34.5,28.96,WSW,247,0.0,0.0,71,0.02,,,0.08,VWS V14.01,2013-02-05 18:27:00,
2013-02-05 18:28:00,43.2,34.5,28.96,West,270,0.0,0.0,71,0.02,,,0.08,VWS V14.01,2013-02-05 18:28:00,
2013-02-05 18:29:00,43.3,34.5,28.96,West,270,0.0,0.0,71,0.02,,,0.08,VWS V14.01,2013-02-05 18:29:00,
2013-02-05 18:30:00,43.5,32.5,28.98,WSW,247,0.0,0.0,65,0.00,,,0.06,VWS V14.01,2013-02-05 18:30:00,
2013-02-05 18:31:00,43.3,34.5,28.96,West,270,0.0,0.0,71,0.02,,,0.08,VWS V14.01,2013-02-05 18:31:00,
2013-02-05 18:32:00,43.3,34.5,28.96,WNW,292,0.0,0.0,71,0.02,,,0.08,VWS V14.01,2013-02-05 18:32:00,
2013-02-05 18:33:00,43.5,34.7,28.95,WNW,292,0.0,0.0,71,0.02,,,0.08,VWS V14.01,2013-02-05 18:33:00,
2013-02-05 18:34:00,43.5,34.7,28.95,West,270,0.0,0.0,71,0.02,,,0.08,VWS V14.01,2013-02-05 18:34:00,
2013-02-05 18:35:00,43.5,33.3,28.97,West,270,0.0,0.0,67,0.00,,,0.06,VWS V14.01,2013-02-05 18:35:00,
2013-02-05 18:36:00,43.5,34.7,28.95,NW,315,0.0,0.0,71,0.02,,,0.08,VWS V14.01,2013-02-05 18:36:00,
2013-02-05 18:37:00,43.5,34.4,28.95,WSW,247,0.0,0.0,70,0.02,,,0.08,VWS V14.01,2013-02-05 18:37:00,
2013-02-05 18:38:00,43.5,34.4,28.96,West,270,0.0,0.0,70,0.02,,,0.08,VWS V14.01,2013-02-05 18:38:00,
2013-02-05 18:39:00,43.5,34.4,28.95,West,270,0.0,0.0,70,0.02,,,0.08,VWS V14.01,2013-02-05 18:39:00,
2013-02-05 18:40:00,43.5,33.3,28.97,WNW,292,0.0,0.0,67,0.00,,,0.06,VWS V14.01,2013-02-05 18:40:00,
2013-02-05 18:41:00,43.5,34.4,28.95,WNW,292,0.0,0.0,70,0.02,,,0.08,VWS V14.01,2013-02-05 18:41:00,
2013-02-05 18:42:00,43.5,34.4,28.95,NW,315,0.0,0.0,70,0.02,,,0.08,VWS V14.01,2013-02-05 18:42:00,
2013-02-05 18:43:00,43.5,34.4,28.95,WSW,247,0.0,0.0,70,0.02,,,0.08,VWS V14.01,2013-02-05 18:43:00,
2013-02-05 18:44:00,43.3,34.2,28.95,WNW,292,0.0,0.0,70,0.02,,,0.08,VWS V14.01,2013-02-05 18:44:00,
2013-02-05 18:45:00,43.2,34.1,28.95,West,270,0.0,0.0,70,0.00,,,0.08,VWS V14.01,2013-02-05 18:45:00,
2013-02-05 18:46:00,43.3,33.5,28.97,NW,315,0.0,0.0,68,0.02,,,0.08,VWS V14.01,2013-02-05 18:46:00,
2013-02-05 18:47:00,43.0,34.2,28.95,West,270,0.0,0.0,71,0.00,,,0.08,VWS V14.01,2013-02-05 18:47:00,
2013-02-05 18:48:00,42.6,33.9,28.95,SW,225,0.0,0.0,71,0.00,,,0.08,VWS V14.01,2013-02-05 18:48:00,
2013-02-05 18:49:00,42.6,33.9,28.95,WNW,292,0.0,0.0,71,0.00,,,0.08,VWS V14.01,2013-02-05 18:49:00,
2013-02-05 18:50:00,42.6,33.9,28.95,NW,315,0.0,0.0,71,0.00,,,0.08,VWS V14.01,2013-02-05 18:50:00,
2013-02-05 18:51:00,42.4,33.7,28.95,North,0,0.0,0.0,71,0.00,,,0.08,VWS V14.01,2013-02-05 18:51:00,
2013-02-05 18:52:00,43.2,33.7,28.97,West,270,0.0,0.0,69,0.02,,,0.08,VWS V14.01,2013-02-05 18:52:00,
2013-02-05 18:53:00,42.3,33.6,28.95,NNW,337,0.0,0.0,71,0.00,,,0.08,VWS V14.01,2013-02-05 18:53:00,
2013-02-05 18:54:00,42.1,33.7,28.95,North,0,0.0,0.0,72,0.00,,,0.08,VWS V14.01,2013-02-05 18:54:00,
2013-02-05 18:55:00,42.1,33.7,28.95,West,270,0.0,0.0,72,0.00,,,0.08,VWS V14.01,2013-02-05 18:55:00,
2013-02-05 18:56:00,42.1,33.7,28.95,WSW,247,0.0,0.0,72,0.00,,,0.08,VWS V14.01,2013-02-05 18:56:00,
2013-02-05 18:57:00,43.0,33.5,28.96,WNW,292,0.0,0.0,69,0.02,,,0.08,VWS V14.01,2013-02-05 18:57:00,
2013-02-05 18:58:00,41.7,33.3,28.95,WNW,292,0.0,0.0,72,0.00,,,0.08,VWS V14.01,2013-02-05 18:58:00,
2013-02-05 18:59:00,41.7,33.3,28.95,NW,315,0.0,0.0,72,0.00,,,0.08,VWS V14.01,2013-02-05 18:59:00,
2013-02-05 19:00:00,41.7,33.7,28.95,WNW,292,0.0,0.0,73,0.00,,,0.08,VWS V14.01,2013-02-05 19:00:00,
2013-02-05 19:01:00,41.5,33.5,28.95,WSW,247,0.0,0.0,73,0.00,,,0.08,VWS V14.01,2013-02-05 19:01:00,
2013-02-05 19:02:00,41.5,33.5,28.95,WNW,292,0.0,0.0,73,0.00,,,0.08,VWS V14.01,2013-02-05 19:02:00,
2013-02-05 19:03:00,42.6,33.5,28.97,NW,315,0.0,0.0,70,0.02,,,0.08,VWS V14.01,2013-02-05 19:03:00,
2013-02-05 19:04:00,41.5,33.5,28.95,West,270,0.0,0.0,73,0.00,,,0.08,VWS V14.01,2013-02-05 19:04:00,
2013-02-05 19:05:00,41.5,33.5,28.95,NW,315,0.0,0.0,73,0.00,,,0.08,VWS V14.01,2013-02-05 19:05:00,
2013-02-05 19:06:00,41.5,33.5,28.95,WNW,292,0.0,0.0,73,0.00,,,0.08,VWS V14.01,2013-02-05 19:06:00,
2013-02-05 19:07:00,41.4,33.4,28.95,NW,315,0.0,0.0,73,0.00,,,0.08,VWS V14.01,2013-02-05 19:07:00,
2013-02-05 19:08:00,41.4,33.8,28.95,WNW,292,0.0,0.0,74,0.00,,,0.08,VWS V14.01,2013-02-05 19:08:00,
2013-02-05 19:09:00,43.0,33.9,28.96,WNW,292,0.0,0.0,70,0.02,,,0.08,VWS V14.01,2013-02-05 19:09:00,
2013-02-05 19:10:00,41.4,33.8,28.95,WNW,292,0.0,0.0,74,0.00,,,0.08,VWS V14.01,2013-02-05 19:10:00,
2013-02-05 19:11:00,41.4,33.8,28.95,WNW,292,0.0,0.0,74,0.00,,,0.08,VWS V14.01,2013-02-05 19:11:00,
2013-02-05 19:12:00,41.4,33.8,28.95,SW,225,0.0,0.0,74,0.00,,,0.08,VWS V14.01,2013-02-05 19:12:00,
2013-02-05 19:13:00,41.4,33.8,28.95,NNE,22,0.0,0.0,74,0.00,,,0.08,VWS V14.01,2013-02-05 19:13:00,
2013-02-05 19:14:00,41.4,33.8,28.95,WNW,292,0.0,0.0,74,0.00,,,0.08,VWS V14.01,2013-02-05 19:14:00,
2013-02-05 19:15:00,43.2,34.1,28.96,WNW,292,0.0,0.0,70,0.02,,,0.08,VWS V14.01,2013-02-05 19:15:00,
2013-02-05 19:16:00,41.4,33.8,28.95,WNW,292,0.0,0.0,74,0.00,,,0.08,VWS V14.01,2013-02-05 19:16:00,
2013-02-05 19:17:00,41.4,34.1,28.95,WSW,247,0.0,0.0,75,0.00,,,0.08,VWS V14.01,2013-02-05 19:17:00,
2013-02-05 19:18:00,41.4,34.1,28.95,West,270,0.0,0.0,75,0.00,,,0.08,VWS V14.01,2013-02-05 19:18:00,
2013-02-05 19:19:00,41.4,34.1,28.95,NNW,337,0.0,0.0,75,0.00,,,0.08,VWS V14.01,2013-02-05 19:19:00,
2013-02-05 19:20:00,43.2,34.1,28.96,WNW,292,0.0,0.0,70,0.02,,,0.08,VWS V14.01,2013-02-05 19:20:00,
2013-02-05 19:21:00,41.4,34.1,28.95,WNW,292,0.0,0.0,75,0.00,,,0.08,VWS V14.01,2013-02-05 19:21:00,
2013-02-05 19:22:00,41.4,34.1,28.95,South,180,0.0,0.0,75,0.00,,,0.08,VWS V14.01,2013-02-05 19:22:00,
2013-02-05 19:23:00,41.4,34.1,28.94,West,270,0.0,0.0,75,0.00,,,0.08,VWS V14.01,2013-02-05 19:23:00,
2013-02-05 19:24:00,41.4,34.1,28.95,West,270,0.0,0.0,75,0.00,,,0.08,VWS V14.01,2013-02-05 19:24:00,
2013-02-05 19:25:00,41.4,34.1,28.95,WNW,292,0.0,0.0,75,0.00,,,0.08,VWS V14.01,2013-02-05 19:25:00,
2013-02-05 19:26:00,43.2,34.5,28.95,SSW,202,0.0,0.0,71,0.02,,,0.08,VWS V14.01,2013-02-05 19:26:00,
2013-02-05 19:27:00,41.4,34.1,28.95,WSW,247,0.0,0.0,75,0.00,,,0.08,VWS V14.01,2013-02-05 19:27:00,
2013-02-05 19:28:00,41.4,34.1,28.95,North,0,0.0,0.0,75,0.00,,,0.08,VWS V14.01,2013-02-05 19:28:00,
2013-02-05 19:29:00,41.4,34.1,28.94,West,270,0.0,0.0,75,0.00,,,0.08,VWS V14.01,2013-02-05 19:29:00,
2013-02-05 19:30:00,41.4,34.4,28.94,NW,315,0.0,0.0,76,0.00,,,0.08,VWS V14.01,2013-02-05 19:30:00,
2013-02-05 19:31:00,43.3,34.5,28.96,West,270,0.0,0.0,71,0.02,,,0.08,VWS V14.01,2013-02-05 19:31:00,
2013-02-05 19:32:00,41.4,34.4,28.95,West,270,0.0,0.0,76,0.00,,,0.08,VWS V14.01,2013-02-05 19:32:00,
2013-02-05 19:33:00,41.4,34.4,28.95,NW,315,0.0,0.0,76,0.00,,,0.08,VWS V14.01,2013-02-05 19:33:00,
2013-02-05 19:35:00,41.4,34.4,28.94,West,270,0.0,0.0,76,0.00,,,0.08,VWS V14.01,2013-02-05 19:35:00,
2013-02-05 19:36:00,41.4,34.4,28.94,NW,315,0.0,0.0,76,0.00,,,0.08,VWS V14.01,2013-02-05 19:36:00,
2013-02-05 19:37:00,43.5,34.4,28.95,WSW,247,0.0,0.0,70,0.02,,,0.08,VWS V14.01,2013-02-05 19:37:00,
2013-02-05 19:38:00,41.4,34.4,28.94,NW,315,0.0,0.0,76,0.00,,,0.08,VWS V14.01,2013-02-05 19:38:00,
2013-02-05 19:39:00,41.4,34.4,28.94,NNW,337,0.0,0.0,76,0.00,,,0.08,VWS V14.01,2013-02-05 19:39:00,
2013-02-05 19:40:00,41.4,34.4,28.95,WNW,292,0.0,0.0,76,0.00,,,0.08,VWS V14.01,2013-02-05 19:40:00,
2013-02-05 19:41:00,41.4,34.4,28.95,NW,315,0.0,0.0,76,0.00,,,0.08,VWS V14.01,2013-02-05 19:41:00,
2013-02-05 19:42:00,43.5,34.4,28.95,NW,315,0.0,0.0,70,0.02,,,0.08,VWS V14.01,2013-02-05 19:42:00,
2013-02-05 19:43:00,41.4,34.4,28.94,WNW,292,0.0,0.0,76,0.00,,,0.08,VWS V14.01,2013-02-05 19:43:00,
2013-02-05 19:44:00,41.4,34.7,28.94,WSW,247,0.0,0.0,77,0.00,,,0.08,VWS V14.01,2013-02-05 19:44:00,
2013-02-05 19:45:00,41.4,34.7,28.94,WNW,292,0.0,0.0,77,0.00,,,0.08,VWS V14.01,2013-02-05 19:45:00,
2013-02-05 19:46:00,41.4,34.7,28.94,WNW,292,0.0,0.0,77,0.00,,,0.08,VWS V14.01,2013-02-05 19:46:00,
2013-02-05 19:47:00,43.0,34.2,28.95,West,270,0.0,0.0,71,0.00,,,0.08,VWS V14.01,2013-02-05 19:47:00,
2013-02-05 19:48:00,41.4,34.7,28.94,NNW,337,0.0,0.0,77,0.00,,,0.08,VWS V14.01,2013-02-05 19:48:00,
2013-02-05 19:49:00,41.4,34.7,28.94,West,270,0.0,0.0,77,0.00,,,0.08,VWS V14.01,2013-02-05 19:49:00,
2013-02-05 19:50:00,41.4,34.7,28.94,WNW,292,0.0,0.0,77,0.00,,,0.08,VWS V14.01,2013-02-05 19:50:00,
2013-02-05 19:51:00,41.4,34.7,28.94,WNW,292,0.0,0.0,77,0.00,,,0.08,VWS V14.01,2013-02-05 19:51:00,
2013-02-05 19:52:00,41.4,34.7,28.93,SW,225,0.0,0.0,77,0.00,,,0.08,VWS V14.01,2013-02-05 19:52:00,
2013-02-05 19:53:00,42.3,33.6,28.95,NNW,337,0.0,0.0,71,0.00,,,0.08,VWS V14.01,2013-02-05 19:53:00,
2013-02-05 19:54:00,41.4,34.7,28.94,WNW,292,0.0,0.0,77,0.00,,,0.08,VWS V14.01,2013-02-05 19:54:00,
2013-02-05 19:55:00,41.4,34.7,28.94,West,270,0.0,0.0,77,0.00,,,0.08,VWS V14.01,2013-02-05 19:55:00,
2013-02-05 19:56:00,41.4,34.7,28.94,WNW,292,0.0,0.0,77,0.00,,,0.08,VWS V14.01,2013-02-05 19:56:00,
2013-02-05 19:57:00,41.4,34.7,28.93,WNW,292,0.0,0.0,77,0.00,,,0.08,VWS V14.01,2013-02-05 19:57:00,
2013-02-05 19:58:00,41.4,34.7,28.94,West,270,0.0,0.0,77,0.00,,,0.08,VWS V14.01,2013-02-05 19:58:00,
2013-02-05 19:59:00,41.7,33.3,28.95,NW,315,0.0,0.0,72,0.00,,,0.08,VWS V14.01,2013-02-05 19:59:00,
2013-02-05 20:00:00,41.4,34.7,28.94,WNW,292,0.0,0.0,77,0.00,,,0.08,VWS V14.01,2013-02-05 20:00:00,
2013-02-05 20:01:00,41.5,34.8,28.94,NNW,337,0.0,0.0,77,0.00,,,0.08,VWS V14.01,2013-02-05 20:01:00,
2013-02-05 20:02:00,41.5,34.8,28.93,West,270,0.0,0.0,77,0.00,,,0.08,VWS V14.01,2013-02-05 20:02:00,
2013-02-05 20:03:00,41.5,34.8,28.93,WNW,292,0.0,0.0,77,0.00,,,0.08,VWS V14.01,2013-02-05 20:03:00,
2013-02-05 20:04:00,41.5,33.5,28.95,West,270,0.0,0.0,73,0.00,,,0.08,VWS V14.01,2013-02-05 20:04:00,
2013-02-05 20:05:00,41.5,34.8,28.93,WNW,292,0.0,0.0,77,0.00,,,0.08,VWS V14.01,2013-02-05 20:05:00,
2013-02-05 20:06:00,41.5,34.8,28.94,WNW,292,0.0,0.0,77,0.00,,,0.08,VWS V14.01,2013-02-05 20:06:00,
2013-02-05 20:07:00,41.5,34.8,28.93,WNW,292,0.0,0.0,77,0.00,,,0.08,VWS V14.01,2013-02-05 20:07:00,
2013-02-05 20:08:00,41.5,34.8,28.93,WNW,292,0.0,0.0,77,0.00,,,0.08,VWS V14.01,2013-02-05 20:08:00,
2013-02-05 20:09:00,41.5,35.2,28.93,North,0,0.0,0.0,78,0.00,,,0.08,VWS V14.01,2013-02-05 20:09:00,
2013-02-05 20:10:00,41.4,33.8,28.95,WNW,292,0.0,0.0,74,0.00,,,0.08,VWS V14.01,2013-02-05 20:10:00,
2013-02-05 20:11:00,41.5,35.2,28.93,WSW,247,0.0,0.0,78,0.00,,,0.08,VWS V14.01,2013-02-05 20:11:00,
2013-02-05 20:12:00,41.5,35.2,28.94,WNW,292,0.0,0.0,78,0.00,,,0.08,VWS V14.01,2013-02-05 20:12:00,
2013-02-05 20:13:00,41.5,35.2,28.94,WNW,292,0.0,0.0,78,0.00,,,0.08,VWS V14.01,2013-02-05 20:13:00,
2013-02-05 20:14:00,41.5,35.5,28.93,West,270,0.0,0.0,79,0.00,,,0.08,VWS V14.01,2013-02-05 20:14:00,
2013-02-05 20:15:00,41.4,33.8,28.95,West,270,0.0,0.0,74,0.00,,,0.08,VWS V14.01,2013-02-05 20:15:00,
2013-02-05 20:16:00,41.5,35.5,28.94,WNW,292,0.0,0.0,79,0.00,,,0.08,VWS V14.01,2013-02-05 20:16:00,
2013-02-05 20:17:00,41.5,35.5,28.93,WSW,247,0.0,0.0,79,0.00,,,0.08,VWS V14.01,2013-02-05 20:17:00,
2013-02-05 20:18:00,41.5,35.5,28.93,WNW,292,0.0,0.0,79,0.00,,,0.08,VWS V14.01,2013-02-05 20:18:00,
2013-02-05 20:19:00,41.5,35.5,28.93,WSW,247,0.0,0.0,79,0.00,,,0.08,VWS V14.01,2013-02-05 20:19:00,
2013-02-05 20:20:00,41.5,35.5,28.93,NW,315,0.0,0.0,79,0.00,,,0.08,VWS V14.01,2013-02-05 20:20:00,
2013-02-05 20:21:00,41.4,34.1,28.95,WNW,292,0.0,0.0,75,0.00,,,0.08,VWS V14.01,2013-02-05 20:21:00,
2013-02-05 20:22:00,41.5,35.5,28.94,WNW,292,0.0,0.0,79,0.00,,,0.08,VWS V14.01,2013-02-05 20:22:00,
2013-02-05 20:23:00,41.5,35.5,28.93,WSW,247,0.0,0.0,79,0.00,,,0.08,VWS V14.01,2013-02-05 20:23:00,
2013-02-05 20:24:00,41.5,35.5,28.93,SW,225,0.0,0.0,79,0.00,,,0.08,VWS V14.01,2013-02-05 20:24:00,
2013-02-05 20:25:00,41.5,35.5,28.93,West,270,0.0,0.0,79,0.00,,,0.08,VWS V14.01,2013-02-05 20:25:00,
2013-02-05 20:26:00,41.5,35.5,28.93,SSW,202,0.0,0.0,79,0.00,,,0.08,VWS V14.01,2013-02-05 20:26:00,
2013-02-05 20:27:00,41.4,34.1,28.95,WSW,247,0.0,0.0,75,0.00,,,0.08,VWS V14.01,2013-02-05 20:27:00,
2013-02-05 20:28:00,41.5,35.8,28.93,WNW,292,0.0,0.0,80,0.00,,,0.08,VWS V14.01,2013-02-05 20:28:00,
2013-02-05 20:29:00,41.7,36.0,28.93,NW,315,0.0,0.0,80,0.00,,,0.08,VWS V14.01,2013-02-05 20:29:00,
2013-02-05 20:30:00,41.7,36.0,28.93,NW,315,0.0,0.0,80,0.00,,,0.08,VWS V14.01,2013-02-05 20:30:00,
2013-02-05 20:31:00,41.7,36.0,28.94,West,270,0.0,0.0,80,0.00,,,0.08,VWS V14.01,2013-02-05 20:31:00,
2013-02-05 20:32:00,41.4,34.4,28.95,West,270,0.0,0.0,76,0.00,,,0.08,VWS V14.01,2013-02-05 20:32:00,
2013-02-05 20:33:00,41.7,36.0,28.94,NNW,337,0.0,0.0,80,0.00,,,0.08,VWS V14.01,2013-02-05 20:33:00,
2013-02-05 20:34:00,41.7,36.0,28.93,SW,225,0.0,0.0,80,0.00,,,0.08,VWS V14.01,2013-02-05 20:34:00,
2013-02-05 20:35:00,41.7,36.0,28.94,NW,315,0.0,0.0,80,0.00,,,0.08,VWS V14.01,2013-02-05 20:35:00,
2013-02-05 20:36:00,41.7,36.0,28.94,WNW,292,0.0,0.0,80,0.00,,,0.08,VWS V14.01,2013-02-05 20:36:00,
2013-02-05 20:37:00,41.9,36.2,28.93,WNW,292,0.0,0.0,80,0.00,,,0.08,VWS V14.01,2013-02-05 20:37:00,
2013-02-05 20:38:00,41.4,34.4,28.94,NW,315,0.0,0.0,76,0.00,,,0.08,VWS V14.01,2013-02-05 20:38:00,
2013-02-05 20:39:00,41.9,35.9,28.93,NNW,337,0.0,0.0,79,0.00,,,0.08,VWS V14.01,2013-02-05 20:39:00,
2013-02-05 20:40:00,41.9,35.9,28.93,North,0,0.0,0.0,79,0.00,,,0.08,VWS V14.01,2013-02-05 20:40:00,
2013-02-05 20:41:00,41.9,35.9,28.93,NW,315,0.0,0.0,79,0.00,,,0.08,VWS V14.01,2013-02-05 20:41:00,
2013-02-05 20:42:00,41.9,35.9,28.93,NW,315,0.0,0.0,79,0.00,,,0.08,VWS V14.01,2013-02-05 20:42:00,
2013-02-05 20:43:00,41.9,35.9,28.93,NW,315,0.0,0.0,79,0.00,,,0.08,VWS V14.01,2013-02-05 20:43:00,
2013-02-05 20:44:00,41.4,34.7,28.94,WSW,247,0.0,0.0,77,0.00,,,0.08,VWS V14.01,2013-02-05 20:44:00,
2013-02-05 20:45:00,41.9,35.9,28.94,WNW,292,0.0,0.0,79,0.00,,,0.08,VWS V14.01,2013-02-05 20:45:00,
2013-02-05 20:46:00,42.1,36.1,28.93,NW,315,0.0,0.0,79,0.00,,,0.08,VWS V14.01,2013-02-05 20:46:00,
2013-02-05 20:47:00,42.1,36.1,28.93,WNW,292,0.0,0.0,79,0.00,,,0.08,VWS V14.01,2013-02-05 20:47:00,
2013-02-05 20:48:00,42.1,36.1,28.93,WNW,292,0.0,0.0,79,0.00,,,0.08,VWS V14.01,2013-02-05 20:48:00,
2013-02-05 20:49:00,41.4,34.7,28.94,West,270,0.0,0.0,77,0.00,,,0.08,VWS V14.01,2013-02-05 20:49:00,
2013-02-05 20:50:00,42.1,36.1,28.93,NW,315,0.0,0.0,79,0.00,,,0.08,VWS V14.01,2013-02-05 20:50:00,
2013-02-05 20:51:00,42.1,36.1,28.93,NW,315,0.0,0.0,79,0.00,,,0.08,VWS V14.01,2013-02-05 20:51:00,
2013-02-05 20:52:00,42.1,36.1,28.93,West,270,0.0,0.0,79,0.00,,,0.08,VWS V14.01,2013-02-05 20:52:00,
2013-02-05 20:53:00,42.1,36.1,28.93,WNW,292,0.0,0.0,79,0.00,,,0.08,VWS V14.01,2013-02-05 20:53:00,
2013-02-05 20:54:00,42.1,36.1,28.93,WNW,292,0.0,0.0,79,0.00,,,0.08,VWS V14.01,2013-02-05 20:54:00,
2013-02-05 20:55:00,41.4,34.7,28.94,West,270,0.0,0.0,77,0.00,,,0.08,VWS V14.01,2013-02-05 20:55:00,
2013-02-05 20:56:00,42.1,36.1,28.93,NW,315,0.0,0.0,79,0.00,,,0.08,VWS V14.01,2013-02-05 20:56:00,
2013-02-05 20:57:00,42.1,36.1,28.93,NW,315,0.0,0.0,79,0.00,,,0.08,VWS V14.01,2013-02-05 20:57:00,
2013-02-05 20:58:00,42.1,36.1,28.93,WNW,292,0.0,0.0,79,0.00,,,0.08,VWS V14.01,2013-02-05 20:58:00,
2013-02-05 20:59:00,42.1,36.1,28.93,NW,315,0.0,0.0,79,0.00,,,0.08,VWS V14.01,2013-02-05 20:59:00,
2013-02-05 21:00:00,41.4,34.7,28.94,WNW,292,0.0,0.0,77,0.00,,,0.08,VWS V14.01,2013-02-05 21:00:00,
2013-02-05 21:01:00,42.3,36.3,28.93,NW,315,0.0,0.0,79,0.00,,,0.08,VWS V14.01,2013-02-05 21:01:00,
2013-02-05 21:02:00,42.1,36.1,28.93,NW,315,0.0,0.0,79,0.00,,,0.08,VWS V14.01,2013-02-05 21:02:00,
2013-02-05 21:03:00,42.3,36.3,28.93,NW,315,0.0,0.0,79,0.00,,,0.08,VWS V14.01,2013-02-05 21:03:00,
2013-02-05 21:04:00,42.3,36.3,28.93,NW,315,0.0,0.0,79,0.00,,,0.08,VWS V14.01,2013-02-05 21:04:00,
2013-02-05 21:05:00,42.4,36.4,28.93,WNW,292,0.0,0.0,79,0.00,,,0.08,VWS V14.01,2013-02-05 21:05:00,
2013-02-05 21:06:00,41.5,34.8,28.94,WNW,292,0.0,0.0,77,0.00,,,0.08,VWS V14.01,2013-02-05 21:06:00,
2013-02-05 21:07:00,42.4,36.4,28.93,NW,315,0.0,0.0,79,0.00,,,0.08,VWS V14.01,2013-02-05 21:07:00,
2013-02-05 21:08:00,42.4,36.4,28.93,WNW,292,0.0,0.0,79,0.00,,,0.08,VWS V14.01,2013-02-05 21:08:00,
2013-02-05 21:09:00,42.4,36.4,28.93,NW,315,0.0,0.0,79,0.00,,,0.08,VWS V14.01,2013-02-05 21:09:00,
2013-02-05 21:10:00,42.4,36.4,28.93,NNW,337,0.0,0.0,79,0.00,,,0.08,VWS V14.01,2013-02-05 21:10:00,
2013-02-05 21:11:00,41.5,35.2,28.93,WSW,247,0.0,0.0,78,0.00,,,0.08,VWS V14.01,2013-02-05 21:11:00,
2013-02-05 21:12:00,42.4,36.4,28.93,NW,315,0.0,0.0,79,0.00,,,0.08,VWS V14.01,2013-02-05 21:12:00,
2013-02-05 21:13:00,42.4,36.0,28.93,West,270,0.0,0.0,78,0.00,,,0.08,VWS V14.01,2013-02-05 21:13:00,
2013-02-05 21:14:00,42.4,36.0,28.93,WSW,247,0.0,0.0,78,0.00,,,0.08,VWS V14.01,2013-02-05 21:14:00,
2013-02-05 21:15:00,42.4,36.0,28.93,WNW,292,0.0,0.0,78,0.00,,,0.08,VWS V14.01,2013-02-05 21:15:00,
2013-02-05 21:16:00,42.4,36.0,28.93,WSW,247,0.0,0.0,78,0.00,,,0.08,VWS V14.01,2013-02-05 21:16:00,
2013-02-05 21:17:00,41.5,35.5,28.93,WSW,247,0.0,0.0,79,0.00,,,0.08,VWS V14.01,2013-02-05 21:17:00,
2013-02-05 21:18:00,42.4,36.0,28.93,NW,315,0.0,0.0,78,0.00,,,0.08,VWS V14.01,2013-02-05 21:18:00,
2013-02-05 21:19:00,42.4,36.0,28.93,WNW,292,0.0,0.0,78,0.00,,,0.08,VWS V14.01,2013-02-05 21:19:00,
2013-02-05 21:20:00,42.4,36.0,28.93,WNW,292,0.0,0.0,78,0.00,,,0.08,VWS V14.01,2013-02-05 21:20:00,
2013-02-05 21:21:00,42.4,36.0,28.93,NW,315,0.0,0.0,78,0.00,,,0.08,VWS V14.01,2013-02-05 21:21:00,
2013-02-05 21:22:00,41.5,35.5,28.94,WNW,292,0.0,0.0,79,0.00,,,0.08,VWS V14.01,2013-02-05 21:22:00,
2013-02-05 21:23:00,42.4,36.0,28.93,NW,315,0.0,0.0,78,0.00,,,0.08,VWS V14.01,2013-02-05 21:23:00,
2013-02-05 21:24:00,42.4,36.0,28.93,WNW,292,0.0,0.0,78,0.00,,,0.08,VWS V14.01,2013-02-05 21:24:00,
2013-02-05 21:25:00,42.4,36.0,28.94,WNW,292,0.0,0.0,78,0.00,,,0.08,VWS V14.01,2013-02-05 21:25:00,
2013-02-05 21:26:00,42.4,36.0,28.94,WNW,292,0.0,0.0,78,0.00,,,0.08,VWS V14.01,2013-02-05 21:26:00,
2013-02-05 21:27:00,42.4,36.4,28.93,West,270,0.0,0.0,79,0.00,,,0.08,VWS V14.01,2013-02-05 21:27:00,
2013-02-05 21:28:00,41.5,35.8,28.93,WNW,292,0.0,0.0,80,0.00,,,0.08,VWS V14.01,2013-02-05 21:28:00,
2013-02-05 21:29:00,42.4,36.4,28.94,North,0,0.0,0.0,79,0.00,,,0.08,VWS V14.01,2013-02-05 21:29:00,
2013-02-05 21:30:00,42.4,36.4,28.94,NNW,337,0.0,0.0,79,0.00,,,0.08,VWS V14.01,2013-02-05 21:30:00,
2013-02-05 21:31:00,42.6,36.5,28.93,WNW,292,0.0,0.0,79,0.00,,,0.08,VWS V14.01,2013-02-05 21:31:00,
2013-02-05 21:32:00,42.6,36.5,28.93,NNW,337,0.0,0.0,79,0.00,,,0.08,VWS V14.01,2013-02-05 21:32:00,
2013-02-05 21:33:00,41.7,36.0,28.94,NNW,337,0.0,0.0,80,0.00,,,0.08,VWS V14.01,2013-02-05 21:33:00,
2013-02-05 21:34:00,43.0,37.3,28.93,NNW,337,0.0,0.0,80,0.00,,,0.08,VWS V14.01,2013-02-05 21:34:00,
2013-02-05 21:35:00,43.2,37.5,28.93,North,0,0.0,0.0,80,0.00,,,0.08,VWS V14.01,2013-02-05 21:35:00,
2013-02-05 21:36:00,43.3,37.5,28.93,NW,315,0.0,0.0,80,0.00,,,0.08,VWS V14.01,2013-02-05 21:36:00,
2013-02-05 21:37:00,43.5,37.8,28.94,NW,315,0.0,0.0,80,0.00,,,0.08,VWS V14.01,2013-02-05 21:37:00,
2013-02-05 21:38:00,43.7,38.0,28.94,WNW,292,0.0,0.0,80,0.00,,,0.08,VWS V14.01,2013-02-05 21:38:00,
2013-02-05 21:39:00,41.9,35.9,28.93,NNW,337,0.0,0.0,79,0.00,,,0.08,VWS V14.01,2013-02-05 21:39:00,
2013-02-05 21:40:00,44.2,38.1,28.93,WNW,292,0.0,0.0,79,0.00,,,0.08,VWS V14.01,2013-02-05 21:40:00,
2013-02-05 21:41:00,44.2,38.1,28.93,WNW,292,0.0,0.0,79,0.00,,,0.08,VWS V14.01,2013-02-05 21:41:00,
2013-02-05 21:42:00,44.4,38.3,28.93,WNW,292,0.0,0.0,79,0.00,,,0.08,VWS V14.01,2013-02-05 21:42:00,
2013-02-05 21:43:00,44.4,38.3,28.93,WNW,292,0.0,0.0,79,0.00,,,0.08,VWS V14.01,2013-02-05 21:43:00,
2013-02-05 21:44:00,44.4,38.0,28.93,NW,315,0.0,0.0,78,0.00,,,0.08,VWS V14.01,2013-02-05 21:44:00,
2013-02-05 21:45:00,41.9,35.9,28.94,WNW,292,0.0,0.0,79,0.00,,,0.08,VWS V14.01,2013-02-05 21:45:00,
2013-02-05 21:46:00,44.8,38.4,28.93,WNW,292,0.0,0.0,78,0.00,,,0.08,VWS V14.01,2013-02-05 21:46:00,
2013-02-05 21:47:00,44.8,38.4,28.94,WNW,292,0.0,0.0,78,0.00,,,0.08,VWS V14.01,2013-02-05 21:47:00,
2013-02-05 21:48:00,45.0,38.2,28.93,WNW,292,0.0,0.0,77,0.00,,,0.08,VWS V14.01,2013-02-05 21:48:00,
2013-02-05 21:49:00,45.0,38.2,28.94,NW,315,0.0,0.0,77,0.00,,,0.08,VWS V14.01,2013-02-05 21:49:00,
2013-02-05 21:50:00,42.1,36.1,28.93,NW,315,0.0,0.0,79,0.00,,,0.08,VWS V14.01,2013-02-05 21:50:00,
2013-02-05 21:51:00,45.1,38.3,28.94,NNW,337,0.0,0.0,77,0.00,,,0.08,VWS V14.01,2013-02-05 21:51:00,
2013-02-05 21:52:00,45.1,38.3,28.94,West,270,0.0,0.0,77,0.00,,,0.08,VWS V14.01,2013-02-05 21:52:00,
2013-02-05 21:53:00,45.1,38.3,28.94,WNW,292,0.0,0.0,77,0.00,,,0.08,VWS V14.01,2013-02-05 21:53:00,
2013-02-05 21:54:00,45.1,38.0,28.93,WNW,292,0.0,0.0,76,0.00,,,0.08,VWS V14.01,2013-02-05 21:54:00,
2013-02-05 21:55:00,45.0,37.9,28.94,NW,315,0.0,0.0,76,0.00,,,0.08,VWS V14.01,2013-02-05 21:55:00,
2013-02-05 21:56:00,42.1,36.1,28.93,NW,315,0.0,0.0,79,0.00,,,0.08,VWS V14.01,2013-02-05 21:56:00,
2013-02-05 21:57:00,44.8,37.7,28.94,NW,315,0.0,0.0,76,0.00,,,0.08,VWS V14.01,2013-02-05 21:57:00,
2013-02-05 21:58:00,44.6,37.5,28.94,WNW,292,0.0,0.0,76,0.00,,,0.08,VWS V14.01,2013-02-05 21:58:00,
2013-02-05 21:59:00,44.4,37.3,28.94,NW,315,0.0,0.0,76,0.00,,,0.08,VWS V14.01,2013-02-05 21:59:00,
2013-02-05 22:00:00,44.4,37.3,28.95,NW,315,0.0,0.0,76,0.00,,,0.08,VWS V14.01,2013-02-05 22:00:00,
2013-02-05 22:01:00,42.3,36.3,28.93,NW,315,0.0,0.0,79,0.00,,,0.08,VWS V14.01,2013-02-05 22:01:00,
2013-02-05 22:02:00,44.1,37.0,28.95,NNW,337,0.0,0.0,76,0.00,,,0.08,VWS V14.01,2013-02-05 22:02:00,
2013-02-05 22:03:00,43.9,36.8,28.94,NNW,337,0.0,0.0,76,0.00,,,0.08,VWS V14.01,2013-02-05 22:03:00,
2013-02-05 22:04:00,43.7,36.6,28.94,NW,315,0.0,0.0,76,0.00,,,0.08,VWS V14.01,2013-02-05 22:04:00,
2013-02-05 22:05:00,43.7,36.6,28.94,NW,315,0.0,0.0,76,0.00,,,0.08,VWS V14.01,2013-02-05 22:05:00,
2013-02-05 22:06:00,43.5,36.5,28.94,North,0,0.0,0.0,76,0.00,,,0.08,VWS V14.01,2013-02-05 22:06:00,
2013-02-05 22:07:00,42.4,36.4,28.93,NW,315,0.0,0.0,79,0.00,,,0.08,VWS V14.01,2013-02-05 22:07:00,
2013-02-05 22:08:00,43.5,36.8,28.94,WNW,292,0.0,0.0,77,0.00,,,0.08,VWS V14.01,2013-02-05 22:08:00,
2013-02-05 22:09:00,43.3,36.6,28.94,WNW,292,0.0,0.0,77,0.00,,,0.08,VWS V14.01,2013-02-05 22:09:00,
2013-02-05 22:10:00,43.3,36.6,28.95,NNW,337,0.0,0.0,77,0.00,,,0.08,VWS V14.01,2013-02-05 22:10:00,
2013-02-05 22:11:00,43.2,36.5,28.95,NW,315,0.0,0.0,77,0.00,,,0.08,VWS V14.01,2013-02-05 22:11:00,
2013-02-05 22:12:00,42.4,36.4,28.93,NW,315,0.0,0.0,79,0.00,,,0.08,VWS V14.01,2013-02-05 22:12:00,
2013-02-05 22:13:00,43.2,36.5,28.95,NNW,337,0.0,0.0,77,0.00,,,0.08,VWS V14.01,2013-02-05 22:13:00,
2013-02-05 22:14:00,43.2,36.8,28.95,NNE,22,0.0,0.0,78,0.00,,,0.08,VWS V14.01,2013-02-05 22:14:00,
2013-02-05 22:15:00,43.0,36.6,28.95,NNW,337,0.0,0.0,78,0.00,,,0.08,VWS V14.01,2013-02-05 22:15:00,
2013-02-05 22:16:00,43.0,36.6,28.95,NW,315,0.0,0.0,78,0.00,,,0.08,VWS V14.01,2013-02-05 22:16:00,
2013-02-05 22:17:00,43.0,36.6,28.94,NW,315,0.0,0.0,78,0.00,,,0.08,VWS V14.01,2013-02-05 22:17:00,
2013-02-05 22:18:00,42.4,36.0,28.93,NW,315,0.0,0.0,78,0.00,,,0.08,VWS V14.01,2013-02-05 22:18:00,
2013-02-05 22:19:00,43.0,36.6,28.94,WNW,292,0.0,0.0,78,0.00,,,0.08,VWS V14.01,2013-02-05 22:19:00,
2013-02-05 22:20:00,43.0,36.6,28.94,WNW,292,0.0,0.0,78,0.00,,,0.08,VWS V14.01,2013-02-05 22:20:00,
2013-02-05 22:21:00,43.0,36.6,28.95,North,0,0.0,0.0,78,0.00,,,0.08,VWS V14.01,2013-02-05 22:21:00,
2013-02-05 22:22:00,42.6,36.5,28.95,NW,315,0.0,0.0,79,0.00,,,0.08,VWS V14.01,2013-02-05 22:22:00,
2013-02-05 22:23:00,42.4,36.0,28.93,NW,315,0.0,0.0,78,0.00,,,0.08,VWS V14.01,2013-02-05 22:23:00,
2013-02-05 22:24:00,42.6,36.5,28.95,WNW,292,0.0,0.0,79,0.00,,,0.08,VWS V14.01,2013-02-05 22:24:00,
2013-02-05 22:25:00,42.6,36.5,28.95,North,0,0.0,0.0,79,0.00,,,0.08,VWS V14.01,2013-02-05 22:25:00,
2013-02-05 22:26:00,42.6,36.5,28.95,NW,315,0.0,0.0,79,0.00,,,0.08,VWS V14.01,2013-02-05 22:26:00,
2013-02-05 22:27:00,42.6,36.5,28.95,WNW,292,0.0,0.0,79,0.00,,,0.08,VWS V14.01,2013-02-05 22:27:00,
2013-02-05 22:28:00,42.6,36.5,28.95,NNW,337,0.0,0.0,79,0.00,,,0.08,VWS V14.01,2013-02-05 22:28:00,
2013-02-05 22:29:00,42.4,36.4,28.94,North,0,0.0,0.0,79,0.00,,,0.08,VWS V14.01,2013-02-05 22:29:00,
2013-02-05 22:30:00,42.6,36.5,28.95,NNW,337,0.0,0.0,79,0.00,,,0.08,VWS V14.01,2013-02-05 22:30:00,
2013-02-05 22:31:00,42.6,36.9,28.95,NW,315,0.0,0.0,80,0.00,,,0.08,VWS V14.01,2013-02-05 22:31:00,
2013-02-05 22:32:00,42.4,36.7,28.95,North,0,0.0,0.0,80,0.00,,,0.08,VWS V14.01,2013-02-05 22:32:00,
2013-02-05 22:33:00,42.4,36.7,28.95,North,0,0.0,0.0,80,0.00,,,0.08,VWS V14.01,2013-02-05 22:33:00,
2013-02-05 22:34:00,42.4,36.7,28.95,North,0,0.0,0.0,80,0.00,,,0.08,VWS V14.01,2013-02-05 22:34:00,
2013-02-05 22:35:00,43.2,37.5,28.93,North,0,0.0,0.0,80,0.00,,,0.08,VWS V14.01,2013-02-05 22:35:00,
2013-02-05 22:36:00,42.4,36.7,28.95,NNW,337,0.0,0.0,80,0.00,,,0.08,VWS V14.01,2013-02-05 22:36:00,
2013-02-05 22:37:00,42.4,36.7,28.95,NW,315,0.0,0.0,80,0.00,,,0.08,VWS V14.01,2013-02-05 22:37:00,
2013-02-05 22:38:00,42.4,36.7,28.95,WNW,292,0.0,0.0,80,0.00,,,0.08,VWS V14.01,2013-02-05 22:38:00,
2013-02-05 22:39:00,42.3,36.6,28.95,NW,315,0.0,0.0,80,0.00,,,0.08,VWS V14.01,2013-02-05 22:39:00,
2013-02-05 22:40:00,44.2,38.1,28.93,WNW,292,0.0,0.0,79,0.00,,,0.08,VWS V14.01,2013-02-05 22:40:00,
2013-02-05 22:41:00,42.3,36.9,28.96,WNW,292,0.0,0.0,81,0.00,,,0.08,VWS V14.01,2013-02-05 22:41:00,
2013-02-05 22:42:00,42.1,36.7,28.95,NW,315,0.0,0.0,81,0.00,,,0.08,VWS V14.01,2013-02-05 22:42:00,
2013-02-05 22:43:00,42.1,36.7,28.95,NNW,337,0.0,0.0,81,0.00,,,0.08,VWS V14.01,2013-02-05 22:43:00,
2013-02-05 22:44:00,42.1,36.7,28.96,NW,315,0.0,0.0,81,0.00,,,0.08,VWS V14.01,2013-02-05 22:44:00,
2013-02-05 22:45:00,44.8,38.4,28.93,NNW,337,0.0,0.0,78,0.00,,,0.08,VWS V14.01,2013-02-05 22:45:00,
2013-02-05 22:46:00,42.1,36.7,28.95,NNW,337,0.0,0.0,81,0.00,,,0.08,VWS V14.01,2013-02-05 22:46:00,
2013-02-05 22:47:00,42.1,36.7,28.95,NW,315,0.0,0.0,81,0.00,,,0.08,VWS V14.01,2013-02-05 22:47:00,
2013-02-05 22:48:00,42.1,36.7,28.95,WNW,292,0.0,0.0,81,0.00,,,0.08,VWS V14.01,2013-02-05 22:48:00,
2013-02-05 22:49:00,42.1,36.7,28.95,WNW,292,0.0,0.0,81,0.00,,,0.08,VWS V14.01,2013-02-05 22:49:00,
2013-02-05 22:50:00,45.1,38.3,28.94,NNW,337,0.0,0.0,77,0.00,,,0.08,VWS V14.01,2013-02-05 22:50:00,
2013-02-05 22:51:00,41.9,36.5,28.95,NW,315,0.0,0.0,81,0.00,,,0.08,VWS V14.01,2013-02-05 22:51:00,
2013-02-05 22:52:00,41.9,36.5,28.95,NNW,337,0.0,0.0,81,0.00,,,0.08,VWS V14.01,2013-02-05 22:52:00,
2013-02-05 22:53:00,41.9,36.5,28.96,WNW,292,0.0,0.0,81,0.00,,,0.08,VWS V14.01,2013-02-05 22:53:00,
2013-02-05 22:54:00,41.9,36.5,28.96,NW,315,0.0,0.0,81,0.00,,,0.08,VWS V14.01,2013-02-05 22:54:00,
2013-02-05 22:55:00,45.0,37.9,28.94,NW,315,0.0,0.0,76,0.00,,,0.08,VWS V14.01,2013-02-05 22:55:00,
2013-02-05 22:56:00,41.7,36.3,28.96,NW,315,0.0,0.0,81,0.00,,,0.08,VWS V14.01,2013-02-05 22:56:00,
2013-02-05 22:57:00,41.7,36.3,28.96,WNW,292,0.0,0.0,81,0.00,,,0.08,VWS V14.01,2013-02-05 22:57:00,
2013-02-05 22:58:00,41.7,36.6,28.96,WNW,292,0.0,0.0,82,0.00,,,0.08,VWS V14.01,2013-02-05 22:58:00,
2013-02-05 22:59:00,41.7,36.6,28.96,NW,315,0.0,0.0,82,0.00,,,0.08,VWS V14.01,2013-02-05 22:59:00,
2013-02-05 23:00:00,41.7,36.6,28.96,North,0,0.0,0.0,82,0.00,,,0.00,VWS V14.01,2013-02-05 23:00:00,
2013-02-05 23:01:00,44.2,37.1,28.95,North,0,0.0,0.0,76,0.00,,,0.08,VWS V14.01,2013-02-05 23:01:00,
2013-02-05 23:02:00,41.7,36.6,28.96,North,0,0.0,0.0,82,0.00,,,0.00,VWS V14.01,2013-02-05 23:02:00,
2013-02-05 23:03:00,41.7,36.6,28.96,NW,315,0.0,0.0,82,0.00,,,0.00,VWS V14.01,2013-02-05 23:03:00,
2013-02-05 23:04:00,41.7,36.6,28.96,NNW,337,0.0,0.0,82,0.00,,,0.00,VWS V14.01,2013-02-05 23:04:00,
2013-02-05 23:05:00,41.7,36.6,28.96,NW,315,0.0,0.0,82,0.00,,,0.00,VWS V14.01,2013-02-05 23:05:00,
2013-02-05 23:06:00,43.5,36.5,28.94,North,0,0.0,0.0,76,0.00,,,0.08,VWS V14.01,2013-02-05 23:06:00,
2013-02-05 23:07:00,41.7,36.6,28.96,NNW,337,0.0,0.0,82,0.00,,,0.00,VWS V14.01,2013-02-05 23:07:00,
2013-02-05 23:08:00,41.7,36.6,28.96,NNW,337,0.0,0.0,82,0.00,,,0.00,VWS V14.01,2013-02-05 23:08:00,
2013-02-05 23:09:00,41.7,36.6,28.96,NNW,337,0.0,0.0,82,0.00,,,0.00,VWS V14.01,2013-02-05 23:09:00,
2013-02-05 23:10:00,41.7,36.6,28.96,NNW,337,0.0,0.0,82,0.00,,,0.00,VWS V14.01,2013-02-05 23:10:00,
2013-02-05 23:11:00,43.2,36.5,28.95,NW,315,0.0,0.0,77,0.00,,,0.08,VWS V14.01,2013-02-05 23:11:00,
2013-02-05 23:12:00,41.7,36.6,28.96,NW,315,0.0,0.0,82,0.00,,,0.00,VWS V14.01,2013-02-05 23:12:00,
2013-02-05 23:13:00,41.7,36.6,28.95,NNW,337,0.0,0.0,82,0.00,,,0.00,VWS V14.01,2013-02-05 23:13:00,
2013-02-05 23:14:00,41.7,36.6,28.96,NNW,337,0.0,0.0,82,0.00,,,0.00,VWS V14.01,2013-02-05 23:14:00,
2013-02-05 23:15:00,41.7,36.6,28.96,NW,315,0.0,0.0,82,0.00,,,0.00,VWS V14.01,2013-02-05 23:15:00,
2013-02-05 23:16:00,41.7,36.6,28.96,NNW,337,0.0,0.0,82,0.00,,,0.00,VWS V14.01,2013-02-05 23:16:00,
2013-02-05 23:17:00,43.0,36.6,28.94,NW,315,0.0,0.0,78,0.00,,,0.08,VWS V14.01,2013-02-05 23:17:00,
2013-02-05 23:18:00,41.7,36.6,28.96,NNW,337,0.0,0.0,82,0.00,,,0.00,VWS V14.01,2013-02-05 23:18:00,
2013-02-05 23:19:00,41.7,36.6,28.96,NW,315,0.0,0.0,82,0.00,,,0.00,VWS V14.01,2013-02-05 23:19:00,
2013-02-05 23:20:00,41.7,36.6,28.96,WNW,292,0.0,0.0,82,0.00,,,0.00,VWS V14.01,2013-02-05 23:20:00,
2013-02-05 23:21:00,41.7,36.6,28.96,WNW,292,0.0,0.0,82,0.00,,,0.00,VWS V14.01,2013-02-05 23:21:00,
2013-02-05 23:22:00,41.7,36.6,28.96,NNW,337,0.0,0.0,82,0.00,,,0.00,VWS V14.01,2013-02-05 23:22:00,
2013-02-05 23:23:00,42.6,36.5,28.95,NNW,337,0.0,0.0,79,0.00,,,0.08,VWS V14.01,2013-02-05 23:23:00,
2013-02-05 23:24:00,41.7,36.6,28.96,NNW,337,0.0,0.0,82,0.00,,,0.00,VWS V14.01,2013-02-05 23:24:00,
2013-02-05 23:25:00,41.9,36.8,28.96,NNW,337,0.0,0.0,82,0.00,,,0.00,VWS V14.01,2013-02-05 23:25:00,
2013-02-05 23:26:00,41.9,36.8,28.96,NW,315,0.0,0.0,82,0.00,,,0.00,VWS V14.01,2013-02-05 23:26:00,
2013-02-05 23:27:00,41.7,36.6,28.96,NNW,337,0.0,0.0,82,0.00,,,0.00,VWS V14.01,2013-02-05 23:27:00,
2013-02-05 23:28:00,41.9,36.8,28.96,NNE,22,0.0,0.0,82,0.00,,,0.00,VWS V14.01,2013-02-05 23:28:00,
2013-02-05 23:29:00,42.6,36.5,28.95,NNW,337,0.0,0.0,79,0.00,,,0.08,VWS V14.01,2013-02-05 23:29:00,
2013-02-05 23:30:00,41.9,36.8,28.96,WNW,292,0.0,0.0,82,0.00,,,0.00,VWS V14.01,2013-02-05 23:30:00,
2013-02-05 23:31:00,41.9,36.8,28.96,NW,315,0.0,0.0,82,0.00,,,0.00,VWS V14.01,2013-02-05 23:31:00,
2013-02-05 23:32:00,41.9,36.8,28.96,WNW,292,0.0,0.0,82,0.00,,,0.00,VWS V14.01,2013-02-05 23:32:00,
2013-02-05 23:33:00,41.9,36.8,28.97,WNW,292,0.0,0.0,82,0.00,,,0.00,VWS V14.01,2013-02-05 23:33:00,
2013-02-05 23:34:00,41.9,36.8,28.96,NW,315,0.0,0.0,82,0.00,,,0.00,VWS V14.01,2013-02-05 23:34:00,
2013-02-05 23:35:00,42.4,36.7,28.95,West,270,0.0,0.0,80,0.00,,,0.08,VWS V14.01,2013-02-05 23:35:00,
2013-02-05 23:36:00,41.9,36.8,28.96,NW,315,0.0,0.0,82,0.00,,,0.00,VWS V14.01,2013-02-05 23:36:00,
2013-02-05 23:37:00,41.9,36.8,28.97,NW,315,0.0,0.0,82,0.00,,,0.00,VWS V14.01,2013-02-05 23:37:00,
2013-02-05 23:38:00,41.9,36.8,28.97,NW,315,0.0,0.0,82,0.00,,,0.00,VWS V14.01,2013-02-05 23:38:00,
2013-02-05 23:39:00,41.9,36.8,28.97,WNW,292,0.0,0.0,82,0.00,,,0.00,VWS V14.01,2013-02-05 23:39:00,
2013-02-05 23:40:00,41.9,36.8,28.97,WNW,292,0.0,0.0,82,0.00,,,0.00,VWS V14.01,2013-02-05 23:40:00,
2013-02-05 23:41:00,42.3,36.9,28.96,WNW,292,0.0,0.0,81,0.00,,,0.08,VWS V14.01,2013-02-05 23:41:00,
2013-02-05 23:42:00,41.7,36.6,28.96,NW,315,0.0,0.0,82,0.00,,,0.00,VWS V14.01,2013-02-05 23:42:00,
2013-02-05 23:43:00,41.7,36.6,28.96,North,0,0.0,0.0,82,0.00,,,0.00,VWS V14.01,2013-02-05 23:43:00,
2013-02-05 23:44:00,41.7,36.6,28.96,North,0,0.0,0.0,82,0.00,,,0.00,VWS V14.01,2013-02-05 23:44:00,
2013-02-05 23:45:00,41.7,36.6,28.97,WNW,292,0.0,0.0,82,0.00,,,0.00,VWS V14.01,2013-02-05 23:45:00,
2013-02-05 23:46:00,42.1,36.7,28.95,NNW,337,0.0,0.0,81,0.00,,,0.08,VWS V14.01,2013-02-05 23:46:00,
2013-02-05 23:47:00,41.5,36.4,28.96,NNW,337,0.0,0.0,82,0.00,,,0.00,VWS V14.01,2013-02-05 23:47:00,
2013-02-05 23:48:00,41.5,36.4,28.96,NW,315,0.0,0.0,82,0.00,,,0.00,VWS V14.01,2013-02-05 23:48:00,
2013-02-05 23:49:00,41.5,36.4,28.96,NNW,337,0.0,0.0,82,0.00,,,0.00,VWS V14.01,2013-02-05 23:49:00,
2013-02-05 23:50:00,41.5,36.4,28.96,WNW,292,0.0,0.0,82,0.00,,,0.00,VWS V14.01,2013-02-05 23:50:00,
2013-02-05 23:51:00,41.9,36.5,28.95,NW,315,0.0,0.0,81,0.00,,,0.08,VWS V14.01,2013-02-05 23:51:00,
2013-02-05 23:52:00,41.5,36.4,28.97,NNW,337,0.0,0.0,82,0.00,,,0.00,VWS V14.01,2013-02-05 23:52:00,
2013-02-05 23:53:00,41.5,36.4,28.97,NW,315,0.0,0.0,82,0.00,,,0.00,VWS V14.01,2013-02-05 23:53:00,
2013-02-05 23:54:00,41.4,36.3,28.97,WNW,292,0.0,0.0,82,0.00,,,0.00,VWS V14.01,2013-02-05 23:54:00,
2013-02-05 23:55:00,41.4,36.3,28.97,NNW,337,0.0,0.0,82,0.00,,,0.00,VWS V14.01,2013-02-05 23:55:00,
2013-02-05 23:56:00,41.7,36.3,28.96,NW,315,0.0,0.0,81,0.00,,,0.08,VWS V14.01,2013-02-05 23:56:00,
2013-02-05 23:57:00,41.4,36.3,28.97,NNW,337,0.0,0.0,82,0.00,,,0.00,VWS V14.01,2013-02-05 23:57:00,
2013-02-05 23:58:00,41.4,36.3,28.96,NW,315,0.0,0.0,82,0.00,,,0.00,VWS V14.01,2013-02-05 23:58:00,
2013-02-05 23:59:00,41.4,36.3,28.97,NW,315,0.0,0.0,82,0.00,,,0.00,VWS V14.01,2013-02-05 23:59:00,